<?xml version="1.0" encoding="UTF-8" standalone="no" ?>
<gpx xmlns="http://www.topografix.com/GPX/1/1" xmlns:xsi="http://www.w3.org/2001/XMLSchema-instance" xsi:schemaLocation="http://www.topografix.com/GPX/1/1 http://www.topografix.com/GPX/1/1/gpx.xsd" version="1.1" creator="VisuGPX - https://www.visugpx.com">
  <metadata>
    <name>Valcroissant Glandasse</name>
    <desc><![CDATA[File with points/tracks from Locus Map/3.32.2]]></desc>
  </metadata>
  <trk>
    <name><![CDATA[F26410 Valcroissant Glandasse JPT LT XP]]></name>
    <trkseg>
      <trkpt lat="44.74547" lon="5.43478">
        <ele>674.07</ele>
        <time>2018-08-16T06:17:18.000Z</time>
      </trkpt>
      <trkpt lat="44.74554" lon="5.43486">
        <ele>673.3</ele>
        <time>2018-08-16T06:17:45.000Z</time>
      </trkpt>
      <trkpt lat="44.7457" lon="5.43495">
        <ele>671.63</ele>
        <time>2018-08-16T06:18:27.000Z</time>
      </trkpt>
      <trkpt lat="44.74591" lon="5.43558">
        <ele>675.75</ele>
        <time>2018-08-16T06:18:37.000Z</time>
      </trkpt>
      <trkpt lat="44.74584" lon="5.43572">
        <ele>676.68</ele>
        <time>2018-08-16T06:18:47.000Z</time>
      </trkpt>
      <trkpt lat="44.74589" lon="5.43586">
        <ele>678.55</ele>
        <time>2018-08-16T06:19:00.000Z</time>
      </trkpt>
      <trkpt lat="44.74607" lon="5.43602">
        <ele>684.61</ele>
        <time>2018-08-16T06:19:10.000Z</time>
      </trkpt>
      <trkpt lat="44.74605" lon="5.43618">
        <ele>686.19</ele>
        <time>2018-08-16T06:19:54.000Z</time>
      </trkpt>
      <trkpt lat="44.74618" lon="5.43629">
        <ele>691.82</ele>
        <time>2018-08-16T06:20:04.000Z</time>
      </trkpt>
      <trkpt lat="44.74599" lon="5.43656">
        <ele>690.23</ele>
        <time>2018-08-16T06:20:14.000Z</time>
      </trkpt>
      <trkpt lat="44.74609" lon="5.43674">
        <ele>694.62</ele>
        <time>2018-08-16T06:20:24.000Z</time>
      </trkpt>
      <trkpt lat="44.74605" lon="5.43694">
        <ele>696.45</ele>
        <time>2018-08-16T06:20:34.000Z</time>
      </trkpt>
      <trkpt lat="44.74614" lon="5.43709">
        <ele>699.96</ele>
        <time>2018-08-16T06:20:44.000Z</time>
      </trkpt>
      <trkpt lat="44.74623" lon="5.43715">
        <ele>702.67</ele>
        <time>2018-08-16T06:20:54.000Z</time>
      </trkpt>
      <trkpt lat="44.74617" lon="5.43726">
        <ele>702.43</ele>
        <time>2018-08-16T06:21:09.000Z</time>
      </trkpt>
      <trkpt lat="44.74614" lon="5.43739">
        <ele>703.41</ele>
        <time>2018-08-16T06:21:21.000Z</time>
      </trkpt>
      <trkpt lat="44.74617" lon="5.43725">
        <ele>702.27</ele>
        <time>2018-08-16T06:21:33.000Z</time>
      </trkpt>
      <trkpt lat="44.74626" lon="5.43722">
        <ele>703.97</ele>
        <time>2018-08-16T06:22:08.000Z</time>
      </trkpt>
      <trkpt lat="44.74629" lon="5.43736">
        <ele>705.85</ele>
        <time>2018-08-16T06:22:41.000Z</time>
      </trkpt>
      <trkpt lat="44.74639" lon="5.43756">
        <ele>710.01</ele>
        <time>2018-08-16T06:22:51.000Z</time>
      </trkpt>
      <trkpt lat="44.74644" lon="5.43768">
        <ele>712.07</ele>
        <time>2018-08-16T06:23:12.000Z</time>
      </trkpt>
      <trkpt lat="44.74652" lon="5.4378">
        <ele>715.51</ele>
        <time>2018-08-16T06:23:23.000Z</time>
      </trkpt>
      <trkpt lat="44.74642" lon="5.4379">
        <ele>713.65</ele>
        <time>2018-08-16T06:23:33.000Z</time>
      </trkpt>
      <trkpt lat="44.74652" lon="5.43793">
        <ele>716.55</ele>
        <time>2018-08-16T06:23:46.000Z</time>
      </trkpt>
      <trkpt lat="44.74651" lon="5.43807">
        <ele>717.65</ele>
        <time>2018-08-16T06:23:57.000Z</time>
      </trkpt>
      <trkpt lat="44.74658" lon="5.43816">
        <ele>720.59</ele>
        <time>2018-08-16T06:24:08.000Z</time>
      </trkpt>
      <trkpt lat="44.74663" lon="5.43828">
        <ele>723.35</ele>
        <time>2018-08-16T06:24:19.000Z</time>
      </trkpt>
      <trkpt lat="44.7467" lon="5.43842">
        <ele>726.6</ele>
        <time>2018-08-16T06:24:29.000Z</time>
      </trkpt>
      <trkpt lat="44.74674" lon="5.43853">
        <ele>728.97</ele>
        <time>2018-08-16T06:24:40.000Z</time>
      </trkpt>
      <trkpt lat="44.7467" lon="5.43866">
        <ele>727.07</ele>
        <time>2018-08-16T06:24:57.000Z</time>
      </trkpt>
      <trkpt lat="44.74673" lon="5.43879">
        <ele>728.01</ele>
        <time>2018-08-16T06:25:09.000Z</time>
      </trkpt>
      <trkpt lat="44.7468" lon="5.43888">
        <ele>731.36</ele>
        <time>2018-08-16T06:25:32.000Z</time>
      </trkpt>
      <trkpt lat="44.74684" lon="5.439">
        <ele>733.84</ele>
        <time>2018-08-16T06:25:42.000Z</time>
      </trkpt>
      <trkpt lat="44.74701" lon="5.4392">
        <ele>744.88</ele>
        <time>2018-08-16T06:25:52.000Z</time>
      </trkpt>
      <trkpt lat="44.74689" lon="5.43924">
        <ele>737.95</ele>
        <time>2018-08-16T06:26:04.000Z</time>
      </trkpt>
      <trkpt lat="44.74693" lon="5.43937">
        <ele>740.73</ele>
        <time>2018-08-16T06:26:17.000Z</time>
      </trkpt>
      <trkpt lat="44.74702" lon="5.43946">
        <ele>745.61</ele>
        <time>2018-08-16T06:26:27.000Z</time>
      </trkpt>
      <trkpt lat="44.74705" lon="5.43959">
        <ele>746.68</ele>
        <time>2018-08-16T06:26:38.000Z</time>
      </trkpt>
      <trkpt lat="44.74695" lon="5.43962">
        <ele>743.57</ele>
        <time>2018-08-16T06:27:06.000Z</time>
      </trkpt>
      <trkpt lat="44.74687" lon="5.43975">
        <ele>743.6</ele>
        <time>2018-08-16T06:27:16.000Z</time>
      </trkpt>
      <trkpt lat="44.74678" lon="5.43985">
        <ele>745.19</ele>
        <time>2018-08-16T06:27:26.000Z</time>
      </trkpt>
      <trkpt lat="44.74671" lon="5.43997">
        <ele>748.75</ele>
        <time>2018-08-16T06:27:37.000Z</time>
      </trkpt>
      <trkpt lat="44.74662" lon="5.4399">
        <ele>747.13</ele>
        <time>2018-08-16T06:27:49.000Z</time>
      </trkpt>
      <trkpt lat="44.74653" lon="5.43983">
        <ele>745.76</ele>
        <time>2018-08-16T06:28:09.000Z</time>
      </trkpt>
      <trkpt lat="44.74646" lon="5.43994">
        <ele>750.71</ele>
        <time>2018-08-16T06:28:22.000Z</time>
      </trkpt>
      <trkpt lat="44.74634" lon="5.43995">
        <ele>754.35</ele>
        <time>2018-08-16T06:28:33.000Z</time>
      </trkpt>
      <trkpt lat="44.74623" lon="5.44005">
        <ele>761.64</ele>
        <time>2018-08-16T06:28:43.000Z</time>
      </trkpt>
      <trkpt lat="44.74614" lon="5.44">
        <ele>762.22</ele>
        <time>2018-08-16T06:28:53.000Z</time>
      </trkpt>
      <trkpt lat="44.74603" lon="5.43998">
        <ele>764.47</ele>
        <time>2018-08-16T06:29:03.000Z</time>
      </trkpt>
      <trkpt lat="44.74596" lon="5.43987">
        <ele>761.74</ele>
        <time>2018-08-16T06:29:19.000Z</time>
      </trkpt>
      <trkpt lat="44.74587" lon="5.43982">
        <ele>761.7</ele>
        <time>2018-08-16T06:29:38.000Z</time>
      </trkpt>
      <trkpt lat="44.74577" lon="5.43987">
        <ele>765.01</ele>
        <time>2018-08-16T06:29:48.000Z</time>
      </trkpt>
      <trkpt lat="44.74567" lon="5.43982">
        <ele>764.31</ele>
        <time>2018-08-16T06:29:58.000Z</time>
      </trkpt>
      <trkpt lat="44.74564" lon="5.4397">
        <ele>758.71</ele>
        <time>2018-08-16T06:30:10.000Z</time>
      </trkpt>
      <trkpt lat="44.74553" lon="5.43972">
        <ele>760.45</ele>
        <time>2018-08-16T06:30:20.000Z</time>
      </trkpt>
      <trkpt lat="44.74543" lon="5.43977">
        <ele>763.29</ele>
        <time>2018-08-16T06:30:48.000Z</time>
      </trkpt>
      <trkpt lat="44.74533" lon="5.43982">
        <ele>766.72</ele>
        <time>2018-08-16T06:30:59.000Z</time>
      </trkpt>
      <trkpt lat="44.74522" lon="5.43983">
        <ele>768.01</ele>
        <time>2018-08-16T06:31:09.000Z</time>
      </trkpt>
      <trkpt lat="44.74513" lon="5.43982">
        <ele>768.7</ele>
        <time>2018-08-16T06:31:21.000Z</time>
      </trkpt>
      <trkpt lat="44.74501" lon="5.43985">
        <ele>771.73</ele>
        <time>2018-08-16T06:31:31.000Z</time>
      </trkpt>
      <trkpt lat="44.74489" lon="5.43996">
        <ele>778.64</ele>
        <time>2018-08-16T06:31:41.000Z</time>
      </trkpt>
      <trkpt lat="44.7448" lon="5.43989">
        <ele>775.91</ele>
        <time>2018-08-16T06:31:56.000Z</time>
      </trkpt>
      <trkpt lat="44.7447" lon="5.43992">
        <ele>777.85</ele>
        <time>2018-08-16T06:32:08.000Z</time>
      </trkpt>
      <trkpt lat="44.74476" lon="5.44002">
        <ele>781.92</ele>
        <time>2018-08-16T06:32:26.000Z</time>
      </trkpt>
      <trkpt lat="44.74486" lon="5.44004">
        <ele>782.81</ele>
        <time>2018-08-16T06:32:38.000Z</time>
      </trkpt>
      <trkpt lat="44.74493" lon="5.44011">
        <ele>786.4</ele>
        <time>2018-08-16T06:32:51.000Z</time>
      </trkpt>
      <trkpt lat="44.74504" lon="5.43995">
        <ele>776.93</ele>
        <time>2018-08-16T06:33:01.000Z</time>
      </trkpt>
      <trkpt lat="44.74519" lon="5.44">
        <ele>777.73</ele>
        <time>2018-08-16T06:33:11.000Z</time>
      </trkpt>
      <trkpt lat="44.7453" lon="5.43998">
        <ele>775.88</ele>
        <time>2018-08-16T06:33:21.000Z</time>
      </trkpt>
      <trkpt lat="44.74536" lon="5.44009">
        <ele>780.73</ele>
        <time>2018-08-16T06:33:34.000Z</time>
      </trkpt>
      <trkpt lat="44.74547" lon="5.44014">
        <ele>781.87</ele>
        <time>2018-08-16T06:33:44.000Z</time>
      </trkpt>
      <trkpt lat="44.74544" lon="5.44026">
        <ele>788.72</ele>
        <time>2018-08-16T06:34:03.000Z</time>
      </trkpt>
      <trkpt lat="44.74562" lon="5.44033">
        <ele>788.63</ele>
        <time>2018-08-16T06:34:13.000Z</time>
      </trkpt>
      <trkpt lat="44.74572" lon="5.4404">
        <ele>789.59</ele>
        <time>2018-08-16T06:34:23.000Z</time>
      </trkpt>
      <trkpt lat="44.7458" lon="5.44049">
        <ele>791.69</ele>
        <time>2018-08-16T06:34:37.000Z</time>
      </trkpt>
      <trkpt lat="44.74589" lon="5.44058">
        <ele>793.1</ele>
        <time>2018-08-16T06:34:53.000Z</time>
      </trkpt>
      <trkpt lat="44.74597" lon="5.44076">
        <ele>798.7</ele>
        <time>2018-08-16T06:35:03.000Z</time>
      </trkpt>
      <trkpt lat="44.74605" lon="5.44083">
        <ele>799.25</ele>
        <time>2018-08-16T06:35:13.000Z</time>
      </trkpt>
      <trkpt lat="44.74613" lon="5.44089">
        <ele>799.5</ele>
        <time>2018-08-16T06:35:26.000Z</time>
      </trkpt>
      <trkpt lat="44.74604" lon="5.44097">
        <ele>805.86</ele>
        <time>2018-08-16T06:35:36.000Z</time>
      </trkpt>
      <trkpt lat="44.74616" lon="5.44098">
        <ele>802.82</ele>
        <time>2018-08-16T06:36:12.000Z</time>
      </trkpt>
      <trkpt lat="44.74632" lon="5.44106">
        <ele>801.53</ele>
        <time>2018-08-16T06:36:22.000Z</time>
      </trkpt>
      <trkpt lat="44.74638" lon="5.44119">
        <ele>806.16</ele>
        <time>2018-08-16T06:36:34.000Z</time>
      </trkpt>
      <trkpt lat="44.74647" lon="5.4412">
        <ele>804.2</ele>
        <time>2018-08-16T06:36:44.000Z</time>
      </trkpt>
      <trkpt lat="44.74659" lon="5.44129">
        <ele>805.01</ele>
        <time>2018-08-16T06:36:54.000Z</time>
      </trkpt>
      <trkpt lat="44.74662" lon="5.44143">
        <ele>810.01</ele>
        <time>2018-08-16T06:37:15.000Z</time>
      </trkpt>
      <trkpt lat="44.74666" lon="5.44155">
        <ele>813.37</ele>
        <time>2018-08-16T06:37:25.000Z</time>
      </trkpt>
      <trkpt lat="44.74675" lon="5.44171">
        <ele>815.16</ele>
        <time>2018-08-16T06:37:35.000Z</time>
      </trkpt>
      <trkpt lat="44.74683" lon="5.44179">
        <ele>814.12</ele>
        <time>2018-08-16T06:37:46.000Z</time>
      </trkpt>
      <trkpt lat="44.74672" lon="5.44186">
        <ele>819.43</ele>
        <time>2018-08-16T06:37:56.000Z</time>
      </trkpt>
      <trkpt lat="44.74676" lon="5.44197">
        <ele>819.38</ele>
        <time>2018-08-16T06:38:30.000Z</time>
      </trkpt>
      <trkpt lat="44.74686" lon="5.44224">
        <ele>820.22</ele>
        <time>2018-08-16T06:38:40.000Z</time>
      </trkpt>
      <trkpt lat="44.74697" lon="5.44226">
        <ele>818.18</ele>
        <time>2018-08-16T06:39:08.000Z</time>
      </trkpt>
      <trkpt lat="44.74707" lon="5.4422">
        <ele>814.86</ele>
        <time>2018-08-16T06:39:18.000Z</time>
      </trkpt>
      <trkpt lat="44.74714" lon="5.44228">
        <ele>816.11</ele>
        <time>2018-08-16T06:39:28.000Z</time>
      </trkpt>
      <trkpt lat="44.74725" lon="5.44239">
        <ele>819.16</ele>
        <time>2018-08-16T06:39:38.000Z</time>
      </trkpt>
      <trkpt lat="44.74732" lon="5.44247">
        <ele>822.48</ele>
        <time>2018-08-16T06:39:50.000Z</time>
      </trkpt>
      <trkpt lat="44.74743" lon="5.44252">
        <ele>824.53</ele>
        <time>2018-08-16T06:40:01.000Z</time>
      </trkpt>
      <trkpt lat="44.74752" lon="5.4426">
        <ele>827.87</ele>
        <time>2018-08-16T06:40:39.000Z</time>
      </trkpt>
      <trkpt lat="44.74745" lon="5.4427">
        <ele>831.98</ele>
        <time>2018-08-16T06:40:59.000Z</time>
      </trkpt>
      <trkpt lat="44.74735" lon="5.44273">
        <ele>833.22</ele>
        <time>2018-08-16T06:41:13.000Z</time>
      </trkpt>
      <trkpt lat="44.74721" lon="5.44274">
        <ele>834.01</ele>
        <time>2018-08-16T06:41:23.000Z</time>
      </trkpt>
      <trkpt lat="44.74712" lon="5.44271">
        <ele>832.83</ele>
        <time>2018-08-16T06:41:59.000Z</time>
      </trkpt>
      <trkpt lat="44.74703" lon="5.44272">
        <ele>833.89</ele>
        <time>2018-08-16T06:42:26.000Z</time>
      </trkpt>
      <trkpt lat="44.74689" lon="5.44277">
        <ele>838.9</ele>
        <time>2018-08-16T06:42:36.000Z</time>
      </trkpt>
      <trkpt lat="44.74678" lon="5.44277">
        <ele>841.25</ele>
        <time>2018-08-16T06:42:46.000Z</time>
      </trkpt>
      <trkpt lat="44.74667" lon="5.44281">
        <ele>847</ele>
        <time>2018-08-16T06:42:56.000Z</time>
      </trkpt>
      <trkpt lat="44.74655" lon="5.44268">
        <ele>846</ele>
        <time>2018-08-16T06:43:07.000Z</time>
      </trkpt>
      <trkpt lat="44.7465" lon="5.4428">
        <ele>854.25</ele>
        <time>2018-08-16T06:43:19.000Z</time>
      </trkpt>
      <trkpt lat="44.74644" lon="5.44293">
        <ele>863.34</ele>
        <time>2018-08-16T06:43:29.000Z</time>
      </trkpt>
      <trkpt lat="44.7463" lon="5.44291">
        <ele>869.86</ele>
        <time>2018-08-16T06:43:39.000Z</time>
      </trkpt>
      <trkpt lat="44.7464" lon="5.44282">
        <ele>860.7</ele>
        <time>2018-08-16T06:43:50.000Z</time>
      </trkpt>
      <trkpt lat="44.74628" lon="5.44278">
        <ele>866.41</ele>
        <time>2018-08-16T06:44:00.000Z</time>
      </trkpt>
      <trkpt lat="44.7463" lon="5.44257">
        <ele>858.64</ele>
        <time>2018-08-16T06:44:10.000Z</time>
      </trkpt>
      <trkpt lat="44.74642" lon="5.44252">
        <ele>847.83</ele>
        <time>2018-08-16T06:44:20.000Z</time>
      </trkpt>
      <trkpt lat="44.74648" lon="5.44238">
        <ele>839</ele>
        <time>2018-08-16T06:44:30.000Z</time>
      </trkpt>
      <trkpt lat="44.74639" lon="5.4423">
        <ele>842.84</ele>
        <time>2018-08-16T06:44:41.000Z</time>
      </trkpt>
      <trkpt lat="44.74633" lon="5.44215">
        <ele>843.27</ele>
        <time>2018-08-16T06:44:51.000Z</time>
      </trkpt>
      <trkpt lat="44.74625" lon="5.44207">
        <ele>845.54</ele>
        <time>2018-08-16T06:45:01.000Z</time>
      </trkpt>
      <trkpt lat="44.74614" lon="5.4421">
        <ele>853.69</ele>
        <time>2018-08-16T06:45:11.000Z</time>
      </trkpt>
      <trkpt lat="44.74605" lon="5.44204">
        <ele>856.21</ele>
        <time>2018-08-16T06:45:37.000Z</time>
      </trkpt>
      <trkpt lat="44.746" lon="5.44194">
        <ele>854.13</ele>
        <time>2018-08-16T06:46:47.000Z</time>
      </trkpt>
      <trkpt lat="44.74591" lon="5.44185">
        <ele>853.53</ele>
        <time>2018-08-16T06:49:27.000Z</time>
      </trkpt>
      <trkpt lat="44.74572" lon="5.44178">
        <ele>858.79</ele>
        <time>2018-08-16T06:49:37.000Z</time>
      </trkpt>
      <trkpt lat="44.74544" lon="5.44174">
        <ele>872.88</ele>
        <time>2018-08-16T06:49:47.000Z</time>
      </trkpt>
      <trkpt lat="44.74541" lon="5.44161">
        <ele>867.04</ele>
        <time>2018-08-16T06:50:21.000Z</time>
      </trkpt>
      <trkpt lat="44.74549" lon="5.44173">
        <ele>869.54</ele>
        <time>2018-08-16T06:50:52.000Z</time>
      </trkpt>
      <trkpt lat="44.74556" lon="5.44182">
        <ele>871.13</ele>
        <time>2018-08-16T06:51:09.000Z</time>
      </trkpt>
      <trkpt lat="44.74562" lon="5.44191">
        <ele>872.61</ele>
        <time>2018-08-16T06:51:19.000Z</time>
      </trkpt>
      <trkpt lat="44.74573" lon="5.44195">
        <ele>868.93</ele>
        <time>2018-08-16T06:51:34.000Z</time>
      </trkpt>
      <trkpt lat="44.74586" lon="5.44207">
        <ele>868.8</ele>
        <time>2018-08-16T06:51:44.000Z</time>
      </trkpt>
      <trkpt lat="44.74591" lon="5.44218">
        <ele>872.12</ele>
        <time>2018-08-16T06:51:56.000Z</time>
      </trkpt>
      <trkpt lat="44.74601" lon="5.44223">
        <ele>867.76</ele>
        <time>2018-08-16T06:52:17.000Z</time>
      </trkpt>
      <trkpt lat="44.74601" lon="5.44236">
        <ele>873.64</ele>
        <time>2018-08-16T06:52:30.000Z</time>
      </trkpt>
      <trkpt lat="44.74596" lon="5.44249">
        <ele>882.15</ele>
        <time>2018-08-16T06:52:40.000Z</time>
      </trkpt>
      <trkpt lat="44.74611" lon="5.44256">
        <ele>872.74</ele>
        <time>2018-08-16T06:52:50.000Z</time>
      </trkpt>
      <trkpt lat="44.74607" lon="5.4427">
        <ele>879.54</ele>
        <time>2018-08-16T06:53:00.000Z</time>
      </trkpt>
      <trkpt lat="44.74597" lon="5.44279">
        <ele>888.99</ele>
        <time>2018-08-16T06:53:14.000Z</time>
      </trkpt>
      <trkpt lat="44.74586" lon="5.44288">
        <ele>897.87</ele>
        <time>2018-08-16T06:53:24.000Z</time>
      </trkpt>
      <trkpt lat="44.74594" lon="5.44296">
        <ele>893.02</ele>
        <time>2018-08-16T06:53:34.000Z</time>
      </trkpt>
      <trkpt lat="44.74603" lon="5.44289">
        <ele>886.37</ele>
        <time>2018-08-16T06:53:48.000Z</time>
      </trkpt>
      <trkpt lat="44.74599" lon="5.44271">
        <ele>886.05</ele>
        <time>2018-08-16T06:53:58.000Z</time>
      </trkpt>
      <trkpt lat="44.74589" lon="5.44263">
        <ele>891.5</ele>
        <time>2018-08-16T06:54:08.000Z</time>
      </trkpt>
      <trkpt lat="44.7458" lon="5.44255">
        <ele>895.75</ele>
        <time>2018-08-16T06:54:18.000Z</time>
      </trkpt>
      <trkpt lat="44.74581" lon="5.4424">
        <ele>889.85</ele>
        <time>2018-08-16T06:54:28.000Z</time>
      </trkpt>
      <trkpt lat="44.74572" lon="5.44234">
        <ele>893.15</ele>
        <time>2018-08-16T06:55:09.000Z</time>
      </trkpt>
      <trkpt lat="44.74555" lon="5.44228">
        <ele>902.3</ele>
        <time>2018-08-16T06:55:19.000Z</time>
      </trkpt>
      <trkpt lat="44.74547" lon="5.4422">
        <ele>902.67</ele>
        <time>2018-08-16T06:55:29.000Z</time>
      </trkpt>
      <trkpt lat="44.74536" lon="5.44212">
        <ele>904.42</ele>
        <time>2018-08-16T06:55:39.000Z</time>
      </trkpt>
      <trkpt lat="44.74513" lon="5.44212">
        <ele>917.02</ele>
        <time>2018-08-16T06:55:49.000Z</time>
      </trkpt>
      <trkpt lat="44.74522" lon="5.44218">
        <ele>916.9</ele>
        <time>2018-08-16T06:56:40.000Z</time>
      </trkpt>
      <trkpt lat="44.74531" lon="5.44234">
        <ele>922.39</ele>
        <time>2018-08-16T06:56:50.000Z</time>
      </trkpt>
      <trkpt lat="44.74536" lon="5.44245">
        <ele>924.72</ele>
        <time>2018-08-16T06:57:04.000Z</time>
      </trkpt>
      <trkpt lat="44.74539" lon="5.44258">
        <ele>927.92</ele>
        <time>2018-08-16T06:57:39.000Z</time>
      </trkpt>
      <trkpt lat="44.74551" lon="5.44276">
        <ele>923.14</ele>
        <time>2018-08-16T06:57:49.000Z</time>
      </trkpt>
      <trkpt lat="44.74577" lon="5.44293">
        <ele>904.4</ele>
        <time>2018-08-16T06:57:59.000Z</time>
      </trkpt>
      <trkpt lat="44.74565" lon="5.44302">
        <ele>914.54</ele>
        <time>2018-08-16T06:58:09.000Z</time>
      </trkpt>
      <trkpt lat="44.74561" lon="5.44319">
        <ele>919.97</ele>
        <time>2018-08-16T06:58:19.000Z</time>
      </trkpt>
      <trkpt lat="44.74542" lon="5.44321">
        <ele>937.97</ele>
        <time>2018-08-16T06:58:29.000Z</time>
      </trkpt>
      <trkpt lat="44.74552" lon="5.44327">
        <ele>929.01</ele>
        <time>2018-08-16T06:58:39.000Z</time>
      </trkpt>
      <trkpt lat="44.7456" lon="5.44335">
        <ele>923.68</ele>
        <time>2018-08-16T06:59:36.000Z</time>
      </trkpt>
      <trkpt lat="44.74562" lon="5.44348">
        <ele>924.57</ele>
        <time>2018-08-16T06:59:46.000Z</time>
      </trkpt>
      <trkpt lat="44.74571" lon="5.44364">
        <ele>920.84</ele>
        <time>2018-08-16T06:59:56.000Z</time>
      </trkpt>
      <trkpt lat="44.74561" lon="5.44367">
        <ele>929.44</ele>
        <time>2018-08-16T07:00:17.000Z</time>
      </trkpt>
      <trkpt lat="44.74565" lon="5.4438">
        <ele>930.25</ele>
        <time>2018-08-16T07:00:34.000Z</time>
      </trkpt>
      <trkpt lat="44.74571" lon="5.4439">
        <ele>928.64</ele>
        <time>2018-08-16T07:01:47.000Z</time>
      </trkpt>
      <trkpt lat="44.74587" lon="5.44403">
        <ele>924.82</ele>
        <time>2018-08-16T07:01:57.000Z</time>
      </trkpt>
      <trkpt lat="44.74595" lon="5.44411">
        <ele>925.33</ele>
        <time>2018-08-16T07:02:09.000Z</time>
      </trkpt>
      <trkpt lat="44.74613" lon="5.4442">
        <ele>925.39</ele>
        <time>2018-08-16T07:02:19.000Z</time>
      </trkpt>
      <trkpt lat="44.74626" lon="5.44418">
        <ele>922.68</ele>
        <time>2018-08-16T07:02:32.000Z</time>
      </trkpt>
      <trkpt lat="44.74624" lon="5.44432">
        <ele>929.66</ele>
        <time>2018-08-16T07:02:42.000Z</time>
      </trkpt>
      <trkpt lat="44.74633" lon="5.44432">
        <ele>928.92</ele>
        <time>2018-08-16T07:02:52.000Z</time>
      </trkpt>
      <trkpt lat="44.74641" lon="5.44443">
        <ele>933.57</ele>
        <time>2018-08-16T07:03:26.000Z</time>
      </trkpt>
      <trkpt lat="44.74643" lon="5.44456">
        <ele>939.53</ele>
        <time>2018-08-16T07:03:36.000Z</time>
      </trkpt>
      <trkpt lat="44.74656" lon="5.44461">
        <ele>939.61</ele>
        <time>2018-08-16T07:03:46.000Z</time>
      </trkpt>
      <trkpt lat="44.74674" lon="5.44471">
        <ele>940.84</ele>
        <time>2018-08-16T07:03:56.000Z</time>
      </trkpt>
      <trkpt lat="44.74683" lon="5.44478">
        <ele>942</ele>
        <time>2018-08-16T07:04:09.000Z</time>
      </trkpt>
      <trkpt lat="44.74703" lon="5.44479">
        <ele>937.91</ele>
        <time>2018-08-16T07:04:19.000Z</time>
      </trkpt>
      <trkpt lat="44.74704" lon="5.44495">
        <ele>945.53</ele>
        <time>2018-08-16T07:04:34.000Z</time>
      </trkpt>
      <trkpt lat="44.74709" lon="5.44509">
        <ele>951.78</ele>
        <time>2018-08-16T07:05:23.000Z</time>
      </trkpt>
      <trkpt lat="44.74734" lon="5.44527">
        <ele>956.38</ele>
        <time>2018-08-16T07:05:33.000Z</time>
      </trkpt>
      <trkpt lat="44.74748" lon="5.44529">
        <ele>954.6</ele>
        <time>2018-08-16T07:05:43.000Z</time>
      </trkpt>
      <trkpt lat="44.74758" lon="5.44532">
        <ele>954.46</ele>
        <time>2018-08-16T07:05:53.000Z</time>
      </trkpt>
      <trkpt lat="44.74767" lon="5.44534">
        <ele>954.05</ele>
        <time>2018-08-16T07:06:03.000Z</time>
      </trkpt>
      <trkpt lat="44.74775" lon="5.44542">
        <ele>957.05</ele>
        <time>2018-08-16T07:07:02.000Z</time>
      </trkpt>
      <trkpt lat="44.74784" lon="5.44545">
        <ele>957.29</ele>
        <time>2018-08-16T07:07:19.000Z</time>
      </trkpt>
      <trkpt lat="44.74799" lon="5.44547">
        <ele>957.03</ele>
        <time>2018-08-16T07:07:29.000Z</time>
      </trkpt>
      <trkpt lat="44.74813" lon="5.4455">
        <ele>957.21</ele>
        <time>2018-08-16T07:07:39.000Z</time>
      </trkpt>
      <trkpt lat="44.7482" lon="5.44562">
        <ele>963.7</ele>
        <time>2018-08-16T07:07:58.000Z</time>
      </trkpt>
      <trkpt lat="44.74829" lon="5.44566">
        <ele>965.88</ele>
        <time>2018-08-16T07:08:08.000Z</time>
      </trkpt>
      <trkpt lat="44.74838" lon="5.44569">
        <ele>966.51</ele>
        <time>2018-08-16T07:08:18.000Z</time>
      </trkpt>
      <trkpt lat="44.74837" lon="5.44554">
        <ele>958.21</ele>
        <time>2018-08-16T07:08:28.000Z</time>
      </trkpt>
      <trkpt lat="44.7485" lon="5.44555">
        <ele>958</ele>
        <time>2018-08-16T07:08:38.000Z</time>
      </trkpt>
      <trkpt lat="44.74858" lon="5.44545">
        <ele>952.72</ele>
        <time>2018-08-16T07:08:51.000Z</time>
      </trkpt>
      <trkpt lat="44.74871" lon="5.44546">
        <ele>953.09</ele>
        <time>2018-08-16T07:09:01.000Z</time>
      </trkpt>
      <trkpt lat="44.74873" lon="5.44559">
        <ele>958.01</ele>
        <time>2018-08-16T07:09:18.000Z</time>
      </trkpt>
      <trkpt lat="44.74883" lon="5.44566">
        <ele>960.24</ele>
        <time>2018-08-16T07:09:28.000Z</time>
      </trkpt>
      <trkpt lat="44.74885" lon="5.44579">
        <ele>965.01</ele>
        <time>2018-08-16T07:09:38.000Z</time>
      </trkpt>
      <trkpt lat="44.74877" lon="5.44576">
        <ele>964.76</ele>
        <time>2018-08-16T07:10:09.000Z</time>
      </trkpt>
      <trkpt lat="44.74887" lon="5.44582">
        <ele>966.12</ele>
        <time>2018-08-16T07:10:20.000Z</time>
      </trkpt>
      <trkpt lat="44.74894" lon="5.4459">
        <ele>969.05</ele>
        <time>2018-08-16T07:10:40.000Z</time>
      </trkpt>
      <trkpt lat="44.74908" lon="5.44585">
        <ele>967.57</ele>
        <time>2018-08-16T07:11:14.000Z</time>
      </trkpt>
      <trkpt lat="44.74919" lon="5.44588">
        <ele>971.63</ele>
        <time>2018-08-16T07:11:24.000Z</time>
      </trkpt>
      <trkpt lat="44.74936" lon="5.44583">
        <ele>978.39</ele>
        <time>2018-08-16T07:11:34.000Z</time>
      </trkpt>
      <trkpt lat="44.74932" lon="5.4457">
        <ele>972.61</ele>
        <time>2018-08-16T07:11:54.000Z</time>
      </trkpt>
      <trkpt lat="44.74941" lon="5.44551">
        <ele>974.07</ele>
        <time>2018-08-16T07:12:04.000Z</time>
      </trkpt>
      <trkpt lat="44.74948" lon="5.4454">
        <ele>976.27</ele>
        <time>2018-08-16T07:12:15.000Z</time>
      </trkpt>
      <trkpt lat="44.74956" lon="5.4453">
        <ele>979.21</ele>
        <time>2018-08-16T07:12:25.000Z</time>
      </trkpt>
      <trkpt lat="44.74958" lon="5.44516">
        <ele>977.36</ele>
        <time>2018-08-16T07:12:40.000Z</time>
      </trkpt>
      <trkpt lat="44.74966" lon="5.44509">
        <ele>979.93</ele>
        <time>2018-08-16T07:12:50.000Z</time>
      </trkpt>
      <trkpt lat="44.74972" lon="5.44497">
        <ele>979.87</ele>
        <time>2018-08-16T07:13:03.000Z</time>
      </trkpt>
      <trkpt lat="44.7498" lon="5.44492">
        <ele>982.9</ele>
        <time>2018-08-16T07:13:14.000Z</time>
      </trkpt>
      <trkpt lat="44.74989" lon="5.44488">
        <ele>985.83</ele>
        <time>2018-08-16T07:13:26.000Z</time>
      </trkpt>
      <trkpt lat="44.74994" lon="5.44477">
        <ele>984.78</ele>
        <time>2018-08-16T07:13:37.000Z</time>
      </trkpt>
      <trkpt lat="44.7501" lon="5.44481">
        <ele>992.76</ele>
        <time>2018-08-16T07:13:47.000Z</time>
      </trkpt>
      <trkpt lat="44.75016" lon="5.44471">
        <ele>992.56</ele>
        <time>2018-08-16T07:13:59.000Z</time>
      </trkpt>
      <trkpt lat="44.75032" lon="5.4447">
        <ele>998.71</ele>
        <time>2018-08-16T07:14:09.000Z</time>
      </trkpt>
      <trkpt lat="44.75041" lon="5.44467">
        <ele>1001.31</ele>
        <time>2018-08-16T07:14:23.000Z</time>
      </trkpt>
      <trkpt lat="44.75049" lon="5.44459">
        <ele>1002.2</ele>
        <time>2018-08-16T07:14:34.000Z</time>
      </trkpt>
      <trkpt lat="44.75049" lon="5.44446">
        <ele>999.05</ele>
        <time>2018-08-16T07:14:53.000Z</time>
      </trkpt>
      <trkpt lat="44.75058" lon="5.44438">
        <ele>1000.61</ele>
        <time>2018-08-16T07:15:24.000Z</time>
      </trkpt>
      <trkpt lat="44.75075" lon="5.44433">
        <ele>1005.02</ele>
        <time>2018-08-16T07:15:34.000Z</time>
      </trkpt>
      <trkpt lat="44.75089" lon="5.44429">
        <ele>1007.77</ele>
        <time>2018-08-16T07:15:44.000Z</time>
      </trkpt>
      <trkpt lat="44.75102" lon="5.44433">
        <ele>1012.22</ele>
        <time>2018-08-16T07:15:54.000Z</time>
      </trkpt>
      <trkpt lat="44.75108" lon="5.44422">
        <ele>1010.46</ele>
        <time>2018-08-16T07:16:25.000Z</time>
      </trkpt>
      <trkpt lat="44.75128" lon="5.44416">
        <ele>1012.34</ele>
        <time>2018-08-16T07:16:35.000Z</time>
      </trkpt>
      <trkpt lat="44.7514" lon="5.44412">
        <ele>1012.19</ele>
        <time>2018-08-16T07:16:45.000Z</time>
      </trkpt>
      <trkpt lat="44.7515" lon="5.44418">
        <ele>1015.24</ele>
        <time>2018-08-16T07:17:19.000Z</time>
      </trkpt>
      <trkpt lat="44.75159" lon="5.44424">
        <ele>1017.38</ele>
        <time>2018-08-16T07:17:29.000Z</time>
      </trkpt>
      <trkpt lat="44.75152" lon="5.44433">
        <ele>1020.43</ele>
        <time>2018-08-16T07:19:13.000Z</time>
      </trkpt>
      <trkpt lat="44.75143" lon="5.4444">
        <ele>1022.06</ele>
        <time>2018-08-16T07:19:32.000Z</time>
      </trkpt>
      <trkpt lat="44.75134" lon="5.44451">
        <ele>1023.57</ele>
        <time>2018-08-16T07:19:42.000Z</time>
      </trkpt>
      <trkpt lat="44.75122" lon="5.4446">
        <ele>1023.79</ele>
        <time>2018-08-16T07:19:52.000Z</time>
      </trkpt>
      <trkpt lat="44.75113" lon="5.44462">
        <ele>1022.2</ele>
        <time>2018-08-16T07:20:02.000Z</time>
      </trkpt>
      <trkpt lat="44.7511" lon="5.44476">
        <ele>1024.87</ele>
        <time>2018-08-16T07:20:12.000Z</time>
      </trkpt>
      <trkpt lat="44.75101" lon="5.44484">
        <ele>1024.57</ele>
        <time>2018-08-16T07:20:25.000Z</time>
      </trkpt>
      <trkpt lat="44.75099" lon="5.44497">
        <ele>1027.31</ele>
        <time>2018-08-16T07:20:36.000Z</time>
      </trkpt>
      <trkpt lat="44.75092" lon="5.44509">
        <ele>1028.93</ele>
        <time>2018-08-16T07:20:48.000Z</time>
      </trkpt>
      <trkpt lat="44.75082" lon="5.44516">
        <ele>1028.45</ele>
        <time>2018-08-16T07:20:58.000Z</time>
      </trkpt>
      <trkpt lat="44.75078" lon="5.4453">
        <ele>1031.49</ele>
        <time>2018-08-16T07:21:17.000Z</time>
      </trkpt>
      <trkpt lat="44.75069" lon="5.44538">
        <ele>1031.62</ele>
        <time>2018-08-16T07:21:27.000Z</time>
      </trkpt>
      <trkpt lat="44.75063" lon="5.4455">
        <ele>1033.96</ele>
        <time>2018-08-16T07:21:40.000Z</time>
      </trkpt>
      <trkpt lat="44.75055" lon="5.44564">
        <ele>1037.25</ele>
        <time>2018-08-16T07:21:50.000Z</time>
      </trkpt>
      <trkpt lat="44.75046" lon="5.44566">
        <ele>1035.84</ele>
        <time>2018-08-16T07:22:02.000Z</time>
      </trkpt>
      <trkpt lat="44.7504" lon="5.44576">
        <ele>1038.12</ele>
        <time>2018-08-16T07:22:13.000Z</time>
      </trkpt>
      <trkpt lat="44.7503" lon="5.44583">
        <ele>1038.12</ele>
        <time>2018-08-16T07:22:27.000Z</time>
      </trkpt>
      <trkpt lat="44.75021" lon="5.44592">
        <ele>1038.25</ele>
        <time>2018-08-16T07:22:37.000Z</time>
      </trkpt>
      <trkpt lat="44.7501" lon="5.44597">
        <ele>1036.16</ele>
        <time>2018-08-16T07:22:47.000Z</time>
      </trkpt>
      <trkpt lat="44.74998" lon="5.44613">
        <ele>1036.17</ele>
        <time>2018-08-16T07:22:57.000Z</time>
      </trkpt>
      <trkpt lat="44.75007" lon="5.44619">
        <ele>1042</ele>
        <time>2018-08-16T07:23:07.000Z</time>
      </trkpt>
      <trkpt lat="44.74999" lon="5.44627">
        <ele>1041.12</ele>
        <time>2018-08-16T07:23:17.000Z</time>
      </trkpt>
      <trkpt lat="44.74993" lon="5.44637">
        <ele>1041.01</ele>
        <time>2018-08-16T07:23:28.000Z</time>
      </trkpt>
      <trkpt lat="44.74994" lon="5.44649">
        <ele>1045.56</ele>
        <time>2018-08-16T07:23:41.000Z</time>
      </trkpt>
      <trkpt lat="44.74996" lon="5.44669">
        <ele>1051.48</ele>
        <time>2018-08-16T07:23:51.000Z</time>
      </trkpt>
      <trkpt lat="44.74985" lon="5.44677">
        <ele>1047.75</ele>
        <time>2018-08-16T07:24:01.000Z</time>
      </trkpt>
      <trkpt lat="44.7498" lon="5.44694">
        <ele>1047.76</ele>
        <time>2018-08-16T07:24:11.000Z</time>
      </trkpt>
      <trkpt lat="44.74982" lon="5.44708">
        <ele>1051.24</ele>
        <time>2018-08-16T07:24:48.000Z</time>
      </trkpt>
      <trkpt lat="44.7498" lon="5.44729">
        <ele>1053.9</ele>
        <time>2018-08-16T07:24:58.000Z</time>
      </trkpt>
      <trkpt lat="44.74972" lon="5.44748">
        <ele>1053.72</ele>
        <time>2018-08-16T07:25:08.000Z</time>
      </trkpt>
      <trkpt lat="44.74964" lon="5.4476">
        <ele>1053.1</ele>
        <time>2018-08-16T07:25:18.000Z</time>
      </trkpt>
      <trkpt lat="44.74961" lon="5.44775">
        <ele>1056.32</ele>
        <time>2018-08-16T07:25:29.000Z</time>
      </trkpt>
      <trkpt lat="44.74954" lon="5.44783">
        <ele>1055.38</ele>
        <time>2018-08-16T07:25:41.000Z</time>
      </trkpt>
      <trkpt lat="44.74952" lon="5.44797">
        <ele>1058.23</ele>
        <time>2018-08-16T07:25:51.000Z</time>
      </trkpt>
      <trkpt lat="44.74945" lon="5.44808">
        <ele>1058.4</ele>
        <time>2018-08-16T07:26:02.000Z</time>
      </trkpt>
      <trkpt lat="44.7495" lon="5.44819">
        <ele>1063.59</ele>
        <time>2018-08-16T07:26:14.000Z</time>
      </trkpt>
      <trkpt lat="44.74944" lon="5.4483">
        <ele>1063.88</ele>
        <time>2018-08-16T07:26:26.000Z</time>
      </trkpt>
      <trkpt lat="44.74936" lon="5.44837">
        <ele>1062.56</ele>
        <time>2018-08-16T07:26:43.000Z</time>
      </trkpt>
      <trkpt lat="44.74931" lon="5.44847">
        <ele>1063.66</ele>
        <time>2018-08-16T07:27:34.000Z</time>
      </trkpt>
      <trkpt lat="44.74907" lon="5.44863">
        <ele>1068.05</ele>
        <time>2018-08-16T07:27:44.000Z</time>
      </trkpt>
      <trkpt lat="44.74905" lon="5.44876">
        <ele>1071.77</ele>
        <time>2018-08-16T07:27:56.000Z</time>
      </trkpt>
      <trkpt lat="44.74894" lon="5.44882">
        <ele>1077.82</ele>
        <time>2018-08-16T07:29:34.000Z</time>
      </trkpt>
      <trkpt lat="44.74885" lon="5.44887">
        <ele>1084.25</ele>
        <time>2018-08-16T07:29:46.000Z</time>
      </trkpt>
      <trkpt lat="44.74882" lon="5.44874">
        <ele>1083.52</ele>
        <time>2018-08-16T07:30:52.000Z</time>
      </trkpt>
      <trkpt lat="44.74865" lon="5.44849">
        <ele>1091.02</ele>
        <time>2018-08-16T07:31:02.000Z</time>
      </trkpt>
      <trkpt lat="44.74856" lon="5.44855">
        <ele>1098.91</ele>
        <time>2018-08-16T07:31:12.000Z</time>
      </trkpt>
      <trkpt lat="44.74857" lon="5.44841">
        <ele>1095.94</ele>
        <time>2018-08-16T07:31:29.000Z</time>
      </trkpt>
      <trkpt lat="44.74848" lon="5.44836">
        <ele>1101.81</ele>
        <time>2018-08-16T07:31:39.000Z</time>
      </trkpt>
      <trkpt lat="44.7484" lon="5.44825">
        <ele>1105.38</ele>
        <time>2018-08-16T07:32:25.000Z</time>
      </trkpt>
      <trkpt lat="44.74826" lon="5.44825">
        <ele>1113.94</ele>
        <time>2018-08-16T07:32:36.000Z</time>
      </trkpt>
      <trkpt lat="44.7482" lon="5.44814">
        <ele>1115.36</ele>
        <time>2018-08-16T07:32:58.000Z</time>
      </trkpt>
      <trkpt lat="44.7481" lon="5.44808">
        <ele>1119.22</ele>
        <time>2018-08-16T07:33:27.000Z</time>
      </trkpt>
      <trkpt lat="44.74802" lon="5.44798">
        <ele>1120.45</ele>
        <time>2018-08-16T07:33:37.000Z</time>
      </trkpt>
      <trkpt lat="44.74793" lon="5.44796">
        <ele>1123</ele>
        <time>2018-08-16T07:33:47.000Z</time>
      </trkpt>
      <trkpt lat="44.74788" lon="5.44783">
        <ele>1119.47</ele>
        <time>2018-08-16T07:34:02.000Z</time>
      </trkpt>
      <trkpt lat="44.74781" lon="5.44777">
        <ele>1117.64</ele>
        <time>2018-08-16T07:35:15.000Z</time>
      </trkpt>
      <trkpt lat="44.74772" lon="5.44773">
        <ele>1116.87</ele>
        <time>2018-08-16T07:35:50.000Z</time>
      </trkpt>
      <trkpt lat="44.74764" lon="5.44768">
        <ele>1114.86</ele>
        <time>2018-08-16T07:36:04.000Z</time>
      </trkpt>
      <trkpt lat="44.74755" lon="5.44764">
        <ele>1113.51</ele>
        <time>2018-08-16T07:36:43.000Z</time>
      </trkpt>
      <trkpt lat="44.74742" lon="5.44765">
        <ele>1117.33</ele>
        <time>2018-08-16T07:43:09.000Z</time>
      </trkpt>
      <trkpt lat="44.74752" lon="5.44767">
        <ele>1116.21</ele>
        <time>2018-08-16T07:43:19.000Z</time>
      </trkpt>
      <trkpt lat="44.74743" lon="5.44775">
        <ele>1123.32</ele>
        <time>2018-08-16T07:45:11.000Z</time>
      </trkpt>
      <trkpt lat="44.74736" lon="5.44782">
        <ele>1129.92</ele>
        <time>2018-08-16T07:45:22.000Z</time>
      </trkpt>
      <trkpt lat="44.74726" lon="5.44778">
        <ele>1130.12</ele>
        <time>2018-08-16T07:45:33.000Z</time>
      </trkpt>
      <trkpt lat="44.74719" lon="5.44766">
        <ele>1124.62</ele>
        <time>2018-08-16T07:45:44.000Z</time>
      </trkpt>
      <trkpt lat="44.74709" lon="5.44767">
        <ele>1127.73</ele>
        <time>2018-08-16T07:45:59.000Z</time>
      </trkpt>
      <trkpt lat="44.74699" lon="5.44771">
        <ele>1133.13</ele>
        <time>2018-08-16T07:46:32.000Z</time>
      </trkpt>
      <trkpt lat="44.74685" lon="5.44774">
        <ele>1138</ele>
        <time>2018-08-16T07:46:42.000Z</time>
      </trkpt>
      <trkpt lat="44.74676" lon="5.44778">
        <ele>1141.76</ele>
        <time>2018-08-16T07:46:57.000Z</time>
      </trkpt>
      <trkpt lat="44.74657" lon="5.44782">
        <ele>1146.55</ele>
        <time>2018-08-16T07:47:07.000Z</time>
      </trkpt>
      <trkpt lat="44.74645" lon="5.4478">
        <ele>1147.23</ele>
        <time>2018-08-16T07:47:17.000Z</time>
      </trkpt>
      <trkpt lat="44.74636" lon="5.44774">
        <ele>1145.16</ele>
        <time>2018-08-16T07:47:35.000Z</time>
      </trkpt>
      <trkpt lat="44.74638" lon="5.44787">
        <ele>1150.33</ele>
        <time>2018-08-16T07:47:56.000Z</time>
      </trkpt>
      <trkpt lat="44.74632" lon="5.44798">
        <ele>1154.88</ele>
        <time>2018-08-16T07:48:07.000Z</time>
      </trkpt>
      <trkpt lat="44.74629" lon="5.44812">
        <ele>1160</ele>
        <time>2018-08-16T07:48:17.000Z</time>
      </trkpt>
      <trkpt lat="44.74628" lon="5.44824">
        <ele>1164.45</ele>
        <time>2018-08-16T07:48:31.000Z</time>
      </trkpt>
      <trkpt lat="44.74622" lon="5.44835">
        <ele>1168.8</ele>
        <time>2018-08-16T07:48:41.000Z</time>
      </trkpt>
      <trkpt lat="44.74613" lon="5.44844">
        <ele>1172.66</ele>
        <time>2018-08-16T07:49:39.000Z</time>
      </trkpt>
      <trkpt lat="44.74597" lon="5.44841">
        <ele>1174.8</ele>
        <time>2018-08-16T07:49:49.000Z</time>
      </trkpt>
      <trkpt lat="44.74589" lon="5.44851">
        <ele>1179</ele>
        <time>2018-08-16T07:49:59.000Z</time>
      </trkpt>
      <trkpt lat="44.74578" lon="5.4485">
        <ele>1182</ele>
        <time>2018-08-16T07:50:12.000Z</time>
      </trkpt>
      <trkpt lat="44.74569" lon="5.44848">
        <ele>1185.24</ele>
        <time>2018-08-16T07:50:24.000Z</time>
      </trkpt>
      <trkpt lat="44.74562" lon="5.44839">
        <ele>1185.63</ele>
        <time>2018-08-16T07:50:40.000Z</time>
      </trkpt>
      <trkpt lat="44.7455" lon="5.44837">
        <ele>1190.65</ele>
        <time>2018-08-16T07:50:50.000Z</time>
      </trkpt>
      <trkpt lat="44.74555" lon="5.44826">
        <ele>1184.31</ele>
        <time>2018-08-16T07:51:03.000Z</time>
      </trkpt>
      <trkpt lat="44.74554" lon="5.44813">
        <ele>1180.01</ele>
        <time>2018-08-16T07:51:26.000Z</time>
      </trkpt>
      <trkpt lat="44.74537" lon="5.44817">
        <ele>1189.12</ele>
        <time>2018-08-16T07:51:36.000Z</time>
      </trkpt>
      <trkpt lat="44.74528" lon="5.44812">
        <ele>1191.48</ele>
        <time>2018-08-16T07:51:47.000Z</time>
      </trkpt>
      <trkpt lat="44.74537" lon="5.44802">
        <ele>1183</ele>
        <time>2018-08-16T07:52:06.000Z</time>
      </trkpt>
      <trkpt lat="44.74547" lon="5.44801">
        <ele>1177.89</ele>
        <time>2018-08-16T07:52:16.000Z</time>
      </trkpt>
      <trkpt lat="44.74534" lon="5.44812">
        <ele>1188.61</ele>
        <time>2018-08-16T07:52:26.000Z</time>
      </trkpt>
      <trkpt lat="44.74535" lon="5.44799">
        <ele>1183.04</ele>
        <time>2018-08-16T07:52:41.000Z</time>
      </trkpt>
      <trkpt lat="44.74535" lon="5.44812">
        <ele>1188.58</ele>
        <time>2018-08-16T07:56:34.000Z</time>
      </trkpt>
      <trkpt lat="44.74539" lon="5.44824">
        <ele>1190.98</ele>
        <time>2018-08-16T07:56:49.000Z</time>
      </trkpt>
      <trkpt lat="44.74548" lon="5.44834">
        <ele>1190.35</ele>
        <time>2018-08-16T07:56:59.000Z</time>
      </trkpt>
      <trkpt lat="44.74531" lon="5.44827">
        <ele>1195.83</ele>
        <time>2018-08-16T07:57:09.000Z</time>
      </trkpt>
      <trkpt lat="44.74518" lon="5.44825">
        <ele>1201.27</ele>
        <time>2018-08-16T07:57:21.000Z</time>
      </trkpt>
      <trkpt lat="44.74514" lon="5.44813">
        <ele>1198.55</ele>
        <time>2018-08-16T07:57:33.000Z</time>
      </trkpt>
      <trkpt lat="44.74505" lon="5.44815">
        <ele>1203.1</ele>
        <time>2018-08-16T07:58:52.000Z</time>
      </trkpt>
      <trkpt lat="44.74488" lon="5.44809">
        <ele>1207.74</ele>
        <time>2018-08-16T07:59:02.000Z</time>
      </trkpt>
      <trkpt lat="44.74478" lon="5.44808">
        <ele>1211.81</ele>
        <time>2018-08-16T07:59:15.000Z</time>
      </trkpt>
      <trkpt lat="44.74465" lon="5.44813">
        <ele>1219.41</ele>
        <time>2018-08-16T08:00:11.000Z</time>
      </trkpt>
      <trkpt lat="44.74455" lon="5.44806">
        <ele>1221.72</ele>
        <time>2018-08-16T08:00:21.000Z</time>
      </trkpt>
      <trkpt lat="44.7444" lon="5.44815">
        <ele>1229.19</ele>
        <time>2018-08-16T08:00:31.000Z</time>
      </trkpt>
      <trkpt lat="44.74431" lon="5.4481">
        <ele>1230.24</ele>
        <time>2018-08-16T08:00:41.000Z</time>
      </trkpt>
      <trkpt lat="44.74423" lon="5.44802">
        <ele>1230.08</ele>
        <time>2018-08-16T08:02:05.000Z</time>
      </trkpt>
      <trkpt lat="44.7441" lon="5.44812">
        <ele>1232.73</ele>
        <time>2018-08-16T08:02:15.000Z</time>
      </trkpt>
      <trkpt lat="44.74401" lon="5.44817">
        <ele>1232.86</ele>
        <time>2018-08-16T08:03:01.000Z</time>
      </trkpt>
      <trkpt lat="44.74384" lon="5.44823">
        <ele>1230.04</ele>
        <time>2018-08-16T08:03:11.000Z</time>
      </trkpt>
      <trkpt lat="44.74371" lon="5.4483">
        <ele>1228.08</ele>
        <time>2018-08-16T08:03:21.000Z</time>
      </trkpt>
      <trkpt lat="44.74367" lon="5.44843">
        <ele>1231.46</ele>
        <time>2018-08-16T08:03:31.000Z</time>
      </trkpt>
      <trkpt lat="44.74361" lon="5.44855">
        <ele>1234.75</ele>
        <time>2018-08-16T08:03:42.000Z</time>
      </trkpt>
      <trkpt lat="44.7435" lon="5.44864">
        <ele>1236.33</ele>
        <time>2018-08-16T08:03:52.000Z</time>
      </trkpt>
      <trkpt lat="44.74342" lon="5.44872">
        <ele>1239</ele>
        <time>2018-08-16T08:04:41.000Z</time>
      </trkpt>
      <trkpt lat="44.74323" lon="5.44882">
        <ele>1244.6</ele>
        <time>2018-08-16T08:04:51.000Z</time>
      </trkpt>
      <trkpt lat="44.74311" lon="5.44887">
        <ele>1248.65</ele>
        <time>2018-08-16T08:05:01.000Z</time>
      </trkpt>
      <trkpt lat="44.74302" lon="5.44877">
        <ele>1244.84</ele>
        <time>2018-08-16T08:05:11.000Z</time>
      </trkpt>
      <trkpt lat="44.74292" lon="5.44873">
        <ele>1244.34</ele>
        <time>2018-08-16T08:05:21.000Z</time>
      </trkpt>
      <trkpt lat="44.74284" lon="5.44882">
        <ele>1251.01</ele>
        <time>2018-08-16T08:05:31.000Z</time>
      </trkpt>
      <trkpt lat="44.74275" lon="5.44878">
        <ele>1250.3</ele>
        <time>2018-08-16T08:05:50.000Z</time>
      </trkpt>
      <trkpt lat="44.74265" lon="5.44878">
        <ele>1251.87</ele>
        <time>2018-08-16T08:06:39.000Z</time>
      </trkpt>
      <trkpt lat="44.74245" lon="5.44877">
        <ele>1253.07</ele>
        <time>2018-08-16T08:06:49.000Z</time>
      </trkpt>
      <trkpt lat="44.74236" lon="5.44878">
        <ele>1254.95</ele>
        <time>2018-08-16T08:07:00.000Z</time>
      </trkpt>
      <trkpt lat="44.74227" lon="5.44876">
        <ele>1255.23</ele>
        <time>2018-08-16T08:07:10.000Z</time>
      </trkpt>
      <trkpt lat="44.74209" lon="5.44882">
        <ele>1259.1</ele>
        <time>2018-08-16T08:07:20.000Z</time>
      </trkpt>
      <trkpt lat="44.74202" lon="5.44871">
        <ele>1257.1</ele>
        <time>2018-08-16T08:08:01.000Z</time>
      </trkpt>
      <trkpt lat="44.74188" lon="5.44879">
        <ele>1258.35</ele>
        <time>2018-08-16T08:08:11.000Z</time>
      </trkpt>
      <trkpt lat="44.74192" lon="5.44891">
        <ele>1260.19</ele>
        <time>2018-08-16T08:08:42.000Z</time>
      </trkpt>
      <trkpt lat="44.74202" lon="5.44895">
        <ele>1262.02</ele>
        <time>2018-08-16T08:09:29.000Z</time>
      </trkpt>
      <trkpt lat="44.74202" lon="5.44908">
        <ele>1265.14</ele>
        <time>2018-08-16T08:09:40.000Z</time>
      </trkpt>
      <trkpt lat="44.742" lon="5.4492">
        <ele>1268.19</ele>
        <time>2018-08-16T08:09:54.000Z</time>
      </trkpt>
      <trkpt lat="44.74215" lon="5.44931">
        <ele>1276.23</ele>
        <time>2018-08-16T08:10:04.000Z</time>
      </trkpt>
      <trkpt lat="44.74222" lon="5.4494">
        <ele>1282</ele>
        <time>2018-08-16T08:12:04.000Z</time>
      </trkpt>
      <trkpt lat="44.74227" lon="5.44964">
        <ele>1295.28</ele>
        <time>2018-08-16T08:12:14.000Z</time>
      </trkpt>
      <trkpt lat="44.74236" lon="5.44971">
        <ele>1301.67</ele>
        <time>2018-08-16T08:13:11.000Z</time>
      </trkpt>
      <trkpt lat="44.74243" lon="5.4499">
        <ele>1314.61</ele>
        <time>2018-08-16T08:13:21.000Z</time>
      </trkpt>
      <trkpt lat="44.74254" lon="5.44997">
        <ele>1320.94</ele>
        <time>2018-08-16T08:15:31.000Z</time>
      </trkpt>
      <trkpt lat="44.74259" lon="5.4501">
        <ele>1328.75</ele>
        <time>2018-08-16T08:15:41.000Z</time>
      </trkpt>
      <trkpt lat="44.74251" lon="5.45021">
        <ele>1333.64</ele>
        <time>2018-08-16T08:17:18.000Z</time>
      </trkpt>
      <trkpt lat="44.74239" lon="5.45025">
        <ele>1332.44</ele>
        <time>2018-08-16T08:17:28.000Z</time>
      </trkpt>
      <trkpt lat="44.7423" lon="5.45024">
        <ele>1327.42</ele>
        <time>2018-08-16T08:17:50.000Z</time>
      </trkpt>
      <trkpt lat="44.74227" lon="5.45037">
        <ele>1332.46</ele>
        <time>2018-08-16T08:18:09.000Z</time>
      </trkpt>
      <trkpt lat="44.74234" lon="5.45046">
        <ele>1340.75</ele>
        <time>2018-08-16T08:19:43.000Z</time>
      </trkpt>
      <trkpt lat="44.7424" lon="5.45059">
        <ele>1350.41</ele>
        <time>2018-08-16T08:19:58.000Z</time>
      </trkpt>
      <trkpt lat="44.74249" lon="5.45058">
        <ele>1352.9</ele>
        <time>2018-08-16T08:20:14.000Z</time>
      </trkpt>
      <trkpt lat="44.74259" lon="5.45062">
        <ele>1356.91</ele>
        <time>2018-08-16T08:20:29.000Z</time>
      </trkpt>
      <trkpt lat="44.74268" lon="5.45066">
        <ele>1359.36</ele>
        <time>2018-08-16T08:20:54.000Z</time>
      </trkpt>
      <trkpt lat="44.74276" lon="5.45071">
        <ele>1361.77</ele>
        <time>2018-08-16T08:21:09.000Z</time>
      </trkpt>
      <trkpt lat="44.74285" lon="5.45077">
        <ele>1363.68</ele>
        <time>2018-08-16T08:21:23.000Z</time>
      </trkpt>
      <trkpt lat="44.74293" lon="5.45082">
        <ele>1364.83</ele>
        <time>2018-08-16T08:21:34.000Z</time>
      </trkpt>
      <trkpt lat="44.74301" lon="5.45091">
        <ele>1367.79</ele>
        <time>2018-08-16T08:22:00.000Z</time>
      </trkpt>
      <trkpt lat="44.7431" lon="5.45098">
        <ele>1369.22</ele>
        <time>2018-08-16T08:22:18.000Z</time>
      </trkpt>
      <trkpt lat="44.7432" lon="5.45098">
        <ele>1368.07</ele>
        <time>2018-08-16T08:22:28.000Z</time>
      </trkpt>
      <trkpt lat="44.74329" lon="5.45101">
        <ele>1369.17</ele>
        <time>2018-08-16T08:22:39.000Z</time>
      </trkpt>
      <trkpt lat="44.74337" lon="5.45107">
        <ele>1372.34</ele>
        <time>2018-08-16T08:22:58.000Z</time>
      </trkpt>
      <trkpt lat="44.74346" lon="5.45112">
        <ele>1375.67</ele>
        <time>2018-08-16T08:23:09.000Z</time>
      </trkpt>
      <trkpt lat="44.74345" lon="5.45125">
        <ele>1380.36</ele>
        <time>2018-08-16T08:24:20.000Z</time>
      </trkpt>
      <trkpt lat="44.74346" lon="5.45145">
        <ele>1387.62</ele>
        <time>2018-08-16T08:24:30.000Z</time>
      </trkpt>
      <trkpt lat="44.74346" lon="5.45159">
        <ele>1392.62</ele>
        <time>2018-08-16T08:24:55.000Z</time>
      </trkpt>
      <trkpt lat="44.74348" lon="5.45171">
        <ele>1397.56</ele>
        <time>2018-08-16T08:25:25.000Z</time>
      </trkpt>
      <trkpt lat="44.74338" lon="5.45171">
        <ele>1396.73</ele>
        <time>2018-08-16T08:25:55.000Z</time>
      </trkpt>
      <trkpt lat="44.74326" lon="5.4517">
        <ele>1396.64</ele>
        <time>2018-08-16T08:26:05.000Z</time>
      </trkpt>
      <trkpt lat="44.74321" lon="5.45182">
        <ele>1401.86</ele>
        <time>2018-08-16T08:26:17.000Z</time>
      </trkpt>
      <trkpt lat="44.74321" lon="5.45195">
        <ele>1407.57</ele>
        <time>2018-08-16T08:27:33.000Z</time>
      </trkpt>
      <trkpt lat="44.74331" lon="5.45217">
        <ele>1415.12</ele>
        <time>2018-08-16T08:27:43.000Z</time>
      </trkpt>
      <trkpt lat="44.74337" lon="5.45226">
        <ele>1418.82</ele>
        <time>2018-08-16T08:27:58.000Z</time>
      </trkpt>
      <trkpt lat="44.74345" lon="5.45233">
        <ele>1421.46</ele>
        <time>2018-08-16T08:28:09.000Z</time>
      </trkpt>
      <trkpt lat="44.7435" lon="5.45249">
        <ele>1427.65</ele>
        <time>2018-08-16T08:29:05.000Z</time>
      </trkpt>
      <trkpt lat="44.74359" lon="5.45247">
        <ele>1427.12</ele>
        <time>2018-08-16T08:29:16.000Z</time>
      </trkpt>
      <trkpt lat="44.74367" lon="5.45252">
        <ele>1429.39</ele>
        <time>2018-08-16T08:29:29.000Z</time>
      </trkpt>
      <trkpt lat="44.74375" lon="5.45257">
        <ele>1431.97</ele>
        <time>2018-08-16T08:29:44.000Z</time>
      </trkpt>
      <trkpt lat="44.74384" lon="5.45259">
        <ele>1433.47</ele>
        <time>2018-08-16T08:29:58.000Z</time>
      </trkpt>
      <trkpt lat="44.74388" lon="5.45271">
        <ele>1438.23</ele>
        <time>2018-08-16T08:30:33.000Z</time>
      </trkpt>
      <trkpt lat="44.74384" lon="5.45283">
        <ele>1442.68</ele>
        <time>2018-08-16T08:30:52.000Z</time>
      </trkpt>
      <trkpt lat="44.7438" lon="5.45296">
        <ele>1447.25</ele>
        <time>2018-08-16T08:31:12.000Z</time>
      </trkpt>
      <trkpt lat="44.74372" lon="5.45303">
        <ele>1449.69</ele>
        <time>2018-08-16T08:31:24.000Z</time>
      </trkpt>
      <trkpt lat="44.74365" lon="5.45312">
        <ele>1452.64</ele>
        <time>2018-08-16T08:32:08.000Z</time>
      </trkpt>
      <trkpt lat="44.74355" lon="5.45315">
        <ele>1452.92</ele>
        <time>2018-08-16T08:32:18.000Z</time>
      </trkpt>
      <trkpt lat="44.74346" lon="5.45327">
        <ele>1456.97</ele>
        <time>2018-08-16T08:32:30.000Z</time>
      </trkpt>
      <trkpt lat="44.74337" lon="5.45327">
        <ele>1456.14</ele>
        <time>2018-08-16T08:32:40.000Z</time>
      </trkpt>
      <trkpt lat="44.74335" lon="5.45341">
        <ele>1460.71</ele>
        <time>2018-08-16T08:32:53.000Z</time>
      </trkpt>
      <trkpt lat="44.74334" lon="5.45354">
        <ele>1465.58</ele>
        <time>2018-08-16T08:34:50.000Z</time>
      </trkpt>
      <trkpt lat="44.74342" lon="5.4537">
        <ele>1473.46</ele>
        <time>2018-08-16T08:35:00.000Z</time>
      </trkpt>
      <trkpt lat="44.7435" lon="5.45376">
        <ele>1477.31</ele>
        <time>2018-08-16T08:35:11.000Z</time>
      </trkpt>
      <trkpt lat="44.74352" lon="5.45398">
        <ele>1486.16</ele>
        <time>2018-08-16T08:35:21.000Z</time>
      </trkpt>
      <trkpt lat="44.7435" lon="5.45411">
        <ele>1489.89</ele>
        <time>2018-08-16T08:36:22.000Z</time>
      </trkpt>
      <trkpt lat="44.74343" lon="5.45418">
        <ele>1489.84</ele>
        <time>2018-08-16T08:36:36.000Z</time>
      </trkpt>
      <trkpt lat="44.74346" lon="5.4543">
        <ele>1493.24</ele>
        <time>2018-08-16T08:39:02.000Z</time>
      </trkpt>
      <trkpt lat="44.74355" lon="5.45437">
        <ele>1496.74</ele>
        <time>2018-08-16T08:39:12.000Z</time>
      </trkpt>
      <trkpt lat="44.74361" lon="5.45447">
        <ele>1500.05</ele>
        <time>2018-08-16T08:40:01.000Z</time>
      </trkpt>
      <trkpt lat="44.74372" lon="5.45453">
        <ele>1503.93</ele>
        <time>2018-08-16T08:40:11.000Z</time>
      </trkpt>
      <trkpt lat="44.74381" lon="5.45455">
        <ele>1506.45</ele>
        <time>2018-08-16T08:40:27.000Z</time>
      </trkpt>
      <trkpt lat="44.74379" lon="5.45469">
        <ele>1509.4</ele>
        <time>2018-08-16T08:41:03.000Z</time>
      </trkpt>
      <trkpt lat="44.7438" lon="5.45482">
        <ele>1513.23</ele>
        <time>2018-08-16T08:41:24.000Z</time>
      </trkpt>
      <trkpt lat="44.74377" lon="5.45494">
        <ele>1514.74</ele>
        <time>2018-08-16T08:42:32.000Z</time>
      </trkpt>
      <trkpt lat="44.74369" lon="5.45503">
        <ele>1512.7</ele>
        <time>2018-08-16T08:44:09.000Z</time>
      </trkpt>
      <trkpt lat="44.74376" lon="5.45514">
        <ele>1518.15</ele>
        <time>2018-08-16T08:44:21.000Z</time>
      </trkpt>
      <trkpt lat="44.74374" lon="5.4553">
        <ele>1518.83</ele>
        <time>2018-08-16T08:44:31.000Z</time>
      </trkpt>
      <trkpt lat="44.74343" lon="5.45515">
        <ele>1497.26</ele>
        <time>2018-08-16T08:44:41.000Z</time>
      </trkpt>
      <trkpt lat="44.74365" lon="5.45507">
        <ele>1511.02</ele>
        <time>2018-08-16T08:44:51.000Z</time>
      </trkpt>
      <trkpt lat="44.7437" lon="5.45494">
        <ele>1511.5</ele>
        <time>2018-08-16T08:45:15.000Z</time>
      </trkpt>
      <trkpt lat="44.74379" lon="5.45495">
        <ele>1516.16</ele>
        <time>2018-08-16T08:53:03.000Z</time>
      </trkpt>
      <trkpt lat="44.74389" lon="5.45499">
        <ele>1521.66</ele>
        <time>2018-08-16T08:54:50.000Z</time>
      </trkpt>
      <trkpt lat="44.74399" lon="5.45499">
        <ele>1525.34</ele>
        <time>2018-08-16T08:55:00.000Z</time>
      </trkpt>
      <trkpt lat="44.74411" lon="5.4551">
        <ele>1533.15</ele>
        <time>2018-08-16T08:55:31.000Z</time>
      </trkpt>
      <trkpt lat="44.74424" lon="5.45522">
        <ele>1540.96</ele>
        <time>2018-08-16T08:55:41.000Z</time>
      </trkpt>
      <trkpt lat="44.74429" lon="5.45534">
        <ele>1546.51</ele>
        <time>2018-08-16T08:55:55.000Z</time>
      </trkpt>
      <trkpt lat="44.74437" lon="5.45546">
        <ele>1552.29</ele>
        <time>2018-08-16T08:57:12.000Z</time>
      </trkpt>
      <trkpt lat="44.74438" lon="5.45562">
        <ele>1558.63</ele>
        <time>2018-08-16T08:57:22.000Z</time>
      </trkpt>
      <trkpt lat="44.7445" lon="5.45575">
        <ele>1564.69</ele>
        <time>2018-08-16T08:57:32.000Z</time>
      </trkpt>
      <trkpt lat="44.74452" lon="5.45587">
        <ele>1569.57</ele>
        <time>2018-08-16T08:58:03.000Z</time>
      </trkpt>
      <trkpt lat="44.74442" lon="5.45583">
        <ele>1567.09</ele>
        <time>2018-08-16T08:58:57.000Z</time>
      </trkpt>
      <trkpt lat="44.74427" lon="5.45592">
        <ele>1567.5</ele>
        <time>2018-08-16T08:59:07.000Z</time>
      </trkpt>
      <trkpt lat="44.74417" lon="5.45589">
        <ele>1563.23</ele>
        <time>2018-08-16T08:59:17.000Z</time>
      </trkpt>
      <trkpt lat="44.74416" lon="5.45603">
        <ele>1568.69</ele>
        <time>2018-08-16T09:00:32.000Z</time>
      </trkpt>
      <trkpt lat="44.7442" lon="5.45616">
        <ele>1575.23</ele>
        <time>2018-08-16T09:00:43.000Z</time>
      </trkpt>
      <trkpt lat="44.74419" lon="5.4563">
        <ele>1580.92</ele>
        <time>2018-08-16T09:01:38.000Z</time>
      </trkpt>
      <trkpt lat="44.74416" lon="5.45646">
        <ele>1586.77</ele>
        <time>2018-08-16T09:02:21.000Z</time>
      </trkpt>
      <trkpt lat="44.74422" lon="5.45669">
        <ele>1597.42</ele>
        <time>2018-08-16T09:02:31.000Z</time>
      </trkpt>
      <trkpt lat="44.74431" lon="5.4567">
        <ele>1598.99</ele>
        <time>2018-08-16T09:02:49.000Z</time>
      </trkpt>
      <trkpt lat="44.74422" lon="5.45674">
        <ele>1599.55</ele>
        <time>2018-08-16T09:03:02.000Z</time>
      </trkpt>
      <trkpt lat="44.74427" lon="5.45685">
        <ele>1604.56</ele>
        <time>2018-08-16T09:03:40.000Z</time>
      </trkpt>
      <trkpt lat="44.74418" lon="5.45687">
        <ele>1604.83</ele>
        <time>2018-08-16T09:03:58.000Z</time>
      </trkpt>
      <trkpt lat="44.7442" lon="5.45701">
        <ele>1610.51</ele>
        <time>2018-08-16T09:05:19.000Z</time>
      </trkpt>
      <trkpt lat="44.74425" lon="5.45713">
        <ele>1615.92</ele>
        <time>2018-08-16T09:05:52.000Z</time>
      </trkpt>
      <trkpt lat="44.74427" lon="5.45731">
        <ele>1623.5</ele>
        <time>2018-08-16T09:06:02.000Z</time>
      </trkpt>
      <trkpt lat="44.74432" lon="5.45744">
        <ele>1629.43</ele>
        <time>2018-08-16T09:08:31.000Z</time>
      </trkpt>
      <trkpt lat="44.74435" lon="5.45756">
        <ele>1634.89</ele>
        <time>2018-08-16T09:08:44.000Z</time>
      </trkpt>
      <trkpt lat="44.74435" lon="5.45772">
        <ele>1642.32</ele>
        <time>2018-08-16T09:09:19.000Z</time>
      </trkpt>
      <trkpt lat="44.74435" lon="5.45788">
        <ele>1650.47</ele>
        <time>2018-08-16T09:10:46.000Z</time>
      </trkpt>
      <trkpt lat="44.74442" lon="5.45796">
        <ele>1654.54</ele>
        <time>2018-08-16T09:11:00.000Z</time>
      </trkpt>
      <trkpt lat="44.74445" lon="5.45814">
        <ele>1663.43</ele>
        <time>2018-08-16T09:11:15.000Z</time>
      </trkpt>
      <trkpt lat="44.74457" lon="5.45825">
        <ele>1668.12</ele>
        <time>2018-08-16T09:11:25.000Z</time>
      </trkpt>
      <trkpt lat="44.7445" lon="5.45837">
        <ele>1673.13</ele>
        <time>2018-08-16T09:12:00.000Z</time>
      </trkpt>
      <trkpt lat="44.74441" lon="5.45834">
        <ele>1672.31</ele>
        <time>2018-08-16T09:12:29.000Z</time>
      </trkpt>
      <trkpt lat="44.74438" lon="5.45848">
        <ele>1678.01</ele>
        <time>2018-08-16T09:14:39.000Z</time>
      </trkpt>
      <trkpt lat="44.74441" lon="5.45866">
        <ele>1684.54</ele>
        <time>2018-08-16T09:14:49.000Z</time>
      </trkpt>
      <trkpt lat="44.74441" lon="5.45879">
        <ele>1688.93</ele>
        <time>2018-08-16T09:15:12.000Z</time>
      </trkpt>
      <trkpt lat="44.74448" lon="5.45888">
        <ele>1691.59</ele>
        <time>2018-08-16T09:15:32.000Z</time>
      </trkpt>
      <trkpt lat="44.74454" lon="5.45898">
        <ele>1694.25</ele>
        <time>2018-08-16T09:16:50.000Z</time>
      </trkpt>
      <trkpt lat="44.74451" lon="5.45914">
        <ele>1700.82</ele>
        <time>2018-08-16T09:17:34.000Z</time>
      </trkpt>
      <trkpt lat="44.74446" lon="5.45925">
        <ele>1706.44</ele>
        <time>2018-08-16T09:17:47.000Z</time>
      </trkpt>
      <trkpt lat="44.74438" lon="5.45921">
        <ele>1706.19</ele>
        <time>2018-08-16T09:18:24.000Z</time>
      </trkpt>
      <trkpt lat="44.74432" lon="5.45932">
        <ele>1712.25</ele>
        <time>2018-08-16T09:18:36.000Z</time>
      </trkpt>
      <trkpt lat="44.74421" lon="5.45935">
        <ele>1715.53</ele>
        <time>2018-08-16T09:19:43.000Z</time>
      </trkpt>
      <trkpt lat="44.74405" lon="5.45941">
        <ele>1721.06</ele>
        <time>2018-08-16T09:19:53.000Z</time>
      </trkpt>
      <trkpt lat="44.74396" lon="5.45952">
        <ele>1728.13</ele>
        <time>2018-08-16T09:20:03.000Z</time>
      </trkpt>
      <trkpt lat="44.74386" lon="5.45951">
        <ele>1729.19</ele>
        <time>2018-08-16T09:21:01.000Z</time>
      </trkpt>
      <trkpt lat="44.74378" lon="5.45956">
        <ele>1733.58</ele>
        <time>2018-08-16T09:21:45.000Z</time>
      </trkpt>
      <trkpt lat="44.74368" lon="5.45961">
        <ele>1737.72</ele>
        <time>2018-08-16T09:21:55.000Z</time>
      </trkpt>
      <trkpt lat="44.74366" lon="5.45947">
        <ele>1730.39</ele>
        <time>2018-08-16T09:22:11.000Z</time>
      </trkpt>
      <trkpt lat="44.74357" lon="5.45954">
        <ele>1735.42</ele>
        <time>2018-08-16T09:22:48.000Z</time>
      </trkpt>
      <trkpt lat="44.74362" lon="5.45966">
        <ele>1740.94</ele>
        <time>2018-08-16T09:23:48.000Z</time>
      </trkpt>
      <trkpt lat="44.74356" lon="5.45978">
        <ele>1748.46</ele>
        <time>2018-08-16T09:25:55.000Z</time>
      </trkpt>
      <trkpt lat="44.74342" lon="5.45994">
        <ele>1758.47</ele>
        <time>2018-08-16T09:26:05.000Z</time>
      </trkpt>
      <trkpt lat="44.74333" lon="5.45994">
        <ele>1759.01</ele>
        <time>2018-08-16T09:26:30.000Z</time>
      </trkpt>
      <trkpt lat="44.74328" lon="5.46004">
        <ele>1764.45</ele>
        <time>2018-08-16T09:27:27.000Z</time>
      </trkpt>
      <trkpt lat="44.74319" lon="5.46011">
        <ele>1768.07</ele>
        <time>2018-08-16T09:27:37.000Z</time>
      </trkpt>
      <trkpt lat="44.7431" lon="5.46018">
        <ele>1771.48</ele>
        <time>2018-08-16T09:28:08.000Z</time>
      </trkpt>
      <trkpt lat="44.743" lon="5.46022">
        <ele>1773.51</ele>
        <time>2018-08-16T09:28:18.000Z</time>
      </trkpt>
      <trkpt lat="44.7429" lon="5.46026">
        <ele>1775.03</ele>
        <time>2018-08-16T09:28:37.000Z</time>
      </trkpt>
      <trkpt lat="44.74297" lon="5.46033">
        <ele>1778.74</ele>
        <time>2018-08-16T09:29:28.000Z</time>
      </trkpt>
      <trkpt lat="44.74297" lon="5.46047">
        <ele>1785.27</ele>
        <time>2018-08-16T09:29:39.000Z</time>
      </trkpt>
      <trkpt lat="44.74288" lon="5.46044">
        <ele>1784.09</ele>
        <time>2018-08-16T09:30:22.000Z</time>
      </trkpt>
      <trkpt lat="44.74275" lon="5.46048">
        <ele>1785.89</ele>
        <time>2018-08-16T09:30:32.000Z</time>
      </trkpt>
      <trkpt lat="44.74268" lon="5.46057">
        <ele>1790.04</ele>
        <time>2018-08-16T09:31:19.000Z</time>
      </trkpt>
      <trkpt lat="44.74257" lon="5.46058">
        <ele>1791.12</ele>
        <time>2018-08-16T09:31:36.000Z</time>
      </trkpt>
      <trkpt lat="44.74249" lon="5.4607">
        <ele>1797</ele>
        <time>2018-08-16T09:32:23.000Z</time>
      </trkpt>
      <trkpt lat="44.74242" lon="5.4608">
        <ele>1802.17</ele>
        <time>2018-08-16T09:32:34.000Z</time>
      </trkpt>
      <trkpt lat="44.74251" lon="5.46087">
        <ele>1804.32</ele>
        <time>2018-08-16T09:33:20.000Z</time>
      </trkpt>
      <trkpt lat="44.74259" lon="5.46095">
        <ele>1807.44</ele>
        <time>2018-08-16T09:33:41.000Z</time>
      </trkpt>
      <trkpt lat="44.74262" lon="5.46108">
        <ele>1812.89</ele>
        <time>2018-08-16T09:34:07.000Z</time>
      </trkpt>
      <trkpt lat="44.74252" lon="5.46108">
        <ele>1813.06</ele>
        <time>2018-08-16T09:34:34.000Z</time>
      </trkpt>
      <trkpt lat="44.74242" lon="5.46111">
        <ele>1815.16</ele>
        <time>2018-08-16T09:35:11.000Z</time>
      </trkpt>
      <trkpt lat="44.74219" lon="5.46117">
        <ele>1820.23</ele>
        <time>2018-08-16T09:35:21.000Z</time>
      </trkpt>
      <trkpt lat="44.74215" lon="5.46106">
        <ele>1816.74</ele>
        <time>2018-08-16T09:35:35.000Z</time>
      </trkpt>
      <trkpt lat="44.74207" lon="5.46115">
        <ele>1821.22</ele>
        <time>2018-08-16T09:36:12.000Z</time>
      </trkpt>
      <trkpt lat="44.74198" lon="5.46115">
        <ele>1822.61</ele>
        <time>2018-08-16T09:36:32.000Z</time>
      </trkpt>
      <trkpt lat="44.74188" lon="5.46116">
        <ele>1823.67</ele>
        <time>2018-08-16T09:37:25.000Z</time>
      </trkpt>
      <trkpt lat="44.74178" lon="5.46122">
        <ele>1826.09</ele>
        <time>2018-08-16T09:37:35.000Z</time>
      </trkpt>
      <trkpt lat="44.74168" lon="5.46124">
        <ele>1826.12</ele>
        <time>2018-08-16T09:38:03.000Z</time>
      </trkpt>
      <trkpt lat="44.74169" lon="5.46137">
        <ele>1831.12</ele>
        <time>2018-08-16T09:38:31.000Z</time>
      </trkpt>
      <trkpt lat="44.74175" lon="5.46147">
        <ele>1834.84</ele>
        <time>2018-08-16T09:38:41.000Z</time>
      </trkpt>
      <trkpt lat="44.74183" lon="5.46155">
        <ele>1837.21</ele>
        <time>2018-08-16T09:39:00.000Z</time>
      </trkpt>
      <trkpt lat="44.74191" lon="5.46161">
        <ele>1838.31</ele>
        <time>2018-08-16T09:39:19.000Z</time>
      </trkpt>
      <trkpt lat="44.742" lon="5.46163">
        <ele>1838.17</ele>
        <time>2018-08-16T09:39:29.000Z</time>
      </trkpt>
      <trkpt lat="44.74201" lon="5.46176">
        <ele>1841.45</ele>
        <time>2018-08-16T09:40:10.000Z</time>
      </trkpt>
      <trkpt lat="44.74196" lon="5.46188">
        <ele>1844.36</ele>
        <time>2018-08-16T09:40:28.000Z</time>
      </trkpt>
      <trkpt lat="44.742" lon="5.46201">
        <ele>1846.55</ele>
        <time>2018-08-16T09:40:46.000Z</time>
      </trkpt>
      <trkpt lat="44.74186" lon="5.46222">
        <ele>1849.24</ele>
        <time>2018-08-16T09:46:05.000Z</time>
      </trkpt>
      <trkpt lat="44.74202" lon="5.46208">
        <ele>1847.73</ele>
        <time>2018-08-16T09:46:15.000Z</time>
      </trkpt>
      <trkpt lat="44.74192" lon="5.46207">
        <ele>1847.65</ele>
        <time>2018-08-16T09:50:11.000Z</time>
      </trkpt>
      <trkpt lat="44.74201" lon="5.46217">
        <ele>1849.17</ele>
        <time>2018-08-16T09:50:42.000Z</time>
      </trkpt>
      <trkpt lat="44.74209" lon="5.4625">
        <ele>1854.27</ele>
        <time>2018-08-16T09:50:52.000Z</time>
      </trkpt>
      <trkpt lat="44.74206" lon="5.46275">
        <ele>1855.98</ele>
        <time>2018-08-16T09:51:02.000Z</time>
      </trkpt>
      <trkpt lat="44.742" lon="5.46295">
        <ele>1855.72</ele>
        <time>2018-08-16T09:51:12.000Z</time>
      </trkpt>
      <trkpt lat="44.74196" lon="5.46312">
        <ele>1855.83</ele>
        <time>2018-08-16T09:51:22.000Z</time>
      </trkpt>
      <trkpt lat="44.74192" lon="5.46326">
        <ele>1856.37</ele>
        <time>2018-08-16T09:51:32.000Z</time>
      </trkpt>
      <trkpt lat="44.74185" lon="5.46334">
        <ele>1856.58</ele>
        <time>2018-08-16T09:51:42.000Z</time>
      </trkpt>
      <trkpt lat="44.74185" lon="5.46348">
        <ele>1858.75</ele>
        <time>2018-08-16T09:51:55.000Z</time>
      </trkpt>
      <trkpt lat="44.74179" lon="5.46358">
        <ele>1860.12</ele>
        <time>2018-08-16T09:52:11.000Z</time>
      </trkpt>
      <trkpt lat="44.74173" lon="5.46371">
        <ele>1862.57</ele>
        <time>2018-08-16T09:52:53.000Z</time>
      </trkpt>
      <trkpt lat="44.74168" lon="5.46382">
        <ele>1865.05</ele>
        <time>2018-08-16T09:53:10.000Z</time>
      </trkpt>
      <trkpt lat="44.74171" lon="5.46394">
        <ele>1868.27</ele>
        <time>2018-08-16T09:53:33.000Z</time>
      </trkpt>
      <trkpt lat="44.74167" lon="5.46406">
        <ele>1871.16</ele>
        <time>2018-08-16T09:53:57.000Z</time>
      </trkpt>
      <trkpt lat="44.74162" lon="5.46417">
        <ele>1874.09</ele>
        <time>2018-08-16T09:54:29.000Z</time>
      </trkpt>
      <trkpt lat="44.74159" lon="5.46428">
        <ele>1877.29</ele>
        <time>2018-08-16T09:54:55.000Z</time>
      </trkpt>
      <trkpt lat="44.74164" lon="5.46439">
        <ele>1880.03</ele>
        <time>2018-08-16T09:55:14.000Z</time>
      </trkpt>
      <trkpt lat="44.74167" lon="5.46452">
        <ele>1883.68</ele>
        <time>2018-08-16T09:55:31.000Z</time>
      </trkpt>
      <trkpt lat="44.74177" lon="5.46455">
        <ele>1884.85</ele>
        <time>2018-08-16T09:55:41.000Z</time>
      </trkpt>
      <trkpt lat="44.74185" lon="5.46462">
        <ele>1887.73</ele>
        <time>2018-08-16T09:56:01.000Z</time>
      </trkpt>
      <trkpt lat="44.74188" lon="5.46474">
        <ele>1891.75</ele>
        <time>2018-08-16T09:56:23.000Z</time>
      </trkpt>
      <trkpt lat="44.74194" lon="5.46484">
        <ele>1895.65</ele>
        <time>2018-08-16T09:56:37.000Z</time>
      </trkpt>
      <trkpt lat="44.742" lon="5.46494">
        <ele>1899.18</ele>
        <time>2018-08-16T09:56:54.000Z</time>
      </trkpt>
      <trkpt lat="44.74208" lon="5.46501">
        <ele>1902.37</ele>
        <time>2018-08-16T09:57:12.000Z</time>
      </trkpt>
      <trkpt lat="44.74215" lon="5.46511">
        <ele>1905.23</ele>
        <time>2018-08-16T09:57:25.000Z</time>
      </trkpt>
      <trkpt lat="44.74215" lon="5.46524">
        <ele>1906.76</ele>
        <time>2018-08-16T09:57:43.000Z</time>
      </trkpt>
      <trkpt lat="44.7422" lon="5.46535">
        <ele>1908.04</ele>
        <time>2018-08-16T09:57:54.000Z</time>
      </trkpt>
      <trkpt lat="44.74225" lon="5.46546">
        <ele>1908.64</ele>
        <time>2018-08-16T09:58:06.000Z</time>
      </trkpt>
      <trkpt lat="44.74233" lon="5.46559">
        <ele>1908.79</ele>
        <time>2018-08-16T09:58:16.000Z</time>
      </trkpt>
      <trkpt lat="44.74242" lon="5.46571">
        <ele>1908.74</ele>
        <time>2018-08-16T09:58:26.000Z</time>
      </trkpt>
      <trkpt lat="44.74246" lon="5.46588">
        <ele>1908.74</ele>
        <time>2018-08-16T09:58:36.000Z</time>
      </trkpt>
      <trkpt lat="44.74252" lon="5.46606">
        <ele>1909.05</ele>
        <time>2018-08-16T09:58:46.000Z</time>
      </trkpt>
      <trkpt lat="44.74259" lon="5.46621">
        <ele>1909.58</ele>
        <time>2018-08-16T09:58:56.000Z</time>
      </trkpt>
      <trkpt lat="44.74261" lon="5.46635">
        <ele>1909.75</ele>
        <time>2018-08-16T09:59:06.000Z</time>
      </trkpt>
      <trkpt lat="44.74259" lon="5.46654">
        <ele>1909.81</ele>
        <time>2018-08-16T09:59:16.000Z</time>
      </trkpt>
      <trkpt lat="44.74262" lon="5.46671">
        <ele>1910.45</ele>
        <time>2018-08-16T09:59:26.000Z</time>
      </trkpt>
      <trkpt lat="44.74268" lon="5.46682">
        <ele>1911.3</ele>
        <time>2018-08-16T09:59:37.000Z</time>
      </trkpt>
      <trkpt lat="44.74274" lon="5.46694">
        <ele>1912.56</ele>
        <time>2018-08-16T09:59:47.000Z</time>
      </trkpt>
      <trkpt lat="44.7428" lon="5.46705">
        <ele>1913.84</ele>
        <time>2018-08-16T10:00:05.000Z</time>
      </trkpt>
      <trkpt lat="44.7428" lon="5.46718">
        <ele>1914.51</ele>
        <time>2018-08-16T10:00:17.000Z</time>
      </trkpt>
      <trkpt lat="44.74279" lon="5.46732">
        <ele>1915.27</ele>
        <time>2018-08-16T10:00:27.000Z</time>
      </trkpt>
      <trkpt lat="44.74284" lon="5.46753">
        <ele>1917.12</ele>
        <time>2018-08-16T10:00:37.000Z</time>
      </trkpt>
      <trkpt lat="44.7428" lon="5.46767">
        <ele>1917.75</ele>
        <time>2018-08-16T10:00:47.000Z</time>
      </trkpt>
      <trkpt lat="44.7428" lon="5.4678">
        <ele>1918.76</ele>
        <time>2018-08-16T10:00:57.000Z</time>
      </trkpt>
      <trkpt lat="44.7428" lon="5.46794">
        <ele>1919.94</ele>
        <time>2018-08-16T10:01:07.000Z</time>
      </trkpt>
      <trkpt lat="44.74285" lon="5.46805">
        <ele>1920.84</ele>
        <time>2018-08-16T10:01:19.000Z</time>
      </trkpt>
      <trkpt lat="44.74292" lon="5.46812">
        <ele>1921.28</ele>
        <time>2018-08-16T10:01:29.000Z</time>
      </trkpt>
      <trkpt lat="44.743" lon="5.46818">
        <ele>1921.61</ele>
        <time>2018-08-16T10:01:44.000Z</time>
      </trkpt>
      <trkpt lat="44.74306" lon="5.46829">
        <ele>1921.93</ele>
        <time>2018-08-16T10:01:55.000Z</time>
      </trkpt>
      <trkpt lat="44.74302" lon="5.4684">
        <ele>1922.35</ele>
        <time>2018-08-16T10:02:05.000Z</time>
      </trkpt>
      <trkpt lat="44.74291" lon="5.46853">
        <ele>1923.74</ele>
        <time>2018-08-16T10:02:15.000Z</time>
      </trkpt>
      <trkpt lat="44.74288" lon="5.46864">
        <ele>1925.04</ele>
        <time>2018-08-16T10:02:37.000Z</time>
      </trkpt>
      <trkpt lat="44.74285" lon="5.46877">
        <ele>1926.51</ele>
        <time>2018-08-16T10:02:47.000Z</time>
      </trkpt>
      <trkpt lat="44.74277" lon="5.46885">
        <ele>1928.55</ele>
        <time>2018-08-16T10:02:59.000Z</time>
      </trkpt>
      <trkpt lat="44.74275" lon="5.46899">
        <ele>1930.04</ele>
        <time>2018-08-16T10:03:11.000Z</time>
      </trkpt>
      <trkpt lat="44.74276" lon="5.46916">
        <ele>1930.7</ele>
        <time>2018-08-16T10:03:21.000Z</time>
      </trkpt>
      <trkpt lat="44.7427" lon="5.46925">
        <ele>1932.4</ele>
        <time>2018-08-16T10:03:35.000Z</time>
      </trkpt>
      <trkpt lat="44.74265" lon="5.46938">
        <ele>1933.32</ele>
        <time>2018-08-16T10:03:45.000Z</time>
      </trkpt>
      <trkpt lat="44.74255" lon="5.46948">
        <ele>1935.02</ele>
        <time>2018-08-16T10:03:55.000Z</time>
      </trkpt>
      <trkpt lat="44.74249" lon="5.46958">
        <ele>1935.68</ele>
        <time>2018-08-16T10:04:36.000Z</time>
      </trkpt>
      <trkpt lat="44.74239" lon="5.46966">
        <ele>1936.9</ele>
        <time>2018-08-16T10:04:46.000Z</time>
      </trkpt>
      <trkpt lat="44.74228" lon="5.46974">
        <ele>1938.64</ele>
        <time>2018-08-16T10:04:56.000Z</time>
      </trkpt>
      <trkpt lat="44.74217" lon="5.46982">
        <ele>1940.27</ele>
        <time>2018-08-16T10:05:06.000Z</time>
      </trkpt>
      <trkpt lat="44.7421" lon="5.4699">
        <ele>1941.19</ele>
        <time>2018-08-16T10:05:17.000Z</time>
      </trkpt>
      <trkpt lat="44.74206" lon="5.47003">
        <ele>1941.29</ele>
        <time>2018-08-16T10:05:37.000Z</time>
      </trkpt>
      <trkpt lat="44.74206" lon="5.47017">
        <ele>1941.04</ele>
        <time>2018-08-16T10:05:58.000Z</time>
      </trkpt>
      <trkpt lat="44.7421" lon="5.47029">
        <ele>1940.42</ele>
        <time>2018-08-16T10:06:10.000Z</time>
      </trkpt>
      <trkpt lat="44.74213" lon="5.47041">
        <ele>1940.32</ele>
        <time>2018-08-16T10:06:20.000Z</time>
      </trkpt>
      <trkpt lat="44.74204" lon="5.47038">
        <ele>1941.12</ele>
        <time>2018-08-16T10:07:10.000Z</time>
      </trkpt>
      <trkpt lat="44.74196" lon="5.47031">
        <ele>1942.05</ele>
        <time>2018-08-16T10:07:23.000Z</time>
      </trkpt>
      <trkpt lat="44.74182" lon="5.47028">
        <ele>1943.92</ele>
        <time>2018-08-16T10:07:33.000Z</time>
      </trkpt>
      <trkpt lat="44.74172" lon="5.47034">
        <ele>1944.73</ele>
        <time>2018-08-16T10:07:55.000Z</time>
      </trkpt>
      <trkpt lat="44.74162" lon="5.4704">
        <ele>1945.49</ele>
        <time>2018-08-16T10:08:22.000Z</time>
      </trkpt>
      <trkpt lat="44.74152" lon="5.47036">
        <ele>1947.47</ele>
        <time>2018-08-16T10:08:52.000Z</time>
      </trkpt>
      <trkpt lat="44.74143" lon="5.47039">
        <ele>1948.42</ele>
        <time>2018-08-16T10:09:04.000Z</time>
      </trkpt>
      <trkpt lat="44.74134" lon="5.47044">
        <ele>1949.08</ele>
        <time>2018-08-16T10:09:14.000Z</time>
      </trkpt>
      <trkpt lat="44.74128" lon="5.47035">
        <ele>1951.53</ele>
        <time>2018-08-16T10:09:27.000Z</time>
      </trkpt>
      <trkpt lat="44.74116" lon="5.4704">
        <ele>1952.53</ele>
        <time>2018-08-16T10:09:37.000Z</time>
      </trkpt>
      <trkpt lat="44.74106" lon="5.47041">
        <ele>1953.85</ele>
        <time>2018-08-16T10:09:48.000Z</time>
      </trkpt>
      <trkpt lat="44.74096" lon="5.47045">
        <ele>1954.68</ele>
        <time>2018-08-16T10:09:58.000Z</time>
      </trkpt>
      <trkpt lat="44.74089" lon="5.47035">
        <ele>1957.57</ele>
        <time>2018-08-16T10:11:29.000Z</time>
      </trkpt>
      <trkpt lat="44.74079" lon="5.47023">
        <ele>1961.43</ele>
        <time>2018-08-16T10:11:39.000Z</time>
      </trkpt>
      <trkpt lat="44.74069" lon="5.47019">
        <ele>1963.54</ele>
        <time>2018-08-16T10:11:51.000Z</time>
      </trkpt>
      <trkpt lat="44.7406" lon="5.47014">
        <ele>1965.59</ele>
        <time>2018-08-16T10:12:03.000Z</time>
      </trkpt>
      <trkpt lat="44.74052" lon="5.47008">
        <ele>1967.71</ele>
        <time>2018-08-16T10:12:17.000Z</time>
      </trkpt>
      <trkpt lat="44.74044" lon="5.47003">
        <ele>1969.73</ele>
        <time>2018-08-16T10:15:09.000Z</time>
      </trkpt>
      <trkpt lat="44.74036" lon="5.46995">
        <ele>1972.03</ele>
        <time>2018-08-16T10:15:21.000Z</time>
      </trkpt>
      <trkpt lat="44.74028" lon="5.46988">
        <ele>1974.34</ele>
        <time>2018-08-16T10:15:35.000Z</time>
      </trkpt>
      <trkpt lat="44.7402" lon="5.4698">
        <ele>1976.84</ele>
        <time>2018-08-16T10:15:46.000Z</time>
      </trkpt>
      <trkpt lat="44.74011" lon="5.46975">
        <ele>1978.83</ele>
        <time>2018-08-16T10:16:00.000Z</time>
      </trkpt>
      <trkpt lat="44.74003" lon="5.4697">
        <ele>1980.89</ele>
        <time>2018-08-16T10:16:15.000Z</time>
      </trkpt>
      <trkpt lat="44.73994" lon="5.46966">
        <ele>1982.88</ele>
        <time>2018-08-16T10:16:28.000Z</time>
      </trkpt>
      <trkpt lat="44.73985" lon="5.4696">
        <ele>1984.92</ele>
        <time>2018-08-16T10:16:38.000Z</time>
      </trkpt>
      <trkpt lat="44.73975" lon="5.46961">
        <ele>1986.02</ele>
        <time>2018-08-16T10:16:48.000Z</time>
      </trkpt>
      <trkpt lat="44.73969" lon="5.46951">
        <ele>1988.13</ele>
        <time>2018-08-16T10:17:01.000Z</time>
      </trkpt>
      <trkpt lat="44.73959" lon="5.46945">
        <ele>1989.8</ele>
        <time>2018-08-16T10:17:15.000Z</time>
      </trkpt>
      <trkpt lat="44.73951" lon="5.46939">
        <ele>1991.16</ele>
        <time>2018-08-16T10:17:25.000Z</time>
      </trkpt>
      <trkpt lat="44.73942" lon="5.46936">
        <ele>1992.41</ele>
        <time>2018-08-16T10:17:42.000Z</time>
      </trkpt>
      <trkpt lat="44.73933" lon="5.46934">
        <ele>1993.65</ele>
        <time>2018-08-16T10:17:55.000Z</time>
      </trkpt>
      <trkpt lat="44.73925" lon="5.4693">
        <ele>1994.97</ele>
        <time>2018-08-16T10:18:08.000Z</time>
      </trkpt>
      <trkpt lat="44.73916" lon="5.46934">
        <ele>1996.45</ele>
        <time>2018-08-16T10:18:23.000Z</time>
      </trkpt>
      <trkpt lat="44.73907" lon="5.46929">
        <ele>1998.06</ele>
        <time>2018-08-16T10:18:36.000Z</time>
      </trkpt>
      <trkpt lat="44.73898" lon="5.46929">
        <ele>2000.15</ele>
        <time>2018-08-16T10:19:00.000Z</time>
      </trkpt>
      <trkpt lat="44.73889" lon="5.46932">
        <ele>2002.4</ele>
        <time>2018-08-16T10:19:12.000Z</time>
      </trkpt>
      <trkpt lat="44.7388" lon="5.46928">
        <ele>2004.43</ele>
        <time>2018-08-16T10:19:30.000Z</time>
      </trkpt>
      <trkpt lat="44.73871" lon="5.46931">
        <ele>2006.97</ele>
        <time>2018-08-16T10:19:42.000Z</time>
      </trkpt>
      <trkpt lat="44.73862" lon="5.46928">
        <ele>2009.06</ele>
        <time>2018-08-16T10:20:03.000Z</time>
      </trkpt>
      <trkpt lat="44.73853" lon="5.46937">
        <ele>2011.99</ele>
        <time>2018-08-16T10:20:29.000Z</time>
      </trkpt>
      <trkpt lat="44.73844" lon="5.46934">
        <ele>2013.84</ele>
        <time>2018-08-16T10:20:49.000Z</time>
      </trkpt>
      <trkpt lat="44.73835" lon="5.46937">
        <ele>2016</ele>
        <time>2018-08-16T10:21:19.000Z</time>
      </trkpt>
      <trkpt lat="44.73825" lon="5.46938">
        <ele>2018.03</ele>
        <time>2018-08-16T10:21:39.000Z</time>
      </trkpt>
      <trkpt lat="44.73816" lon="5.46943">
        <ele>2020.34</ele>
        <time>2018-08-16T10:21:56.000Z</time>
      </trkpt>
      <trkpt lat="44.73808" lon="5.4695">
        <ele>2022.75</ele>
        <time>2018-08-16T10:22:08.000Z</time>
      </trkpt>
      <trkpt lat="44.73799" lon="5.46955">
        <ele>2024.98</ele>
        <time>2018-08-16T10:22:25.000Z</time>
      </trkpt>
      <trkpt lat="44.7379" lon="5.46952">
        <ele>2026.17</ele>
        <time>2018-08-16T10:22:44.000Z</time>
      </trkpt>
      <trkpt lat="44.73781" lon="5.46954">
        <ele>2027.88</ele>
        <time>2018-08-16T10:22:59.000Z</time>
      </trkpt>
      <trkpt lat="44.73772" lon="5.46958">
        <ele>2029.73</ele>
        <time>2018-08-16T10:23:18.000Z</time>
      </trkpt>
      <trkpt lat="44.73764" lon="5.46969">
        <ele>2032.05</ele>
        <time>2018-08-16T10:23:33.000Z</time>
      </trkpt>
      <trkpt lat="44.73755" lon="5.46973">
        <ele>2033.44</ele>
        <time>2018-08-16T10:23:47.000Z</time>
      </trkpt>
      <trkpt lat="44.73749" lon="5.46983">
        <ele>2035.02</ele>
        <time>2018-08-16T10:23:57.000Z</time>
      </trkpt>
      <trkpt lat="44.73741" lon="5.46988">
        <ele>2035.81</ele>
        <time>2018-08-16T10:24:12.000Z</time>
      </trkpt>
      <trkpt lat="44.73733" lon="5.46995">
        <ele>2036.36</ele>
        <time>2018-08-16T10:24:30.000Z</time>
      </trkpt>
      <trkpt lat="44.73723" lon="5.47003">
        <ele>2036.52</ele>
        <time>2018-08-16T10:24:40.000Z</time>
      </trkpt>
      <trkpt lat="44.73717" lon="5.47012">
        <ele>2036.34</ele>
        <time>2018-08-16T10:25:02.000Z</time>
      </trkpt>
      <trkpt lat="44.73726" lon="5.47016">
        <ele>2036.49</ele>
        <time>2018-08-16T10:25:59.000Z</time>
      </trkpt>
      <trkpt lat="44.73717" lon="5.47014">
        <ele>2036.3</ele>
        <time>2018-08-16T10:34:04.000Z</time>
      </trkpt>
      <trkpt lat="44.73709" lon="5.47006">
        <ele>2035.93</ele>
        <time>2018-08-16T10:37:50.000Z</time>
      </trkpt>
      <trkpt lat="44.7372" lon="5.47021">
        <ele>2036.18</ele>
        <time>2018-08-16T10:38:00.000Z</time>
      </trkpt>
      <trkpt lat="44.73712" lon="5.47014">
        <ele>2036.08</ele>
        <time>2018-08-16T10:46:59.000Z</time>
      </trkpt>
      <trkpt lat="44.73703" lon="5.47014">
        <ele>2035.53</ele>
        <time>2018-08-16T10:48:32.000Z</time>
      </trkpt>
      <trkpt lat="44.73712" lon="5.47013">
        <ele>2036.12</ele>
        <time>2018-08-16T10:49:17.000Z</time>
      </trkpt>
      <trkpt lat="44.73722" lon="5.4701">
        <ele>2036.52</ele>
        <time>2018-08-16T10:53:43.000Z</time>
      </trkpt>
      <trkpt lat="44.73722" lon="5.47023">
        <ele>2036.12</ele>
        <time>2018-08-16T10:53:53.000Z</time>
      </trkpt>
      <trkpt lat="44.73719" lon="5.47011">
        <ele>2036.44</ele>
        <time>2018-08-16T10:55:21.000Z</time>
      </trkpt>
      <trkpt lat="44.7371" lon="5.47001">
        <ele>2035.84</ele>
        <time>2018-08-16T10:55:31.000Z</time>
      </trkpt>
      <trkpt lat="44.73713" lon="5.47014">
        <ele>2036.16</ele>
        <time>2018-08-16T10:56:13.000Z</time>
      </trkpt>
      <trkpt lat="44.73717" lon="5.47002">
        <ele>2036.27</ele>
        <time>2018-08-16T11:10:45.000Z</time>
      </trkpt>
      <trkpt lat="44.73724" lon="5.4701">
        <ele>2036.6</ele>
        <time>2018-08-16T11:11:21.000Z</time>
      </trkpt>
      <trkpt lat="44.73719" lon="5.47021">
        <ele>2036.16</ele>
        <time>2018-08-16T11:12:07.000Z</time>
      </trkpt>
      <trkpt lat="44.73712" lon="5.47029">
        <ele>2035.47</ele>
        <time>2018-08-16T11:13:22.000Z</time>
      </trkpt>
      <trkpt lat="44.73714" lon="5.47015">
        <ele>2036.16</ele>
        <time>2018-08-16T11:15:17.000Z</time>
      </trkpt>
      <trkpt lat="44.73724" lon="5.47012">
        <ele>2036.56</ele>
        <time>2018-08-16T11:21:11.000Z</time>
      </trkpt>
      <trkpt lat="44.73732" lon="5.47006">
        <ele>2036.7</ele>
        <time>2018-08-16T11:21:21.000Z</time>
      </trkpt>
      <trkpt lat="44.7374" lon="5.46999">
        <ele>2036.46</ele>
        <time>2018-08-16T11:21:33.000Z</time>
      </trkpt>
      <trkpt lat="44.73748" lon="5.46992">
        <ele>2035.8</ele>
        <time>2018-08-16T11:21:44.000Z</time>
      </trkpt>
      <trkpt lat="44.73751" lon="5.46979">
        <ele>2034.54</ele>
        <time>2018-08-16T11:21:54.000Z</time>
      </trkpt>
      <trkpt lat="44.73753" lon="5.46965">
        <ele>2032.55</ele>
        <time>2018-08-16T11:22:08.000Z</time>
      </trkpt>
      <trkpt lat="44.73754" lon="5.46952">
        <ele>2030.28</ele>
        <time>2018-08-16T11:22:20.000Z</time>
      </trkpt>
      <trkpt lat="44.73757" lon="5.46939">
        <ele>2027.89</ele>
        <time>2018-08-16T11:22:30.000Z</time>
      </trkpt>
      <trkpt lat="44.73762" lon="5.46924">
        <ele>2024.78</ele>
        <time>2018-08-16T11:22:40.000Z</time>
      </trkpt>
      <trkpt lat="44.73768" lon="5.46914">
        <ele>2022.52</ele>
        <time>2018-08-16T11:22:51.000Z</time>
      </trkpt>
      <trkpt lat="44.73776" lon="5.46908">
        <ele>2020.74</ele>
        <time>2018-08-16T11:23:03.000Z</time>
      </trkpt>
      <trkpt lat="44.73781" lon="5.46896">
        <ele>2018.16</ele>
        <time>2018-08-16T11:23:17.000Z</time>
      </trkpt>
      <trkpt lat="44.73795" lon="5.46895">
        <ele>2016.49</ele>
        <time>2018-08-16T11:23:27.000Z</time>
      </trkpt>
      <trkpt lat="44.73805" lon="5.46893">
        <ele>2014.83</ele>
        <time>2018-08-16T11:23:37.000Z</time>
      </trkpt>
      <trkpt lat="44.73814" lon="5.46892">
        <ele>2013.39</ele>
        <time>2018-08-16T11:23:47.000Z</time>
      </trkpt>
      <trkpt lat="44.73825" lon="5.46892">
        <ele>2011.87</ele>
        <time>2018-08-16T11:24:02.000Z</time>
      </trkpt>
      <trkpt lat="44.73835" lon="5.46888">
        <ele>2009.95</ele>
        <time>2018-08-16T11:24:12.000Z</time>
      </trkpt>
      <trkpt lat="44.73839" lon="5.46877">
        <ele>2007.5</ele>
        <time>2018-08-16T11:25:12.000Z</time>
      </trkpt>
      <trkpt lat="44.73849" lon="5.46881">
        <ele>2006.57</ele>
        <time>2018-08-16T11:25:23.000Z</time>
      </trkpt>
      <trkpt lat="44.73858" lon="5.46883">
        <ele>2005.04</ele>
        <time>2018-08-16T11:25:36.000Z</time>
      </trkpt>
      <trkpt lat="44.73868" lon="5.46885">
        <ele>2003.26</ele>
        <time>2018-08-16T11:25:46.000Z</time>
      </trkpt>
      <trkpt lat="44.73879" lon="5.46891">
        <ele>2001.61</ele>
        <time>2018-08-16T11:25:56.000Z</time>
      </trkpt>
      <trkpt lat="44.73887" lon="5.46901">
        <ele>2000.9</ele>
        <time>2018-08-16T11:26:44.000Z</time>
      </trkpt>
      <trkpt lat="44.739" lon="5.46906">
        <ele>1998.46</ele>
        <time>2018-08-16T11:26:54.000Z</time>
      </trkpt>
      <trkpt lat="44.7391" lon="5.46902">
        <ele>1996.34</ele>
        <time>2018-08-16T11:27:04.000Z</time>
      </trkpt>
      <trkpt lat="44.73918" lon="5.46897">
        <ele>1994.61</ele>
        <time>2018-08-16T11:27:18.000Z</time>
      </trkpt>
      <trkpt lat="44.73928" lon="5.46895">
        <ele>1993.15</ele>
        <time>2018-08-16T11:27:28.000Z</time>
      </trkpt>
      <trkpt lat="44.73938" lon="5.46892">
        <ele>1991.73</ele>
        <time>2018-08-16T11:27:39.000Z</time>
      </trkpt>
      <trkpt lat="44.73947" lon="5.46893">
        <ele>1990.94</ele>
        <time>2018-08-16T11:27:49.000Z</time>
      </trkpt>
      <trkpt lat="44.73956" lon="5.46893">
        <ele>1990</ele>
        <time>2018-08-16T11:28:00.000Z</time>
      </trkpt>
      <trkpt lat="44.7397" lon="5.46893">
        <ele>1988.76</ele>
        <time>2018-08-16T11:28:10.000Z</time>
      </trkpt>
      <trkpt lat="44.73982" lon="5.46896">
        <ele>1988.05</ele>
        <time>2018-08-16T11:28:20.000Z</time>
      </trkpt>
      <trkpt lat="44.73991" lon="5.46895">
        <ele>1987.05</ele>
        <time>2018-08-16T11:28:30.000Z</time>
      </trkpt>
      <trkpt lat="44.74001" lon="5.46887">
        <ele>1985.44</ele>
        <time>2018-08-16T11:28:40.000Z</time>
      </trkpt>
      <trkpt lat="44.74011" lon="5.46889">
        <ele>1984.75</ele>
        <time>2018-08-16T11:28:50.000Z</time>
      </trkpt>
      <trkpt lat="44.74021" lon="5.46888">
        <ele>1983.92</ele>
        <time>2018-08-16T11:29:06.000Z</time>
      </trkpt>
      <trkpt lat="44.74035" lon="5.46885">
        <ele>1982.86</ele>
        <time>2018-08-16T11:29:16.000Z</time>
      </trkpt>
      <trkpt lat="44.74043" lon="5.46876">
        <ele>1981.86</ele>
        <time>2018-08-16T11:29:26.000Z</time>
      </trkpt>
      <trkpt lat="44.74046" lon="5.4686">
        <ele>1980.43</ele>
        <time>2018-08-16T11:29:36.000Z</time>
      </trkpt>
      <trkpt lat="44.74052" lon="5.46848">
        <ele>1979.11</ele>
        <time>2018-08-16T11:29:46.000Z</time>
      </trkpt>
      <trkpt lat="44.7406" lon="5.46843">
        <ele>1978.34</ele>
        <time>2018-08-16T11:30:00.000Z</time>
      </trkpt>
      <trkpt lat="44.74069" lon="5.46849">
        <ele>1978.34</ele>
        <time>2018-08-16T11:30:16.000Z</time>
      </trkpt>
      <trkpt lat="44.74072" lon="5.46862">
        <ele>1978.88</ele>
        <time>2018-08-16T11:30:28.000Z</time>
      </trkpt>
      <trkpt lat="44.74079" lon="5.46872">
        <ele>1978.38</ele>
        <time>2018-08-16T11:30:44.000Z</time>
      </trkpt>
      <trkpt lat="44.74089" lon="5.4687">
        <ele>1976.52</ele>
        <time>2018-08-16T11:31:02.000Z</time>
      </trkpt>
      <trkpt lat="44.74099" lon="5.46872">
        <ele>1974.37</ele>
        <time>2018-08-16T11:31:12.000Z</time>
      </trkpt>
      <trkpt lat="44.74108" lon="5.46868">
        <ele>1971.54</ele>
        <time>2018-08-16T11:31:22.000Z</time>
      </trkpt>
      <trkpt lat="44.74118" lon="5.46864">
        <ele>1968.5</ele>
        <time>2018-08-16T11:31:33.000Z</time>
      </trkpt>
      <trkpt lat="44.74127" lon="5.4686">
        <ele>1965.21</ele>
        <time>2018-08-16T11:31:55.000Z</time>
      </trkpt>
      <trkpt lat="44.74135" lon="5.46854">
        <ele>1961.89</ele>
        <time>2018-08-16T11:32:09.000Z</time>
      </trkpt>
      <trkpt lat="44.74145" lon="5.46849">
        <ele>1957.82</ele>
        <time>2018-08-16T11:32:28.000Z</time>
      </trkpt>
      <trkpt lat="44.74153" lon="5.46842">
        <ele>1954.29</ele>
        <time>2018-08-16T11:32:39.000Z</time>
      </trkpt>
      <trkpt lat="44.74155" lon="5.46829">
        <ele>1952.33</ele>
        <time>2018-08-16T11:32:54.000Z</time>
      </trkpt>
      <trkpt lat="44.74162" lon="5.46838">
        <ele>1950.94</ele>
        <time>2018-08-16T11:33:11.000Z</time>
      </trkpt>
      <trkpt lat="44.74169" lon="5.46828">
        <ele>1947.66</ele>
        <time>2018-08-16T11:33:24.000Z</time>
      </trkpt>
      <trkpt lat="44.74176" lon="5.46817">
        <ele>1944.41</ele>
        <time>2018-08-16T11:33:40.000Z</time>
      </trkpt>
      <trkpt lat="44.74183" lon="5.4681">
        <ele>1941.15</ele>
        <time>2018-08-16T11:34:01.000Z</time>
      </trkpt>
      <trkpt lat="44.74192" lon="5.46805">
        <ele>1937.61</ele>
        <time>2018-08-16T11:34:19.000Z</time>
      </trkpt>
      <trkpt lat="44.742" lon="5.46811">
        <ele>1936.1</ele>
        <time>2018-08-16T11:34:35.000Z</time>
      </trkpt>
      <trkpt lat="44.74209" lon="5.46815">
        <ele>1933.96</ele>
        <time>2018-08-16T11:34:47.000Z</time>
      </trkpt>
      <trkpt lat="44.74212" lon="5.46802">
        <ele>1931.08</ele>
        <time>2018-08-16T11:35:00.000Z</time>
      </trkpt>
      <trkpt lat="44.74217" lon="5.46788">
        <ele>1927.69</ele>
        <time>2018-08-16T11:35:14.000Z</time>
      </trkpt>
      <trkpt lat="44.74219" lon="5.46775">
        <ele>1925.24</ele>
        <time>2018-08-16T11:35:29.000Z</time>
      </trkpt>
      <trkpt lat="44.7422" lon="5.4676">
        <ele>1922.98</ele>
        <time>2018-08-16T11:35:44.000Z</time>
      </trkpt>
      <trkpt lat="44.74221" lon="5.46747">
        <ele>1920.98</ele>
        <time>2018-08-16T11:35:54.000Z</time>
      </trkpt>
      <trkpt lat="44.74229" lon="5.46735">
        <ele>1917.79</ele>
        <time>2018-08-16T11:36:04.000Z</time>
      </trkpt>
      <trkpt lat="44.74232" lon="5.46723">
        <ele>1916.05</ele>
        <time>2018-08-16T11:37:19.000Z</time>
      </trkpt>
      <trkpt lat="44.74238" lon="5.46713">
        <ele>1914.12</ele>
        <time>2018-08-16T11:37:42.000Z</time>
      </trkpt>
      <trkpt lat="44.74241" lon="5.467">
        <ele>1912.63</ele>
        <time>2018-08-16T11:37:52.000Z</time>
      </trkpt>
      <trkpt lat="44.74249" lon="5.46685">
        <ele>1910.93</ele>
        <time>2018-08-16T11:38:02.000Z</time>
      </trkpt>
      <trkpt lat="44.74253" lon="5.46673">
        <ele>1910.23</ele>
        <time>2018-08-16T11:38:13.000Z</time>
      </trkpt>
      <trkpt lat="44.74251" lon="5.4666">
        <ele>1909.74</ele>
        <time>2018-08-16T11:38:28.000Z</time>
      </trkpt>
      <trkpt lat="44.74246" lon="5.46638">
        <ele>1909.21</ele>
        <time>2018-08-16T11:38:38.000Z</time>
      </trkpt>
      <trkpt lat="44.74242" lon="5.46624">
        <ele>1909.07</ele>
        <time>2018-08-16T11:38:48.000Z</time>
      </trkpt>
      <trkpt lat="44.74238" lon="5.46607">
        <ele>1908.91</ele>
        <time>2018-08-16T11:38:58.000Z</time>
      </trkpt>
      <trkpt lat="44.74235" lon="5.46595">
        <ele>1908.74</ele>
        <time>2018-08-16T11:39:08.000Z</time>
      </trkpt>
      <trkpt lat="44.74233" lon="5.46576">
        <ele>1908.41</ele>
        <time>2018-08-16T11:39:18.000Z</time>
      </trkpt>
      <trkpt lat="44.74226" lon="5.46566">
        <ele>1908.45</ele>
        <time>2018-08-16T11:39:28.000Z</time>
      </trkpt>
      <trkpt lat="44.74223" lon="5.46554">
        <ele>1908.44</ele>
        <time>2018-08-16T11:39:41.000Z</time>
      </trkpt>
      <trkpt lat="44.7422" lon="5.4654">
        <ele>1908.18</ele>
        <time>2018-08-16T11:39:56.000Z</time>
      </trkpt>
      <trkpt lat="44.74216" lon="5.46527">
        <ele>1907.17</ele>
        <time>2018-08-16T11:40:06.000Z</time>
      </trkpt>
      <trkpt lat="44.74208" lon="5.4651">
        <ele>1904.05</ele>
        <time>2018-08-16T11:40:16.000Z</time>
      </trkpt>
      <trkpt lat="44.74201" lon="5.46499">
        <ele>1900.65</ele>
        <time>2018-08-16T11:40:26.000Z</time>
      </trkpt>
      <trkpt lat="44.74194" lon="5.46491">
        <ele>1897.37</ele>
        <time>2018-08-16T11:40:38.000Z</time>
      </trkpt>
      <trkpt lat="44.74185" lon="5.46485">
        <ele>1894.47</ele>
        <time>2018-08-16T11:40:48.000Z</time>
      </trkpt>
      <trkpt lat="44.74177" lon="5.46476">
        <ele>1891.15</ele>
        <time>2018-08-16T11:40:59.000Z</time>
      </trkpt>
      <trkpt lat="44.74174" lon="5.46464">
        <ele>1887.45</ele>
        <time>2018-08-16T11:41:10.000Z</time>
      </trkpt>
      <trkpt lat="44.7417" lon="5.4645">
        <ele>1883.27</ele>
        <time>2018-08-16T11:41:20.000Z</time>
      </trkpt>
      <trkpt lat="44.74165" lon="5.46438">
        <ele>1879.73</ele>
        <time>2018-08-16T11:41:32.000Z</time>
      </trkpt>
      <trkpt lat="44.7416" lon="5.46425">
        <ele>1876.44</ele>
        <time>2018-08-16T11:41:43.000Z</time>
      </trkpt>
      <trkpt lat="44.74155" lon="5.46414">
        <ele>1873.75</ele>
        <time>2018-08-16T11:41:55.000Z</time>
      </trkpt>
      <trkpt lat="44.74152" lon="5.46401">
        <ele>1870.53</ele>
        <time>2018-08-16T11:42:05.000Z</time>
      </trkpt>
      <trkpt lat="44.74155" lon="5.46387">
        <ele>1866.6</ele>
        <time>2018-08-16T11:42:26.000Z</time>
      </trkpt>
      <trkpt lat="44.74153" lon="5.46374">
        <ele>1863.39</ele>
        <time>2018-08-16T11:42:38.000Z</time>
      </trkpt>
      <trkpt lat="44.74157" lon="5.46361">
        <ele>1860.25</ele>
        <time>2018-08-16T11:42:51.000Z</time>
      </trkpt>
      <trkpt lat="44.74167" lon="5.46358">
        <ele>1859.4</ele>
        <time>2018-08-16T11:43:02.000Z</time>
      </trkpt>
      <trkpt lat="44.74173" lon="5.46347">
        <ele>1857.51</ele>
        <time>2018-08-16T11:43:13.000Z</time>
      </trkpt>
      <trkpt lat="44.74176" lon="5.46334">
        <ele>1855.66</ele>
        <time>2018-08-16T11:43:30.000Z</time>
      </trkpt>
      <trkpt lat="44.74176" lon="5.4632">
        <ele>1854.19</ele>
        <time>2018-08-16T11:43:43.000Z</time>
      </trkpt>
      <trkpt lat="44.74179" lon="5.46302">
        <ele>1853.41</ele>
        <time>2018-08-16T11:43:53.000Z</time>
      </trkpt>
      <trkpt lat="44.74183" lon="5.46282">
        <ele>1853.37</ele>
        <time>2018-08-16T11:44:03.000Z</time>
      </trkpt>
      <trkpt lat="44.74184" lon="5.46269">
        <ele>1853.14</ele>
        <time>2018-08-16T11:44:14.000Z</time>
      </trkpt>
      <trkpt lat="44.74185" lon="5.46256">
        <ele>1852.51</ele>
        <time>2018-08-16T11:44:24.000Z</time>
      </trkpt>
      <trkpt lat="44.74186" lon="5.46241">
        <ele>1851.3</ele>
        <time>2018-08-16T11:44:35.000Z</time>
      </trkpt>
      <trkpt lat="44.74186" lon="5.46227">
        <ele>1849.78</ele>
        <time>2018-08-16T11:44:45.000Z</time>
      </trkpt>
      <trkpt lat="44.74186" lon="5.46213">
        <ele>1848.3</ele>
        <time>2018-08-16T11:45:01.000Z</time>
      </trkpt>
      <trkpt lat="44.7419" lon="5.46202">
        <ele>1846.85</ele>
        <time>2018-08-16T11:45:47.000Z</time>
      </trkpt>
      <trkpt lat="44.74187" lon="5.46189">
        <ele>1844.86</ele>
        <time>2018-08-16T11:46:02.000Z</time>
      </trkpt>
      <trkpt lat="44.74179" lon="5.46176">
        <ele>1842.46</ele>
        <time>2018-08-16T11:46:12.000Z</time>
      </trkpt>
      <trkpt lat="44.74175" lon="5.46163">
        <ele>1839.46</ele>
        <time>2018-08-16T11:46:22.000Z</time>
      </trkpt>
      <trkpt lat="44.74178" lon="5.4615">
        <ele>1835.93</ele>
        <time>2018-08-16T11:46:33.000Z</time>
      </trkpt>
      <trkpt lat="44.7417" lon="5.46145">
        <ele>1834.11</ele>
        <time>2018-08-16T11:46:51.000Z</time>
      </trkpt>
      <trkpt lat="44.74165" lon="5.46134">
        <ele>1829.65</ele>
        <time>2018-08-16T11:47:01.000Z</time>
      </trkpt>
      <trkpt lat="44.7416" lon="5.46122">
        <ele>1824.32</ele>
        <time>2018-08-16T11:47:13.000Z</time>
      </trkpt>
      <trkpt lat="44.74168" lon="5.46115">
        <ele>1822.87</ele>
        <time>2018-08-16T11:47:24.000Z</time>
      </trkpt>
      <trkpt lat="44.74177" lon="5.46107">
        <ele>1820.22</ele>
        <time>2018-08-16T11:47:34.000Z</time>
      </trkpt>
      <trkpt lat="44.74187" lon="5.46113">
        <ele>1822.64</ele>
        <time>2018-08-16T11:47:44.000Z</time>
      </trkpt>
      <trkpt lat="44.74196" lon="5.46114">
        <ele>1822.34</ele>
        <time>2018-08-16T11:47:57.000Z</time>
      </trkpt>
      <trkpt lat="44.74205" lon="5.4611">
        <ele>1819.69</ele>
        <time>2018-08-16T11:48:07.000Z</time>
      </trkpt>
      <trkpt lat="44.7421" lon="5.46099">
        <ele>1814.9</ele>
        <time>2018-08-16T11:49:05.000Z</time>
      </trkpt>
      <trkpt lat="44.74218" lon="5.46093">
        <ele>1811</ele>
        <time>2018-08-16T11:49:21.000Z</time>
      </trkpt>
      <trkpt lat="44.74228" lon="5.46107">
        <ele>1814.92</ele>
        <time>2018-08-16T11:49:31.000Z</time>
      </trkpt>
      <trkpt lat="44.74237" lon="5.46112">
        <ele>1815.86</ele>
        <time>2018-08-16T11:49:41.000Z</time>
      </trkpt>
      <trkpt lat="44.74245" lon="5.46101">
        <ele>1810.75</ele>
        <time>2018-08-16T11:49:51.000Z</time>
      </trkpt>
      <trkpt lat="44.74257" lon="5.46096">
        <ele>1807.98</ele>
        <time>2018-08-16T11:50:03.000Z</time>
      </trkpt>
      <trkpt lat="44.74254" lon="5.46082">
        <ele>1802.38</ele>
        <time>2018-08-16T11:50:13.000Z</time>
      </trkpt>
      <trkpt lat="44.74244" lon="5.46081">
        <ele>1802.35</ele>
        <time>2018-08-16T11:50:30.000Z</time>
      </trkpt>
      <trkpt lat="44.74238" lon="5.46071">
        <ele>1798.56</ele>
        <time>2018-08-16T11:50:50.000Z</time>
      </trkpt>
      <trkpt lat="44.74235" lon="5.46059">
        <ele>1793.54</ele>
        <time>2018-08-16T11:51:58.000Z</time>
      </trkpt>
      <trkpt lat="44.74244" lon="5.46053">
        <ele>1789.74</ele>
        <time>2018-08-16T11:52:10.000Z</time>
      </trkpt>
      <trkpt lat="44.74253" lon="5.46051">
        <ele>1787.8</ele>
        <time>2018-08-16T11:52:40.000Z</time>
      </trkpt>
      <trkpt lat="44.74262" lon="5.46045">
        <ele>1784.76</ele>
        <time>2018-08-16T11:52:54.000Z</time>
      </trkpt>
      <trkpt lat="44.74272" lon="5.46038">
        <ele>1780.83</ele>
        <time>2018-08-16T11:53:08.000Z</time>
      </trkpt>
      <trkpt lat="44.74276" lon="5.46025">
        <ele>1774.5</ele>
        <time>2018-08-16T11:53:18.000Z</time>
      </trkpt>
      <trkpt lat="44.74283" lon="5.46016">
        <ele>1770.08</ele>
        <time>2018-08-16T11:53:29.000Z</time>
      </trkpt>
      <trkpt lat="44.74292" lon="5.4601">
        <ele>1767.44</ele>
        <time>2018-08-16T11:54:31.000Z</time>
      </trkpt>
      <trkpt lat="44.74297" lon="5.46">
        <ele>1762.24</ele>
        <time>2018-08-16T11:54:49.000Z</time>
      </trkpt>
      <trkpt lat="44.74304" lon="5.45991">
        <ele>1758.21</ele>
        <time>2018-08-16T11:55:10.000Z</time>
      </trkpt>
      <trkpt lat="44.74314" lon="5.45987">
        <ele>1756.19</ele>
        <time>2018-08-16T11:55:23.000Z</time>
      </trkpt>
      <trkpt lat="44.74323" lon="5.45985">
        <ele>1754.82</ele>
        <time>2018-08-16T11:55:39.000Z</time>
      </trkpt>
      <trkpt lat="44.74327" lon="5.45971">
        <ele>1747.52</ele>
        <time>2018-08-16T11:55:59.000Z</time>
      </trkpt>
      <trkpt lat="44.74338" lon="5.45972">
        <ele>1746.86</ele>
        <time>2018-08-16T11:56:09.000Z</time>
      </trkpt>
      <trkpt lat="44.74346" lon="5.45966">
        <ele>1742.92</ele>
        <time>2018-08-16T11:56:25.000Z</time>
      </trkpt>
      <trkpt lat="44.74356" lon="5.45966">
        <ele>1741.79</ele>
        <time>2018-08-16T11:56:36.000Z</time>
      </trkpt>
      <trkpt lat="44.74348" lon="5.45959">
        <ele>1738.99</ele>
        <time>2018-08-16T11:57:01.000Z</time>
      </trkpt>
      <trkpt lat="44.74352" lon="5.45947">
        <ele>1732.29</ele>
        <time>2018-08-16T11:57:16.000Z</time>
      </trkpt>
      <trkpt lat="44.7436" lon="5.45939">
        <ele>1726.94</ele>
        <time>2018-08-16T11:58:05.000Z</time>
      </trkpt>
      <trkpt lat="44.74366" lon="5.4593">
        <ele>1721.1</ele>
        <time>2018-08-16T11:58:19.000Z</time>
      </trkpt>
      <trkpt lat="44.74376" lon="5.45931">
        <ele>1720.09</ele>
        <time>2018-08-16T11:58:38.000Z</time>
      </trkpt>
      <trkpt lat="44.74385" lon="5.45929">
        <ele>1717.88</ele>
        <time>2018-08-16T11:59:02.000Z</time>
      </trkpt>
      <trkpt lat="44.74393" lon="5.45923">
        <ele>1713.6</ele>
        <time>2018-08-16T11:59:21.000Z</time>
      </trkpt>
      <trkpt lat="44.74402" lon="5.45922">
        <ele>1711.72</ele>
        <time>2018-08-16T11:59:41.000Z</time>
      </trkpt>
      <trkpt lat="44.74417" lon="5.45923">
        <ele>1709.72</ele>
        <time>2018-08-16T11:59:51.000Z</time>
      </trkpt>
      <trkpt lat="44.74426" lon="5.45918">
        <ele>1706.38</ele>
        <time>2018-08-16T12:00:05.000Z</time>
      </trkpt>
      <trkpt lat="44.74435" lon="5.45915">
        <ele>1703.95</ele>
        <time>2018-08-16T12:00:33.000Z</time>
      </trkpt>
      <trkpt lat="44.74443" lon="5.45909">
        <ele>1700.02</ele>
        <time>2018-08-16T12:01:06.000Z</time>
      </trkpt>
      <trkpt lat="44.7444" lon="5.45897">
        <ele>1695.58</ele>
        <time>2018-08-16T12:01:20.000Z</time>
      </trkpt>
      <trkpt lat="44.74442" lon="5.45883">
        <ele>1690.22</ele>
        <time>2018-08-16T12:01:38.000Z</time>
      </trkpt>
      <trkpt lat="44.74438" lon="5.45871">
        <ele>1686.4</ele>
        <time>2018-08-16T12:02:08.000Z</time>
      </trkpt>
      <trkpt lat="44.74433" lon="5.45859">
        <ele>1682.58</ele>
        <time>2018-08-16T12:02:21.000Z</time>
      </trkpt>
      <trkpt lat="44.7443" lon="5.45847">
        <ele>1678.19</ele>
        <time>2018-08-16T12:02:32.000Z</time>
      </trkpt>
      <trkpt lat="44.74414" lon="5.45838">
        <ele>1675.02</ele>
        <time>2018-08-16T12:02:42.000Z</time>
      </trkpt>
      <trkpt lat="44.7441" lon="5.45825">
        <ele>1669.44</ele>
        <time>2018-08-16T12:03:06.000Z</time>
      </trkpt>
      <trkpt lat="44.74414" lon="5.45813">
        <ele>1663.39</ele>
        <time>2018-08-16T12:03:27.000Z</time>
      </trkpt>
      <trkpt lat="44.74424" lon="5.45813">
        <ele>1663.06</ele>
        <time>2018-08-16T12:03:45.000Z</time>
      </trkpt>
      <trkpt lat="44.74434" lon="5.45812">
        <ele>1662.21</ele>
        <time>2018-08-16T12:04:00.000Z</time>
      </trkpt>
      <trkpt lat="44.74443" lon="5.45816">
        <ele>1664.38</ele>
        <time>2018-08-16T12:04:10.000Z</time>
      </trkpt>
      <trkpt lat="44.74452" lon="5.45819">
        <ele>1665.27</ele>
        <time>2018-08-16T12:04:21.000Z</time>
      </trkpt>
      <trkpt lat="44.7445" lon="5.45806">
        <ele>1659.48</ele>
        <time>2018-08-16T12:04:33.000Z</time>
      </trkpt>
      <trkpt lat="44.74442" lon="5.45798">
        <ele>1655.56</ele>
        <time>2018-08-16T12:05:01.000Z</time>
      </trkpt>
      <trkpt lat="44.74434" lon="5.45783">
        <ele>1647.94</ele>
        <time>2018-08-16T12:05:11.000Z</time>
      </trkpt>
      <trkpt lat="44.74429" lon="5.45772">
        <ele>1642.48</ele>
        <time>2018-08-16T12:05:48.000Z</time>
      </trkpt>
      <trkpt lat="44.74418" lon="5.45757">
        <ele>1635.41</ele>
        <time>2018-08-16T12:05:58.000Z</time>
      </trkpt>
      <trkpt lat="44.74412" lon="5.45747">
        <ele>1630.82</ele>
        <time>2018-08-16T12:06:08.000Z</time>
      </trkpt>
      <trkpt lat="44.74406" lon="5.45736">
        <ele>1625.54</ele>
        <time>2018-08-16T12:06:36.000Z</time>
      </trkpt>
      <trkpt lat="44.74411" lon="5.45726">
        <ele>1620.94</ele>
        <time>2018-08-16T12:07:15.000Z</time>
      </trkpt>
      <trkpt lat="44.74423" lon="5.45722">
        <ele>1619.46</ele>
        <time>2018-08-16T12:07:33.000Z</time>
      </trkpt>
      <trkpt lat="44.74422" lon="5.45708">
        <ele>1613.85</ele>
        <time>2018-08-16T12:08:16.000Z</time>
      </trkpt>
      <trkpt lat="44.74426" lon="5.45697">
        <ele>1609.48</ele>
        <time>2018-08-16T12:08:27.000Z</time>
      </trkpt>
      <trkpt lat="44.74416" lon="5.45687">
        <ele>1604.51</ele>
        <time>2018-08-16T12:08:37.000Z</time>
      </trkpt>
      <trkpt lat="44.74405" lon="5.45679">
        <ele>1599.94</ele>
        <time>2018-08-16T12:08:47.000Z</time>
      </trkpt>
      <trkpt lat="44.7441" lon="5.4567">
        <ele>1596.37</ele>
        <time>2018-08-16T12:08:58.000Z</time>
      </trkpt>
      <trkpt lat="44.74406" lon="5.45657">
        <ele>1589.95</ele>
        <time>2018-08-16T12:09:24.000Z</time>
      </trkpt>
      <trkpt lat="44.74414" lon="5.45663">
        <ele>1593.93</ele>
        <time>2018-08-16T12:09:38.000Z</time>
      </trkpt>
      <trkpt lat="44.74417" lon="5.45649">
        <ele>1588.28</ele>
        <time>2018-08-16T12:09:48.000Z</time>
      </trkpt>
      <trkpt lat="44.74411" lon="5.45637">
        <ele>1581.86</ele>
        <time>2018-08-16T12:10:23.000Z</time>
      </trkpt>
      <trkpt lat="44.74413" lon="5.45624">
        <ele>1576.8</ele>
        <time>2018-08-16T12:10:39.000Z</time>
      </trkpt>
      <trkpt lat="44.74405" lon="5.45616">
        <ele>1569.71</ele>
        <time>2018-08-16T12:10:53.000Z</time>
      </trkpt>
      <trkpt lat="44.74402" lon="5.456">
        <ele>1560.05</ele>
        <time>2018-08-16T12:11:32.000Z</time>
      </trkpt>
      <trkpt lat="44.74403" lon="5.45585">
        <ele>1554.72</ele>
        <time>2018-08-16T12:11:52.000Z</time>
      </trkpt>
      <trkpt lat="44.74412" lon="5.45587">
        <ele>1560.26</ele>
        <time>2018-08-16T12:12:27.000Z</time>
      </trkpt>
      <trkpt lat="44.74418" lon="5.45576">
        <ele>1558.92</ele>
        <time>2018-08-16T12:12:41.000Z</time>
      </trkpt>
      <trkpt lat="44.74426" lon="5.45569">
        <ele>1558.51</ele>
        <time>2018-08-16T12:13:04.000Z</time>
      </trkpt>
      <trkpt lat="44.74432" lon="5.45556">
        <ele>1555.47</ele>
        <time>2018-08-16T12:13:34.000Z</time>
      </trkpt>
      <trkpt lat="44.74425" lon="5.45548">
        <ele>1550.68</ele>
        <time>2018-08-16T12:13:54.000Z</time>
      </trkpt>
      <trkpt lat="44.74427" lon="5.45535">
        <ele>1546.27</ele>
        <time>2018-08-16T12:14:05.000Z</time>
      </trkpt>
      <trkpt lat="44.74424" lon="5.4552">
        <ele>1540.11</ele>
        <time>2018-08-16T12:14:50.000Z</time>
      </trkpt>
      <trkpt lat="44.74418" lon="5.4551">
        <ele>1534.92</ele>
        <time>2018-08-16T12:15:27.000Z</time>
      </trkpt>
      <trkpt lat="44.74408" lon="5.45502">
        <ele>1529.51</ele>
        <time>2018-08-16T12:16:04.000Z</time>
      </trkpt>
      <trkpt lat="44.74389" lon="5.45494">
        <ele>1519.83</ele>
        <time>2018-08-16T12:16:14.000Z</time>
      </trkpt>
      <trkpt lat="44.74378" lon="5.45496">
        <ele>1515.38</ele>
        <time>2018-08-16T12:16:24.000Z</time>
      </trkpt>
      <trkpt lat="44.7437" lon="5.45509">
        <ele>1514.34</ele>
        <time>2018-08-16T12:20:17.000Z</time>
      </trkpt>
      <trkpt lat="44.74372" lon="5.45522">
        <ele>1517.24</ele>
        <time>2018-08-16T12:20:56.000Z</time>
      </trkpt>
      <trkpt lat="44.74378" lon="5.45508">
        <ele>1518.05</ele>
        <time>2018-08-16T12:21:11.000Z</time>
      </trkpt>
      <trkpt lat="44.74365" lon="5.45493">
        <ele>1508.61</ele>
        <time>2018-08-16T12:21:25.000Z</time>
      </trkpt>
      <trkpt lat="44.7437" lon="5.45523">
        <ele>1516</ele>
        <time>2018-08-16T12:21:35.000Z</time>
      </trkpt>
      <trkpt lat="44.7438" lon="5.45523">
        <ele>1522.16</ele>
        <time>2018-08-16T12:21:45.000Z</time>
      </trkpt>
      <trkpt lat="44.74369" lon="5.45535">
        <ele>1515.94</ele>
        <time>2018-08-16T12:23:54.000Z</time>
      </trkpt>
      <trkpt lat="44.74373" lon="5.45547">
        <ele>1520.28</ele>
        <time>2018-08-16T12:24:16.000Z</time>
      </trkpt>
      <trkpt lat="44.74364" lon="5.45559">
        <ele>1514.59</ele>
        <time>2018-08-16T12:24:26.000Z</time>
      </trkpt>
      <trkpt lat="44.74363" lon="5.45576">
        <ele>1517.9</ele>
        <time>2018-08-16T12:24:36.000Z</time>
      </trkpt>
      <trkpt lat="44.74364" lon="5.45589">
        <ele>1524.59</ele>
        <time>2018-08-16T12:24:49.000Z</time>
      </trkpt>
      <trkpt lat="44.74352" lon="5.45596">
        <ele>1518.69</ele>
        <time>2018-08-16T12:24:59.000Z</time>
      </trkpt>
      <trkpt lat="44.74344" lon="5.45602">
        <ele>1516.73</ele>
        <time>2018-08-16T12:25:09.000Z</time>
      </trkpt>
      <trkpt lat="44.74345" lon="5.45615">
        <ele>1528.24</ele>
        <time>2018-08-16T12:25:22.000Z</time>
      </trkpt>
      <trkpt lat="44.74334" lon="5.45616">
        <ele>1521.72</ele>
        <time>2018-08-16T12:25:48.000Z</time>
      </trkpt>
      <trkpt lat="44.74326" lon="5.45622">
        <ele>1522.7</ele>
        <time>2018-08-16T12:26:47.000Z</time>
      </trkpt>
      <trkpt lat="44.74308" lon="5.4563">
        <ele>1519.64</ele>
        <time>2018-08-16T12:26:57.000Z</time>
      </trkpt>
      <trkpt lat="44.743" lon="5.45637">
        <ele>1522.34</ele>
        <time>2018-08-16T12:27:07.000Z</time>
      </trkpt>
      <trkpt lat="44.74277" lon="5.45649">
        <ele>1517.88</ele>
        <time>2018-08-16T12:27:17.000Z</time>
      </trkpt>
      <trkpt lat="44.74274" lon="5.45663">
        <ele>1530.17</ele>
        <time>2018-08-16T12:27:27.000Z</time>
      </trkpt>
      <trkpt lat="44.74284" lon="5.45676">
        <ele>1550.11</ele>
        <time>2018-08-16T12:27:37.000Z</time>
      </trkpt>
      <trkpt lat="44.74275" lon="5.45659">
        <ele>1526.13</ele>
        <time>2018-08-16T12:27:47.000Z</time>
      </trkpt>
      <trkpt lat="44.74264" lon="5.45659">
        <ele>1518.03</ele>
        <time>2018-08-16T12:28:51.000Z</time>
      </trkpt>
      <trkpt lat="44.74235" lon="5.45676">
        <ele>1512.01</ele>
        <time>2018-08-16T12:29:01.000Z</time>
      </trkpt>
      <trkpt lat="44.74211" lon="5.45665">
        <ele>1473.3</ele>
        <time>2018-08-16T12:29:11.000Z</time>
      </trkpt>
      <trkpt lat="44.74222" lon="5.457">
        <ele>1534.2</ele>
        <time>2018-08-16T12:29:21.000Z</time>
      </trkpt>
      <trkpt lat="44.74229" lon="5.45712">
        <ele>1561.46</ele>
        <time>2018-08-16T12:29:37.000Z</time>
      </trkpt>
      <trkpt lat="44.74224" lon="5.45725">
        <ele>1577.35</ele>
        <time>2018-08-16T12:31:47.000Z</time>
      </trkpt>
      <trkpt lat="44.7418" lon="5.45722">
        <ele>1525.21</ele>
        <time>2018-08-16T12:31:57.000Z</time>
      </trkpt>
      <trkpt lat="44.74134" lon="5.45737">
        <ele>1522.85</ele>
        <time>2018-08-16T12:32:07.000Z</time>
      </trkpt>
      <trkpt lat="44.74125" lon="5.45734">
        <ele>1513.18</ele>
        <time>2018-08-16T12:32:27.000Z</time>
      </trkpt>
      <trkpt lat="44.74126" lon="5.4572">
        <ele>1491.66</ele>
        <time>2018-08-16T12:32:39.000Z</time>
      </trkpt>
      <trkpt lat="44.74113" lon="5.45712">
        <ele>1475.57</ele>
        <time>2018-08-16T12:32:49.000Z</time>
      </trkpt>
      <trkpt lat="44.74113" lon="5.45752">
        <ele>1539.6</ele>
        <time>2018-08-16T12:32:59.000Z</time>
      </trkpt>
      <trkpt lat="44.74093" lon="5.4573">
        <ele>1496.84</ele>
        <time>2018-08-16T12:33:09.000Z</time>
      </trkpt>
      <trkpt lat="44.74084" lon="5.45727">
        <ele>1490.58</ele>
        <time>2018-08-16T12:33:19.000Z</time>
      </trkpt>
      <trkpt lat="44.74074" lon="5.45732">
        <ele>1494.06</ele>
        <time>2018-08-16T12:33:29.000Z</time>
      </trkpt>
      <trkpt lat="44.74077" lon="5.45745">
        <ele>1515.58</ele>
        <time>2018-08-16T12:33:39.000Z</time>
      </trkpt>
      <trkpt lat="44.74067" lon="5.45752">
        <ele>1522.98</ele>
        <time>2018-08-16T12:34:20.000Z</time>
      </trkpt>
      <trkpt lat="44.74032" lon="5.45763">
        <ele>1527.99</ele>
        <time>2018-08-16T12:34:30.000Z</time>
      </trkpt>
      <trkpt lat="44.74018" lon="5.4575">
        <ele>1503.77</ele>
        <time>2018-08-16T12:34:40.000Z</time>
      </trkpt>
      <trkpt lat="44.74009" lon="5.45743">
        <ele>1491.5</ele>
        <time>2018-08-16T12:34:51.000Z</time>
      </trkpt>
      <trkpt lat="44.73999" lon="5.45744">
        <ele>1487.7</ele>
        <time>2018-08-16T12:35:53.000Z</time>
      </trkpt>
      <trkpt lat="44.73987" lon="5.45755">
        <ele>1491.01</ele>
        <time>2018-08-16T12:36:03.000Z</time>
      </trkpt>
      <trkpt lat="44.73979" lon="5.45767">
        <ele>1494.94</ele>
        <time>2018-08-16T12:36:13.000Z</time>
      </trkpt>
      <trkpt lat="44.73975" lon="5.45781">
        <ele>1503.49</ele>
        <time>2018-08-16T12:36:34.000Z</time>
      </trkpt>
      <trkpt lat="44.73968" lon="5.45792">
        <ele>1503.89</ele>
        <time>2018-08-16T12:36:57.000Z</time>
      </trkpt>
      <trkpt lat="44.73959" lon="5.45798">
        <ele>1496.15</ele>
        <time>2018-08-16T12:37:19.000Z</time>
      </trkpt>
      <trkpt lat="44.73938" lon="5.45818">
        <ele>1475.6</ele>
        <time>2018-08-16T12:37:29.000Z</time>
      </trkpt>
      <trkpt lat="44.73933" lon="5.45804">
        <ele>1458.77</ele>
        <time>2018-08-16T12:37:39.000Z</time>
      </trkpt>
      <trkpt lat="44.73925" lon="5.45812">
        <ele>1453.02</ele>
        <time>2018-08-16T12:37:52.000Z</time>
      </trkpt>
      <trkpt lat="44.73917" lon="5.45822">
        <ele>1451.56</ele>
        <time>2018-08-16T12:38:05.000Z</time>
      </trkpt>
      <trkpt lat="44.73914" lon="5.45834">
        <ele>1458.23</ele>
        <time>2018-08-16T12:38:17.000Z</time>
      </trkpt>
      <trkpt lat="44.73905" lon="5.45836">
        <ele>1452.8</ele>
        <time>2018-08-16T12:38:45.000Z</time>
      </trkpt>
      <trkpt lat="44.73897" lon="5.45846">
        <ele>1457.53</ele>
        <time>2018-08-16T12:38:56.000Z</time>
      </trkpt>
      <trkpt lat="44.73886" lon="5.45845">
        <ele>1452</ele>
        <time>2018-08-16T12:39:16.000Z</time>
      </trkpt>
      <trkpt lat="44.73864" lon="5.45845">
        <ele>1447.45</ele>
        <time>2018-08-16T12:39:26.000Z</time>
      </trkpt>
      <trkpt lat="44.73856" lon="5.45838">
        <ele>1439.89</ele>
        <time>2018-08-16T12:39:49.000Z</time>
      </trkpt>
      <trkpt lat="44.73847" lon="5.45837">
        <ele>1438.13</ele>
        <time>2018-08-16T12:40:03.000Z</time>
      </trkpt>
      <trkpt lat="44.73836" lon="5.45841">
        <ele>1439.04</ele>
        <time>2018-08-16T12:40:13.000Z</time>
      </trkpt>
      <trkpt lat="44.73827" lon="5.45846">
        <ele>1439.15</ele>
        <time>2018-08-16T12:40:23.000Z</time>
      </trkpt>
      <trkpt lat="44.73819" lon="5.45854">
        <ele>1442.3</ele>
        <time>2018-08-16T12:40:42.000Z</time>
      </trkpt>
      <trkpt lat="44.73809" lon="5.45848">
        <ele>1433.94</ele>
        <time>2018-08-16T12:41:05.000Z</time>
      </trkpt>
      <trkpt lat="44.73802" lon="5.4584">
        <ele>1426.24</ele>
        <time>2018-08-16T12:41:16.000Z</time>
      </trkpt>
      <trkpt lat="44.73793" lon="5.4584">
        <ele>1422.88</ele>
        <time>2018-08-16T12:41:26.000Z</time>
      </trkpt>
      <trkpt lat="44.73783" lon="5.45844">
        <ele>1421.74</ele>
        <time>2018-08-16T12:41:37.000Z</time>
      </trkpt>
      <trkpt lat="44.73776" lon="5.45851">
        <ele>1423.4</ele>
        <time>2018-08-16T12:41:54.000Z</time>
      </trkpt>
      <trkpt lat="44.73765" lon="5.45861">
        <ele>1425.22</ele>
        <time>2018-08-16T12:42:12.000Z</time>
      </trkpt>
      <trkpt lat="44.73762" lon="5.45879">
        <ele>1433.53</ele>
        <time>2018-08-16T12:42:22.000Z</time>
      </trkpt>
      <trkpt lat="44.73753" lon="5.45872">
        <ele>1426.77</ele>
        <time>2018-08-16T12:42:45.000Z</time>
      </trkpt>
      <trkpt lat="44.73744" lon="5.45876">
        <ele>1426.26</ele>
        <time>2018-08-16T12:43:58.000Z</time>
      </trkpt>
      <trkpt lat="44.73734" lon="5.45875">
        <ele>1423.2</ele>
        <time>2018-08-16T12:44:08.000Z</time>
      </trkpt>
      <trkpt lat="44.73741" lon="5.45882">
        <ele>1428.87</ele>
        <time>2018-08-16T12:44:36.000Z</time>
      </trkpt>
      <trkpt lat="44.73732" lon="5.45885">
        <ele>1428.31</ele>
        <time>2018-08-16T12:44:49.000Z</time>
      </trkpt>
      <trkpt lat="44.73723" lon="5.45884">
        <ele>1426.23</ele>
        <time>2018-08-16T12:45:00.000Z</time>
      </trkpt>
      <trkpt lat="44.7371" lon="5.45883">
        <ele>1423.41</ele>
        <time>2018-08-16T12:45:10.000Z</time>
      </trkpt>
      <trkpt lat="44.73701" lon="5.45878">
        <ele>1419.82</ele>
        <time>2018-08-16T12:45:25.000Z</time>
      </trkpt>
      <trkpt lat="44.73691" lon="5.45874">
        <ele>1416.69</ele>
        <time>2018-08-16T12:45:35.000Z</time>
      </trkpt>
      <trkpt lat="44.73683" lon="5.45882">
        <ele>1421.26</ele>
        <time>2018-08-16T12:45:45.000Z</time>
      </trkpt>
      <trkpt lat="44.73674" lon="5.45882">
        <ele>1421.29</ele>
        <time>2018-08-16T12:46:22.000Z</time>
      </trkpt>
      <trkpt lat="44.73669" lon="5.45871">
        <ele>1414.17</ele>
        <time>2018-08-16T12:46:34.000Z</time>
      </trkpt>
      <trkpt lat="44.73662" lon="5.45861">
        <ele>1407.59</ele>
        <time>2018-08-16T12:47:08.000Z</time>
      </trkpt>
      <trkpt lat="44.73632" lon="5.45835">
        <ele>1392.51</ele>
        <time>2018-08-16T12:47:18.000Z</time>
      </trkpt>
      <trkpt lat="44.73624" lon="5.45828">
        <ele>1389.13</ele>
        <time>2018-08-16T12:47:28.000Z</time>
      </trkpt>
      <trkpt lat="44.73617" lon="5.45836">
        <ele>1394.99</ele>
        <time>2018-08-16T12:47:39.000Z</time>
      </trkpt>
      <trkpt lat="44.73608" lon="5.45831">
        <ele>1393.39</ele>
        <time>2018-08-16T12:47:52.000Z</time>
      </trkpt>
      <trkpt lat="44.73598" lon="5.45824">
        <ele>1391</ele>
        <time>2018-08-16T12:49:48.000Z</time>
      </trkpt>
      <trkpt lat="44.73582" lon="5.45806">
        <ele>1383.74</ele>
        <time>2018-08-16T12:49:58.000Z</time>
      </trkpt>
      <trkpt lat="44.73616" lon="5.45826">
        <ele>1388.96</ele>
        <time>2018-08-16T12:50:08.000Z</time>
      </trkpt>
      <trkpt lat="44.73607" lon="5.45827">
        <ele>1391.23</ele>
        <time>2018-08-16T12:50:19.000Z</time>
      </trkpt>
      <trkpt lat="44.73589" lon="5.45818">
        <ele>1388.78</ele>
        <time>2018-08-16T12:50:29.000Z</time>
      </trkpt>
      <trkpt lat="44.73597" lon="5.45824">
        <ele>1391.13</ele>
        <time>2018-08-16T12:52:01.000Z</time>
      </trkpt>
      <trkpt lat="44.7359" lon="5.45813">
        <ele>1386.19</ele>
        <time>2018-08-16T12:53:49.000Z</time>
      </trkpt>
      <trkpt lat="44.73577" lon="5.45804">
        <ele>1384.77</ele>
        <time>2018-08-16T12:53:59.000Z</time>
      </trkpt>
      <trkpt lat="44.73568" lon="5.45799">
        <ele>1385.98</ele>
        <time>2018-08-16T12:54:14.000Z</time>
      </trkpt>
      <trkpt lat="44.73557" lon="5.45787">
        <ele>1386.27</ele>
        <time>2018-08-16T12:54:24.000Z</time>
      </trkpt>
      <trkpt lat="44.73546" lon="5.45779">
        <ele>1389.4</ele>
        <time>2018-08-16T12:54:39.000Z</time>
      </trkpt>
      <trkpt lat="44.73531" lon="5.45759">
        <ele>1390.28</ele>
        <time>2018-08-16T12:54:49.000Z</time>
      </trkpt>
      <trkpt lat="44.73524" lon="5.45745">
        <ele>1388.14</ele>
        <time>2018-08-16T12:54:59.000Z</time>
      </trkpt>
      <trkpt lat="44.73513" lon="5.45721">
        <ele>1385.94</ele>
        <time>2018-08-16T12:55:09.000Z</time>
      </trkpt>
      <trkpt lat="44.73505" lon="5.45706">
        <ele>1384.29</ele>
        <time>2018-08-16T12:55:19.000Z</time>
      </trkpt>
      <trkpt lat="44.73503" lon="5.45692">
        <ele>1381.15</ele>
        <time>2018-08-16T12:55:30.000Z</time>
      </trkpt>
      <trkpt lat="44.73497" lon="5.45681">
        <ele>1378.03</ele>
        <time>2018-08-16T12:55:48.000Z</time>
      </trkpt>
      <trkpt lat="44.73489" lon="5.45666">
        <ele>1371.78</ele>
        <time>2018-08-16T12:55:58.000Z</time>
      </trkpt>
      <trkpt lat="44.73478" lon="5.45663">
        <ele>1367.63</ele>
        <time>2018-08-16T12:56:08.000Z</time>
      </trkpt>
      <trkpt lat="44.73468" lon="5.45663">
        <ele>1362.89</ele>
        <time>2018-08-16T12:56:18.000Z</time>
      </trkpt>
      <trkpt lat="44.73459" lon="5.45672">
        <ele>1361.22</ele>
        <time>2018-08-16T12:56:28.000Z</time>
      </trkpt>
      <trkpt lat="44.73459" lon="5.45659">
        <ele>1357.03</ele>
        <time>2018-08-16T12:56:41.000Z</time>
      </trkpt>
      <trkpt lat="44.73459" lon="5.45646">
        <ele>1352.76</ele>
        <time>2018-08-16T12:56:56.000Z</time>
      </trkpt>
      <trkpt lat="44.73463" lon="5.45633">
        <ele>1350.11</ele>
        <time>2018-08-16T12:57:12.000Z</time>
      </trkpt>
      <trkpt lat="44.73454" lon="5.45634">
        <ele>1346.43</ele>
        <time>2018-08-16T12:57:23.000Z</time>
      </trkpt>
      <trkpt lat="44.73446" lon="5.45626">
        <ele>1340.67</ele>
        <time>2018-08-16T12:57:43.000Z</time>
      </trkpt>
      <trkpt lat="44.73436" lon="5.45621">
        <ele>1335.12</ele>
        <time>2018-08-16T12:58:27.000Z</time>
      </trkpt>
      <trkpt lat="44.73434" lon="5.45608">
        <ele>1331.26</ele>
        <time>2018-08-16T12:58:43.000Z</time>
      </trkpt>
      <trkpt lat="44.73427" lon="5.456">
        <ele>1326.66</ele>
        <time>2018-08-16T12:59:00.000Z</time>
      </trkpt>
      <trkpt lat="44.73421" lon="5.45588">
        <ele>1321.62</ele>
        <time>2018-08-16T12:59:39.000Z</time>
      </trkpt>
      <trkpt lat="44.73412" lon="5.45586">
        <ele>1317.47</ele>
        <time>2018-08-16T12:59:49.000Z</time>
      </trkpt>
      <trkpt lat="44.7341" lon="5.45572">
        <ele>1312.98</ele>
        <time>2018-08-16T13:00:12.000Z</time>
      </trkpt>
      <trkpt lat="44.7341" lon="5.45559">
        <ele>1308.97</ele>
        <time>2018-08-16T13:00:43.000Z</time>
      </trkpt>
      <trkpt lat="44.73409" lon="5.45545">
        <ele>1303.68</ele>
        <time>2018-08-16T13:01:00.000Z</time>
      </trkpt>
      <trkpt lat="44.73406" lon="5.4553">
        <ele>1297.19</ele>
        <time>2018-08-16T13:01:35.000Z</time>
      </trkpt>
      <trkpt lat="44.73405" lon="5.45517">
        <ele>1291.69</ele>
        <time>2018-08-16T13:01:45.000Z</time>
      </trkpt>
      <trkpt lat="44.73396" lon="5.4551">
        <ele>1286.5</ele>
        <time>2018-08-16T13:01:58.000Z</time>
      </trkpt>
      <trkpt lat="44.73387" lon="5.45508">
        <ele>1282.61</ele>
        <time>2018-08-16T13:02:15.000Z</time>
      </trkpt>
      <trkpt lat="44.73382" lon="5.45497">
        <ele>1277.65</ele>
        <time>2018-08-16T13:02:28.000Z</time>
      </trkpt>
      <trkpt lat="44.73383" lon="5.45484">
        <ele>1274.84</ele>
        <time>2018-08-16T13:02:41.000Z</time>
      </trkpt>
      <trkpt lat="44.73383" lon="5.45471">
        <ele>1271.46</ele>
        <time>2018-08-16T13:02:51.000Z</time>
      </trkpt>
      <trkpt lat="44.7338" lon="5.45459">
        <ele>1267.7</ele>
        <time>2018-08-16T13:03:01.000Z</time>
      </trkpt>
      <trkpt lat="44.73385" lon="5.45447">
        <ele>1265.47</ele>
        <time>2018-08-16T13:03:23.000Z</time>
      </trkpt>
      <trkpt lat="44.73375" lon="5.45444">
        <ele>1262.72</ele>
        <time>2018-08-16T13:03:33.000Z</time>
      </trkpt>
      <trkpt lat="44.73367" lon="5.45419">
        <ele>1256.17</ele>
        <time>2018-08-16T13:03:43.000Z</time>
      </trkpt>
      <trkpt lat="44.7336" lon="5.45409">
        <ele>1252.52</ele>
        <time>2018-08-16T13:05:34.000Z</time>
      </trkpt>
      <trkpt lat="44.73368" lon="5.45402">
        <ele>1252.91</ele>
        <time>2018-08-16T13:05:45.000Z</time>
      </trkpt>
      <trkpt lat="44.73362" lon="5.45392">
        <ele>1249.92</ele>
        <time>2018-08-16T13:06:20.000Z</time>
      </trkpt>
      <trkpt lat="44.73367" lon="5.45381">
        <ele>1248.77</ele>
        <time>2018-08-16T13:06:41.000Z</time>
      </trkpt>
      <trkpt lat="44.73371" lon="5.45369">
        <ele>1247.16</ele>
        <time>2018-08-16T13:07:01.000Z</time>
      </trkpt>
      <trkpt lat="44.73367" lon="5.45357">
        <ele>1244.27</ele>
        <time>2018-08-16T13:07:19.000Z</time>
      </trkpt>
      <trkpt lat="44.73364" lon="5.45345">
        <ele>1241.34</ele>
        <time>2018-08-16T13:07:34.000Z</time>
      </trkpt>
      <trkpt lat="44.73359" lon="5.45327">
        <ele>1236.51</ele>
        <time>2018-08-16T13:07:44.000Z</time>
      </trkpt>
      <trkpt lat="44.73369" lon="5.45324">
        <ele>1237.47</ele>
        <time>2018-08-16T13:07:57.000Z</time>
      </trkpt>
      <trkpt lat="44.73375" lon="5.45313">
        <ele>1235.22</ele>
        <time>2018-08-16T13:08:08.000Z</time>
      </trkpt>
      <trkpt lat="44.7337" lon="5.45302">
        <ele>1232.36</ele>
        <time>2018-08-16T13:08:28.000Z</time>
      </trkpt>
      <trkpt lat="44.73361" lon="5.45292">
        <ele>1229.33</ele>
        <time>2018-08-16T13:08:38.000Z</time>
      </trkpt>
      <trkpt lat="44.73358" lon="5.45279">
        <ele>1226.08</ele>
        <time>2018-08-16T13:08:52.000Z</time>
      </trkpt>
      <trkpt lat="44.7335" lon="5.45273">
        <ele>1223.6</ele>
        <time>2018-08-16T13:09:02.000Z</time>
      </trkpt>
      <trkpt lat="44.73347" lon="5.45261">
        <ele>1220.43</ele>
        <time>2018-08-16T13:09:14.000Z</time>
      </trkpt>
      <trkpt lat="44.73347" lon="5.45248">
        <ele>1217.41</ele>
        <time>2018-08-16T13:12:26.000Z</time>
      </trkpt>
      <trkpt lat="44.73357" lon="5.45244">
        <ele>1217.41</ele>
        <time>2018-08-16T13:12:49.000Z</time>
      </trkpt>
      <trkpt lat="44.73367" lon="5.45253">
        <ele>1219.71</ele>
        <time>2018-08-16T13:12:59.000Z</time>
      </trkpt>
      <trkpt lat="44.73378" lon="5.4525">
        <ele>1217.57</ele>
        <time>2018-08-16T13:13:09.000Z</time>
      </trkpt>
      <trkpt lat="44.73374" lon="5.45238">
        <ele>1214.61</ele>
        <time>2018-08-16T13:13:33.000Z</time>
      </trkpt>
      <trkpt lat="44.7337" lon="5.45221">
        <ele>1210.55</ele>
        <time>2018-08-16T13:13:43.000Z</time>
      </trkpt>
      <trkpt lat="44.73365" lon="5.4521">
        <ele>1207.66</ele>
        <time>2018-08-16T13:13:53.000Z</time>
      </trkpt>
      <trkpt lat="44.73362" lon="5.45198">
        <ele>1204.22</ele>
        <time>2018-08-16T13:14:19.000Z</time>
      </trkpt>
      <trkpt lat="44.73353" lon="5.45179">
        <ele>1199.1</ele>
        <time>2018-08-16T13:14:29.000Z</time>
      </trkpt>
      <trkpt lat="44.73345" lon="5.45164">
        <ele>1195.01</ele>
        <time>2018-08-16T13:14:39.000Z</time>
      </trkpt>
      <trkpt lat="44.7334" lon="5.45146">
        <ele>1191.84</ele>
        <time>2018-08-16T13:14:49.000Z</time>
      </trkpt>
      <trkpt lat="44.73341" lon="5.45133">
        <ele>1189.75</ele>
        <time>2018-08-16T13:14:59.000Z</time>
      </trkpt>
      <trkpt lat="44.73347" lon="5.45122">
        <ele>1186.91</ele>
        <time>2018-08-16T13:15:13.000Z</time>
      </trkpt>
      <trkpt lat="44.7336" lon="5.45126">
        <ele>1184.15</ele>
        <time>2018-08-16T13:15:23.000Z</time>
      </trkpt>
      <trkpt lat="44.73365" lon="5.45116">
        <ele>1178.71</ele>
        <time>2018-08-16T13:15:48.000Z</time>
      </trkpt>
      <trkpt lat="44.73365" lon="5.45102">
        <ele>1174.39</ele>
        <time>2018-08-16T13:16:05.000Z</time>
      </trkpt>
      <trkpt lat="44.73362" lon="5.45089">
        <ele>1171.5</ele>
        <time>2018-08-16T13:16:30.000Z</time>
      </trkpt>
      <trkpt lat="44.7336" lon="5.45066">
        <ele>1163.4</ele>
        <time>2018-08-16T13:16:40.000Z</time>
      </trkpt>
      <trkpt lat="44.73354" lon="5.45056">
        <ele>1162.47</ele>
        <time>2018-08-16T13:16:51.000Z</time>
      </trkpt>
      <trkpt lat="44.73349" lon="5.45044">
        <ele>1160.06</ele>
        <time>2018-08-16T13:17:07.000Z</time>
      </trkpt>
      <trkpt lat="44.7334" lon="5.45033">
        <ele>1159.83</ele>
        <time>2018-08-16T13:17:17.000Z</time>
      </trkpt>
      <trkpt lat="44.73329" lon="5.4502">
        <ele>1157.09</ele>
        <time>2018-08-16T13:17:27.000Z</time>
      </trkpt>
      <trkpt lat="44.73321" lon="5.45013">
        <ele>1154.77</ele>
        <time>2018-08-16T13:17:37.000Z</time>
      </trkpt>
      <trkpt lat="44.73314" lon="5.45005">
        <ele>1150.87</ele>
        <time>2018-08-16T13:17:55.000Z</time>
      </trkpt>
      <trkpt lat="44.73308" lon="5.44993">
        <ele>1144.52</ele>
        <time>2018-08-16T13:18:05.000Z</time>
      </trkpt>
      <trkpt lat="44.73317" lon="5.44995">
        <ele>1146.11</ele>
        <time>2018-08-16T13:18:16.000Z</time>
      </trkpt>
      <trkpt lat="44.7331" lon="5.44986">
        <ele>1141.06</ele>
        <time>2018-08-16T13:18:34.000Z</time>
      </trkpt>
      <trkpt lat="44.73302" lon="5.44979">
        <ele>1135.9</ele>
        <time>2018-08-16T13:18:45.000Z</time>
      </trkpt>
      <trkpt lat="44.73293" lon="5.44982">
        <ele>1135.98</ele>
        <time>2018-08-16T13:19:09.000Z</time>
      </trkpt>
      <trkpt lat="44.73287" lon="5.44971">
        <ele>1128.22</ele>
        <time>2018-08-16T13:19:31.000Z</time>
      </trkpt>
      <trkpt lat="44.73291" lon="5.44959">
        <ele>1122.45</ele>
        <time>2018-08-16T13:19:57.000Z</time>
      </trkpt>
      <trkpt lat="44.73284" lon="5.44951">
        <ele>1115.81</ele>
        <time>2018-08-16T13:20:18.000Z</time>
      </trkpt>
      <trkpt lat="44.73271" lon="5.44952">
        <ele>1112.13</ele>
        <time>2018-08-16T13:20:28.000Z</time>
      </trkpt>
      <trkpt lat="44.7328" lon="5.44947">
        <ele>1112.5</ele>
        <time>2018-08-16T13:20:39.000Z</time>
      </trkpt>
      <trkpt lat="44.73284" lon="5.44935">
        <ele>1107.1</ele>
        <time>2018-08-16T13:20:58.000Z</time>
      </trkpt>
      <trkpt lat="44.73284" lon="5.44922">
        <ele>1100.08</ele>
        <time>2018-08-16T13:22:09.000Z</time>
      </trkpt>
      <trkpt lat="44.73292" lon="5.44917">
        <ele>1098.66</ele>
        <time>2018-08-16T13:22:44.000Z</time>
      </trkpt>
      <trkpt lat="44.73299" lon="5.44904">
        <ele>1092.75</ele>
        <time>2018-08-16T13:22:54.000Z</time>
      </trkpt>
      <trkpt lat="44.73305" lon="5.44894">
        <ele>1088.07</ele>
        <time>2018-08-16T13:23:04.000Z</time>
      </trkpt>
      <trkpt lat="44.73297" lon="5.4488">
        <ele>1080.57</ele>
        <time>2018-08-16T13:23:14.000Z</time>
      </trkpt>
      <trkpt lat="44.7329" lon="5.44871">
        <ele>1074.84</ele>
        <time>2018-08-16T13:23:24.000Z</time>
      </trkpt>
      <trkpt lat="44.73282" lon="5.44882">
        <ele>1078.95</ele>
        <time>2018-08-16T13:24:03.000Z</time>
      </trkpt>
      <trkpt lat="44.73273" lon="5.44885">
        <ele>1077.78</ele>
        <time>2018-08-16T13:24:29.000Z</time>
      </trkpt>
      <trkpt lat="44.73264" lon="5.44888">
        <ele>1076.28</ele>
        <time>2018-08-16T13:24:46.000Z</time>
      </trkpt>
      <trkpt lat="44.73263" lon="5.44875">
        <ele>1069.36</ele>
        <time>2018-08-16T13:25:29.000Z</time>
      </trkpt>
      <trkpt lat="44.73256" lon="5.44866">
        <ele>1061.9</ele>
        <time>2018-08-16T13:26:05.000Z</time>
      </trkpt>
      <trkpt lat="44.73253" lon="5.44853">
        <ele>1054.73</ele>
        <time>2018-08-16T13:26:59.000Z</time>
      </trkpt>
      <trkpt lat="44.73258" lon="5.44842">
        <ele>1050.93</ele>
        <time>2018-08-16T13:27:16.000Z</time>
      </trkpt>
      <trkpt lat="44.73262" lon="5.4483">
        <ele>1046.51</ele>
        <time>2018-08-16T13:27:30.000Z</time>
      </trkpt>
      <trkpt lat="44.73254" lon="5.44822">
        <ele>1039.72</ele>
        <time>2018-08-16T13:27:57.000Z</time>
      </trkpt>
      <trkpt lat="44.7325" lon="5.44809">
        <ele>1032.84</ele>
        <time>2018-08-16T13:28:30.000Z</time>
      </trkpt>
      <trkpt lat="44.73259" lon="5.44801">
        <ele>1031.73</ele>
        <time>2018-08-16T13:28:41.000Z</time>
      </trkpt>
      <trkpt lat="44.73263" lon="5.44789">
        <ele>1027.67</ele>
        <time>2018-08-16T13:28:52.000Z</time>
      </trkpt>
      <trkpt lat="44.73268" lon="5.44778">
        <ele>1024.19</ele>
        <time>2018-08-16T13:29:11.000Z</time>
      </trkpt>
      <trkpt lat="44.73275" lon="5.44768">
        <ele>1020.87</ele>
        <time>2018-08-16T13:29:22.000Z</time>
      </trkpt>
      <trkpt lat="44.73279" lon="5.44757">
        <ele>1016.31</ele>
        <time>2018-08-16T13:29:44.000Z</time>
      </trkpt>
      <trkpt lat="44.73283" lon="5.44744">
        <ele>1010.5</ele>
        <time>2018-08-16T13:29:54.000Z</time>
      </trkpt>
      <trkpt lat="44.73289" lon="5.44734">
        <ele>1005.77</ele>
        <time>2018-08-16T13:30:09.000Z</time>
      </trkpt>
      <trkpt lat="44.73287" lon="5.44721">
        <ele>998.81</ele>
        <time>2018-08-16T13:30:22.000Z</time>
      </trkpt>
      <trkpt lat="44.73277" lon="5.44726">
        <ele>999.98</ele>
        <time>2018-08-16T13:30:50.000Z</time>
      </trkpt>
      <trkpt lat="44.73265" lon="5.44726">
        <ele>997.85</ele>
        <time>2018-08-16T13:31:31.000Z</time>
      </trkpt>
      <trkpt lat="44.73253" lon="5.44722">
        <ele>993.29</ele>
        <time>2018-08-16T13:31:41.000Z</time>
      </trkpt>
      <trkpt lat="44.73244" lon="5.44728">
        <ele>993.76</ele>
        <time>2018-08-16T13:31:55.000Z</time>
      </trkpt>
      <trkpt lat="44.73234" lon="5.44733">
        <ele>993.07</ele>
        <time>2018-08-16T13:32:05.000Z</time>
      </trkpt>
      <trkpt lat="44.73224" lon="5.44733">
        <ele>989.6</ele>
        <time>2018-08-16T13:32:20.000Z</time>
      </trkpt>
      <trkpt lat="44.73216" lon="5.44737">
        <ele>987.64</ele>
        <time>2018-08-16T13:32:32.000Z</time>
      </trkpt>
      <trkpt lat="44.73206" lon="5.44738">
        <ele>983.24</ele>
        <time>2018-08-16T13:33:04.000Z</time>
      </trkpt>
      <trkpt lat="44.73198" lon="5.44744">
        <ele>982.03</ele>
        <time>2018-08-16T13:33:14.000Z</time>
      </trkpt>
      <trkpt lat="44.73185" lon="5.44745">
        <ele>975.96</ele>
        <time>2018-08-16T13:33:24.000Z</time>
      </trkpt>
      <trkpt lat="44.73189" lon="5.44733">
        <ele>972.98</ele>
        <time>2018-08-16T13:33:53.000Z</time>
      </trkpt>
      <trkpt lat="44.73196" lon="5.44724">
        <ele>973.05</ele>
        <time>2018-08-16T13:34:18.000Z</time>
      </trkpt>
      <trkpt lat="44.73199" lon="5.44711">
        <ele>969.11</ele>
        <time>2018-08-16T13:34:29.000Z</time>
      </trkpt>
      <trkpt lat="44.73204" lon="5.44701">
        <ele>967.2</ele>
        <time>2018-08-16T13:34:42.000Z</time>
      </trkpt>
      <trkpt lat="44.73194" lon="5.447">
        <ele>962.62</ele>
        <time>2018-08-16T13:35:31.000Z</time>
      </trkpt>
      <trkpt lat="44.73184" lon="5.44698">
        <ele>957.13</ele>
        <time>2018-08-16T13:35:41.000Z</time>
      </trkpt>
      <trkpt lat="44.73175" lon="5.44696">
        <ele>952.43</ele>
        <time>2018-08-16T13:35:52.000Z</time>
      </trkpt>
      <trkpt lat="44.73183" lon="5.44688">
        <ele>952.77</ele>
        <time>2018-08-16T13:36:22.000Z</time>
      </trkpt>
      <trkpt lat="44.7319" lon="5.4468">
        <ele>952.6</ele>
        <time>2018-08-16T13:36:39.000Z</time>
      </trkpt>
      <trkpt lat="44.73199" lon="5.44673">
        <ele>952.9</ele>
        <time>2018-08-16T13:36:55.000Z</time>
      </trkpt>
      <trkpt lat="44.73205" lon="5.44664">
        <ele>951.37</ele>
        <time>2018-08-16T13:37:10.000Z</time>
      </trkpt>
      <trkpt lat="44.7321" lon="5.44652">
        <ele>947.23</ele>
        <time>2018-08-16T13:37:48.000Z</time>
      </trkpt>
      <trkpt lat="44.73214" lon="5.44636">
        <ele>940.48</ele>
        <time>2018-08-16T13:37:58.000Z</time>
      </trkpt>
      <trkpt lat="44.73221" lon="5.44623">
        <ele>935.75</ele>
        <time>2018-08-16T13:38:30.000Z</time>
      </trkpt>
      <trkpt lat="44.73226" lon="5.44612">
        <ele>931.27</ele>
        <time>2018-08-16T13:38:40.000Z</time>
      </trkpt>
      <trkpt lat="44.73234" lon="5.44606">
        <ele>930.52</ele>
        <time>2018-08-16T13:38:54.000Z</time>
      </trkpt>
      <trkpt lat="44.7324" lon="5.44595">
        <ele>926.9</ele>
        <time>2018-08-16T13:39:11.000Z</time>
      </trkpt>
      <trkpt lat="44.73245" lon="5.44583">
        <ele>922.85</ele>
        <time>2018-08-16T13:39:42.000Z</time>
      </trkpt>
      <trkpt lat="44.73249" lon="5.44571">
        <ele>919.09</ele>
        <time>2018-08-16T13:40:00.000Z</time>
      </trkpt>
      <trkpt lat="44.73245" lon="5.4456">
        <ele>914.04</ele>
        <time>2018-08-16T13:40:18.000Z</time>
      </trkpt>
      <trkpt lat="44.73246" lon="5.44547">
        <ele>909.89</ele>
        <time>2018-08-16T13:40:34.000Z</time>
      </trkpt>
      <trkpt lat="44.73251" lon="5.44536">
        <ele>907.66</ele>
        <time>2018-08-16T13:47:44.000Z</time>
      </trkpt>
      <trkpt lat="44.7326" lon="5.44507">
        <ele>901.95</ele>
        <time>2018-08-16T13:47:54.000Z</time>
      </trkpt>
      <trkpt lat="44.73263" lon="5.44491">
        <ele>899.38</ele>
        <time>2018-08-16T13:48:04.000Z</time>
      </trkpt>
      <trkpt lat="44.73265" lon="5.44475">
        <ele>897.56</ele>
        <time>2018-08-16T13:48:14.000Z</time>
      </trkpt>
      <trkpt lat="44.73277" lon="5.44469">
        <ele>897.77</ele>
        <time>2018-08-16T13:48:24.000Z</time>
      </trkpt>
      <trkpt lat="44.73285" lon="5.44461">
        <ele>897.43</ele>
        <time>2018-08-16T13:48:34.000Z</time>
      </trkpt>
      <trkpt lat="44.73283" lon="5.44447">
        <ele>897.27</ele>
        <time>2018-08-16T13:48:50.000Z</time>
      </trkpt>
      <trkpt lat="44.73283" lon="5.44461">
        <ele>897.46</ele>
        <time>2018-08-16T13:49:01.000Z</time>
      </trkpt>
      <trkpt lat="44.73285" lon="5.44474">
        <ele>897.93</ele>
        <time>2018-08-16T13:49:11.000Z</time>
      </trkpt>
      <trkpt lat="44.7329" lon="5.44487">
        <ele>898.66</ele>
        <time>2018-08-16T13:49:21.000Z</time>
      </trkpt>
      <trkpt lat="44.73298" lon="5.44499">
        <ele>899.32</ele>
        <time>2018-08-16T13:49:31.000Z</time>
      </trkpt>
      <trkpt lat="44.73304" lon="5.44511">
        <ele>901.05</ele>
        <time>2018-08-16T13:49:41.000Z</time>
      </trkpt>
      <trkpt lat="44.73308" lon="5.44523">
        <ele>903.59</ele>
        <time>2018-08-16T13:49:52.000Z</time>
      </trkpt>
      <trkpt lat="44.73313" lon="5.44536">
        <ele>907.57</ele>
        <time>2018-08-16T13:50:02.000Z</time>
      </trkpt>
      <trkpt lat="44.73321" lon="5.44547">
        <ele>910.65</ele>
        <time>2018-08-16T13:50:18.000Z</time>
      </trkpt>
      <trkpt lat="44.73325" lon="5.4456">
        <ele>915.83</ele>
        <time>2018-08-16T13:50:30.000Z</time>
      </trkpt>
      <trkpt lat="44.73334" lon="5.44567">
        <ele>917.23</ele>
        <time>2018-08-16T13:50:43.000Z</time>
      </trkpt>
      <trkpt lat="44.73343" lon="5.44576">
        <ele>919.54</ele>
        <time>2018-08-16T13:50:53.000Z</time>
      </trkpt>
      <trkpt lat="44.73352" lon="5.44586">
        <ele>920.66</ele>
        <time>2018-08-16T13:51:03.000Z</time>
      </trkpt>
      <trkpt lat="44.73365" lon="5.44594">
        <ele>919.38</ele>
        <time>2018-08-16T13:51:13.000Z</time>
      </trkpt>
      <trkpt lat="44.73374" lon="5.446">
        <ele>917.79</ele>
        <time>2018-08-16T13:51:38.000Z</time>
      </trkpt>
      <trkpt lat="44.73381" lon="5.44608">
        <ele>918.2</ele>
        <time>2018-08-16T13:51:51.000Z</time>
      </trkpt>
      <trkpt lat="44.73389" lon="5.44615">
        <ele>917.42</ele>
        <time>2018-08-16T13:52:03.000Z</time>
      </trkpt>
      <trkpt lat="44.73396" lon="5.44627">
        <ele>919.12</ele>
        <time>2018-08-16T13:52:16.000Z</time>
      </trkpt>
      <trkpt lat="44.7341" lon="5.44646">
        <ele>921.05</ele>
        <time>2018-08-16T13:52:26.000Z</time>
      </trkpt>
      <trkpt lat="44.73414" lon="5.44663">
        <ele>926.53</ele>
        <time>2018-08-16T13:52:36.000Z</time>
      </trkpt>
      <trkpt lat="44.73422" lon="5.44678">
        <ele>929.49</ele>
        <time>2018-08-16T13:52:46.000Z</time>
      </trkpt>
      <trkpt lat="44.73427" lon="5.44689">
        <ele>931.47</ele>
        <time>2018-08-16T13:52:59.000Z</time>
      </trkpt>
      <trkpt lat="44.73433" lon="5.44703">
        <ele>934.05</ele>
        <time>2018-08-16T13:53:09.000Z</time>
      </trkpt>
      <trkpt lat="44.73443" lon="5.44717">
        <ele>934.38</ele>
        <time>2018-08-16T13:53:19.000Z</time>
      </trkpt>
      <trkpt lat="44.73453" lon="5.44724">
        <ele>931.13</ele>
        <time>2018-08-16T13:53:29.000Z</time>
      </trkpt>
      <trkpt lat="44.73457" lon="5.44745">
        <ele>936.97</ele>
        <time>2018-08-16T13:53:39.000Z</time>
      </trkpt>
      <trkpt lat="44.73462" lon="5.44758">
        <ele>939.19</ele>
        <time>2018-08-16T13:53:53.000Z</time>
      </trkpt>
      <trkpt lat="44.73472" lon="5.44762">
        <ele>933.96</ele>
        <time>2018-08-16T13:54:05.000Z</time>
      </trkpt>
      <trkpt lat="44.73469" lon="5.44781">
        <ele>943.04</ele>
        <time>2018-08-16T13:54:15.000Z</time>
      </trkpt>
      <trkpt lat="44.73474" lon="5.44794">
        <ele>944.65</ele>
        <time>2018-08-16T13:54:25.000Z</time>
      </trkpt>
      <trkpt lat="44.73481" lon="5.44803">
        <ele>943.35</ele>
        <time>2018-08-16T13:54:39.000Z</time>
      </trkpt>
      <trkpt lat="44.73487" lon="5.44816">
        <ele>944.15</ele>
        <time>2018-08-16T13:55:12.000Z</time>
      </trkpt>
      <trkpt lat="44.73495" lon="5.44843">
        <ele>947.61</ele>
        <time>2018-08-16T13:55:22.000Z</time>
      </trkpt>
      <trkpt lat="44.73499" lon="5.44855">
        <ele>948.94</ele>
        <time>2018-08-16T13:55:32.000Z</time>
      </trkpt>
      <trkpt lat="44.73503" lon="5.44869">
        <ele>951.14</ele>
        <time>2018-08-16T13:55:42.000Z</time>
      </trkpt>
      <trkpt lat="44.73507" lon="5.44887">
        <ele>953.22</ele>
        <time>2018-08-16T13:55:52.000Z</time>
      </trkpt>
      <trkpt lat="44.73501" lon="5.44899">
        <ele>963.2</ele>
        <time>2018-08-16T13:56:02.000Z</time>
      </trkpt>
      <trkpt lat="44.7351" lon="5.44907">
        <ele>956.67</ele>
        <time>2018-08-16T13:56:26.000Z</time>
      </trkpt>
      <trkpt lat="44.73519" lon="5.44918">
        <ele>951.13</ele>
        <time>2018-08-16T13:56:36.000Z</time>
      </trkpt>
      <trkpt lat="44.73522" lon="5.44938">
        <ele>952.41</ele>
        <time>2018-08-16T13:57:14.000Z</time>
      </trkpt>
      <trkpt lat="44.73524" lon="5.44959">
        <ele>955.79</ele>
        <time>2018-08-16T13:57:24.000Z</time>
      </trkpt>
      <trkpt lat="44.73528" lon="5.44982">
        <ele>956.83</ele>
        <time>2018-08-16T13:57:34.000Z</time>
      </trkpt>
      <trkpt lat="44.73526" lon="5.44996">
        <ele>961.96</ele>
        <time>2018-08-16T13:57:44.000Z</time>
      </trkpt>
      <trkpt lat="44.73524" lon="5.45009">
        <ele>968.9</ele>
        <time>2018-08-16T13:57:54.000Z</time>
      </trkpt>
      <trkpt lat="44.73532" lon="5.45019">
        <ele>961.3</ele>
        <time>2018-08-16T13:58:04.000Z</time>
      </trkpt>
      <trkpt lat="44.73532" lon="5.45032">
        <ele>965.01</ele>
        <time>2018-08-16T13:58:16.000Z</time>
      </trkpt>
      <trkpt lat="44.73532" lon="5.45046">
        <ele>969.76</ele>
        <time>2018-08-16T13:58:29.000Z</time>
      </trkpt>
      <trkpt lat="44.73541" lon="5.45049">
        <ele>961.01</ele>
        <time>2018-08-16T13:58:41.000Z</time>
      </trkpt>
      <trkpt lat="44.73544" lon="5.45065">
        <ele>964.2</ele>
        <time>2018-08-16T13:58:51.000Z</time>
      </trkpt>
      <trkpt lat="44.73552" lon="5.45074">
        <ele>961.85</ele>
        <time>2018-08-16T13:59:23.000Z</time>
      </trkpt>
      <trkpt lat="44.73559" lon="5.45093">
        <ele>966.8</ele>
        <time>2018-08-16T13:59:33.000Z</time>
      </trkpt>
      <trkpt lat="44.73572" lon="5.45093">
        <ele>960.06</ele>
        <time>2018-08-16T13:59:43.000Z</time>
      </trkpt>
      <trkpt lat="44.73578" lon="5.45103">
        <ele>964.34</ele>
        <time>2018-08-16T13:59:56.000Z</time>
      </trkpt>
      <trkpt lat="44.73587" lon="5.45114">
        <ele>970.34</ele>
        <time>2018-08-16T14:00:06.000Z</time>
      </trkpt>
      <trkpt lat="44.73598" lon="5.4512">
        <ele>975.78</ele>
        <time>2018-08-16T14:00:16.000Z</time>
      </trkpt>
      <trkpt lat="44.73605" lon="5.4513">
        <ele>985.04</ele>
        <time>2018-08-16T14:00:34.000Z</time>
      </trkpt>
      <trkpt lat="44.73614" lon="5.45125">
        <ele>985.4</ele>
        <time>2018-08-16T14:01:03.000Z</time>
      </trkpt>
      <trkpt lat="44.73616" lon="5.45111">
        <ele>975.17</ele>
        <time>2018-08-16T14:01:14.000Z</time>
      </trkpt>
      <trkpt lat="44.73619" lon="5.45097">
        <ele>965.64</ele>
        <time>2018-08-16T14:01:24.000Z</time>
      </trkpt>
      <trkpt lat="44.73625" lon="5.45085">
        <ele>959.1</ele>
        <time>2018-08-16T14:01:34.000Z</time>
      </trkpt>
      <trkpt lat="44.73632" lon="5.45093">
        <ele>968.68</ele>
        <time>2018-08-16T14:01:52.000Z</time>
      </trkpt>
      <trkpt lat="44.73638" lon="5.45107">
        <ele>982.81</ele>
        <time>2018-08-16T14:02:02.000Z</time>
      </trkpt>
      <trkpt lat="44.73628" lon="5.45108">
        <ele>979.07</ele>
        <time>2018-08-16T14:02:17.000Z</time>
      </trkpt>
      <trkpt lat="44.73637" lon="5.45115">
        <ele>989.6</ele>
        <time>2018-08-16T14:02:50.000Z</time>
      </trkpt>
      <trkpt lat="44.7365" lon="5.45113">
        <ele>993.45</ele>
        <time>2018-08-16T14:03:00.000Z</time>
      </trkpt>
      <trkpt lat="44.73657" lon="5.45104">
        <ele>987.55</ele>
        <time>2018-08-16T14:03:15.000Z</time>
      </trkpt>
      <trkpt lat="44.73665" lon="5.45109">
        <ele>993.66</ele>
        <time>2018-08-16T14:03:29.000Z</time>
      </trkpt>
      <trkpt lat="44.73674" lon="5.45109">
        <ele>994.08</ele>
        <time>2018-08-16T14:03:54.000Z</time>
      </trkpt>
      <trkpt lat="44.73687" lon="5.45106">
        <ele>989.48</ele>
        <time>2018-08-16T14:04:04.000Z</time>
      </trkpt>
      <trkpt lat="44.73695" lon="5.451">
        <ele>982.05</ele>
        <time>2018-08-16T14:04:14.000Z</time>
      </trkpt>
      <trkpt lat="44.73703" lon="5.45092">
        <ele>974.38</ele>
        <time>2018-08-16T14:04:24.000Z</time>
      </trkpt>
      <trkpt lat="44.73713" lon="5.45104">
        <ele>979.75</ele>
        <time>2018-08-16T14:04:34.000Z</time>
      </trkpt>
      <trkpt lat="44.73725" lon="5.45105">
        <ele>977.35</ele>
        <time>2018-08-16T14:04:44.000Z</time>
      </trkpt>
      <trkpt lat="44.73733" lon="5.45116">
        <ele>983.56</ele>
        <time>2018-08-16T14:04:54.000Z</time>
      </trkpt>
      <trkpt lat="44.73743" lon="5.45124">
        <ele>988.6</ele>
        <time>2018-08-16T14:05:04.000Z</time>
      </trkpt>
      <trkpt lat="44.7375" lon="5.45131">
        <ele>994.86</ele>
        <time>2018-08-16T14:05:19.000Z</time>
      </trkpt>
      <trkpt lat="44.7376" lon="5.45129">
        <ele>995.76</ele>
        <time>2018-08-16T14:05:36.000Z</time>
      </trkpt>
      <trkpt lat="44.73771" lon="5.45137">
        <ele>1003.89</ele>
        <time>2018-08-16T14:05:46.000Z</time>
      </trkpt>
      <trkpt lat="44.73783" lon="5.45133">
        <ele>1006.68</ele>
        <time>2018-08-16T14:05:56.000Z</time>
      </trkpt>
      <trkpt lat="44.73791" lon="5.45129">
        <ele>1010.33</ele>
        <time>2018-08-16T14:06:06.000Z</time>
      </trkpt>
      <trkpt lat="44.73782" lon="5.45127">
        <ele>1004.46</ele>
        <time>2018-08-16T14:06:38.000Z</time>
      </trkpt>
      <trkpt lat="44.73783" lon="5.45109">
        <ele>1000.79</ele>
        <time>2018-08-16T14:06:48.000Z</time>
      </trkpt>
      <trkpt lat="44.73786" lon="5.45094">
        <ele>1001.72</ele>
        <time>2018-08-16T14:06:58.000Z</time>
      </trkpt>
      <trkpt lat="44.73787" lon="5.45077">
        <ele>1002.04</ele>
        <time>2018-08-16T14:07:08.000Z</time>
      </trkpt>
      <trkpt lat="44.73786" lon="5.45062">
        <ele>1003.95</ele>
        <time>2018-08-16T14:07:18.000Z</time>
      </trkpt>
      <trkpt lat="44.73794" lon="5.45055">
        <ele>1014.41</ele>
        <time>2018-08-16T14:07:28.000Z</time>
      </trkpt>
      <trkpt lat="44.73789" lon="5.45044">
        <ele>1011.33</ele>
        <time>2018-08-16T14:07:43.000Z</time>
      </trkpt>
      <trkpt lat="44.7379" lon="5.4503">
        <ele>1016.57</ele>
        <time>2018-08-16T14:07:53.000Z</time>
      </trkpt>
      <trkpt lat="44.73787" lon="5.45011">
        <ele>1017.07</ele>
        <time>2018-08-16T14:08:03.000Z</time>
      </trkpt>
      <trkpt lat="44.73781" lon="5.44996">
        <ele>1012.39</ele>
        <time>2018-08-16T14:08:13.000Z</time>
      </trkpt>
      <trkpt lat="44.73775" lon="5.44982">
        <ele>1007.05</ele>
        <time>2018-08-16T14:08:23.000Z</time>
      </trkpt>
      <trkpt lat="44.7378" lon="5.44971">
        <ele>1009.21</ele>
        <time>2018-08-16T14:08:39.000Z</time>
      </trkpt>
      <trkpt lat="44.7379" lon="5.44971">
        <ele>1016.32</ele>
        <time>2018-08-16T14:08:49.000Z</time>
      </trkpt>
      <trkpt lat="44.73799" lon="5.44966">
        <ele>1021.13</ele>
        <time>2018-08-16T14:09:01.000Z</time>
      </trkpt>
      <trkpt lat="44.73807" lon="5.4496">
        <ele>1024.78</ele>
        <time>2018-08-16T14:09:11.000Z</time>
      </trkpt>
      <trkpt lat="44.73814" lon="5.44948">
        <ele>1025.34</ele>
        <time>2018-08-16T14:09:24.000Z</time>
      </trkpt>
      <trkpt lat="44.73813" lon="5.44935">
        <ele>1019.95</ele>
        <time>2018-08-16T14:09:35.000Z</time>
      </trkpt>
      <trkpt lat="44.73811" lon="5.44918">
        <ele>1013.36</ele>
        <time>2018-08-16T14:09:45.000Z</time>
      </trkpt>
      <trkpt lat="44.73818" lon="5.4491">
        <ele>1015.24</ele>
        <time>2018-08-16T14:09:55.000Z</time>
      </trkpt>
      <trkpt lat="44.73827" lon="5.44901">
        <ele>1018.5</ele>
        <time>2018-08-16T14:10:05.000Z</time>
      </trkpt>
      <trkpt lat="44.73832" lon="5.4489">
        <ele>1018.89</ele>
        <time>2018-08-16T14:10:18.000Z</time>
      </trkpt>
      <trkpt lat="44.73838" lon="5.44881">
        <ele>1021.02</ele>
        <time>2018-08-16T14:10:28.000Z</time>
      </trkpt>
      <trkpt lat="44.73845" lon="5.44871">
        <ele>1022.94</ele>
        <time>2018-08-16T14:10:40.000Z</time>
      </trkpt>
      <trkpt lat="44.73849" lon="5.4486">
        <ele>1022.44</ele>
        <time>2018-08-16T14:10:50.000Z</time>
      </trkpt>
      <trkpt lat="44.7385" lon="5.44845">
        <ele>1018.38</ele>
        <time>2018-08-16T14:11:00.000Z</time>
      </trkpt>
      <trkpt lat="44.73856" lon="5.44831">
        <ele>1017.47</ele>
        <time>2018-08-16T14:11:10.000Z</time>
      </trkpt>
      <trkpt lat="44.73863" lon="5.44822">
        <ele>1017.85</ele>
        <time>2018-08-16T14:11:22.000Z</time>
      </trkpt>
      <trkpt lat="44.73873" lon="5.44815">
        <ele>1020</ele>
        <time>2018-08-16T14:11:32.000Z</time>
      </trkpt>
      <trkpt lat="44.73882" lon="5.44814">
        <ele>1023.56</ele>
        <time>2018-08-16T14:11:42.000Z</time>
      </trkpt>
      <trkpt lat="44.73892" lon="5.4482">
        <ele>1030.06</ele>
        <time>2018-08-16T14:11:52.000Z</time>
      </trkpt>
      <trkpt lat="44.73902" lon="5.44819">
        <ele>1034.37</ele>
        <time>2018-08-16T14:12:03.000Z</time>
      </trkpt>
      <trkpt lat="44.73911" lon="5.44816">
        <ele>1038.41</ele>
        <time>2018-08-16T14:12:13.000Z</time>
      </trkpt>
      <trkpt lat="44.7392" lon="5.44803">
        <ele>1039.29</ele>
        <time>2018-08-16T14:12:23.000Z</time>
      </trkpt>
      <trkpt lat="44.73922" lon="5.4479">
        <ele>1037.48</ele>
        <time>2018-08-16T14:12:39.000Z</time>
      </trkpt>
      <trkpt lat="44.73932" lon="5.44779">
        <ele>1041.12</ele>
        <time>2018-08-16T14:12:49.000Z</time>
      </trkpt>
      <trkpt lat="44.73935" lon="5.44765">
        <ele>1041.13</ele>
        <time>2018-08-16T14:13:10.000Z</time>
      </trkpt>
      <trkpt lat="44.73938" lon="5.4475">
        <ele>1041.04</ele>
        <time>2018-08-16T14:13:20.000Z</time>
      </trkpt>
      <trkpt lat="44.73942" lon="5.44733">
        <ele>1041.98</ele>
        <time>2018-08-16T14:13:30.000Z</time>
      </trkpt>
      <trkpt lat="44.73945" lon="5.4472">
        <ele>1043.7</ele>
        <time>2018-08-16T14:13:40.000Z</time>
      </trkpt>
      <trkpt lat="44.73947" lon="5.44704">
        <ele>1043.79</ele>
        <time>2018-08-16T14:13:50.000Z</time>
      </trkpt>
      <trkpt lat="44.7395" lon="5.44691">
        <ele>1045.49</ele>
        <time>2018-08-16T14:14:01.000Z</time>
      </trkpt>
      <trkpt lat="44.73951" lon="5.44677">
        <ele>1044.65</ele>
        <time>2018-08-16T14:14:12.000Z</time>
      </trkpt>
      <trkpt lat="44.73952" lon="5.44663">
        <ele>1043.16</ele>
        <time>2018-08-16T14:14:22.000Z</time>
      </trkpt>
      <trkpt lat="44.73957" lon="5.44649">
        <ele>1042.94</ele>
        <time>2018-08-16T14:14:44.000Z</time>
      </trkpt>
      <trkpt lat="44.73962" lon="5.4463">
        <ele>1038.51</ele>
        <time>2018-08-16T14:14:54.000Z</time>
      </trkpt>
      <trkpt lat="44.7397" lon="5.44622">
        <ele>1040.27</ele>
        <time>2018-08-16T14:15:07.000Z</time>
      </trkpt>
      <trkpt lat="44.7398" lon="5.4462">
        <ele>1045.6</ele>
        <time>2018-08-16T14:15:23.000Z</time>
      </trkpt>
      <trkpt lat="44.73988" lon="5.44613">
        <ele>1047.74</ele>
        <time>2018-08-16T14:15:33.000Z</time>
      </trkpt>
      <trkpt lat="44.73995" lon="5.44599">
        <ele>1046.15</ele>
        <time>2018-08-16T14:15:43.000Z</time>
      </trkpt>
      <trkpt lat="44.74004" lon="5.44593">
        <ele>1050.46</ele>
        <time>2018-08-16T14:16:00.000Z</time>
      </trkpt>
      <trkpt lat="44.74004" lon="5.44579">
        <ele>1048.44</ele>
        <time>2018-08-16T14:16:11.000Z</time>
      </trkpt>
      <trkpt lat="44.74005" lon="5.44566">
        <ele>1050.52</ele>
        <time>2018-08-16T14:16:22.000Z</time>
      </trkpt>
      <trkpt lat="44.74008" lon="5.4455">
        <ele>1057.72</ele>
        <time>2018-08-16T14:16:32.000Z</time>
      </trkpt>
      <trkpt lat="44.74008" lon="5.44537">
        <ele>1063.08</ele>
        <time>2018-08-16T14:16:44.000Z</time>
      </trkpt>
      <trkpt lat="44.74009" lon="5.44523">
        <ele>1068.55</ele>
        <time>2018-08-16T14:16:54.000Z</time>
      </trkpt>
      <trkpt lat="44.73998" lon="5.44508">
        <ele>1063.73</ele>
        <time>2018-08-16T14:17:04.000Z</time>
      </trkpt>
      <trkpt lat="44.73987" lon="5.44501">
        <ele>1055.86</ele>
        <time>2018-08-16T14:17:14.000Z</time>
      </trkpt>
      <trkpt lat="44.73981" lon="5.44489">
        <ele>1051.07</ele>
        <time>2018-08-16T14:17:24.000Z</time>
      </trkpt>
      <trkpt lat="44.73976" lon="5.44477">
        <ele>1045.62</ele>
        <time>2018-08-16T14:18:34.000Z</time>
      </trkpt>
      <trkpt lat="44.73974" lon="5.44464">
        <ele>1042.33</ele>
        <time>2018-08-16T14:18:44.000Z</time>
      </trkpt>
      <trkpt lat="44.7398" lon="5.44448">
        <ele>1043.59</ele>
        <time>2018-08-16T14:18:54.000Z</time>
      </trkpt>
      <trkpt lat="44.73989" lon="5.44443">
        <ele>1048.1</ele>
        <time>2018-08-16T14:19:11.000Z</time>
      </trkpt>
      <trkpt lat="44.73999" lon="5.44442">
        <ele>1054.57</ele>
        <time>2018-08-16T14:19:21.000Z</time>
      </trkpt>
      <trkpt lat="44.74009" lon="5.44437">
        <ele>1060.24</ele>
        <time>2018-08-16T14:19:31.000Z</time>
      </trkpt>
      <trkpt lat="44.74019" lon="5.4443">
        <ele>1064.87</ele>
        <time>2018-08-16T14:19:41.000Z</time>
      </trkpt>
      <trkpt lat="44.74026" lon="5.44415">
        <ele>1064.99</ele>
        <time>2018-08-16T14:19:51.000Z</time>
      </trkpt>
      <trkpt lat="44.7403" lon="5.44403">
        <ele>1064.22</ele>
        <time>2018-08-16T14:20:01.000Z</time>
      </trkpt>
      <trkpt lat="44.74035" lon="5.44389">
        <ele>1061.88</ele>
        <time>2018-08-16T14:20:11.000Z</time>
      </trkpt>
      <trkpt lat="44.74042" lon="5.44379">
        <ele>1062.34</ele>
        <time>2018-08-16T14:20:21.000Z</time>
      </trkpt>
      <trkpt lat="44.74049" lon="5.44368">
        <ele>1062.2</ele>
        <time>2018-08-16T14:20:31.000Z</time>
      </trkpt>
      <trkpt lat="44.74058" lon="5.44359">
        <ele>1064.13</ele>
        <time>2018-08-16T14:20:41.000Z</time>
      </trkpt>
      <trkpt lat="44.74067" lon="5.44357">
        <ele>1068.49</ele>
        <time>2018-08-16T14:20:53.000Z</time>
      </trkpt>
      <trkpt lat="44.74076" lon="5.44348">
        <ele>1068.61</ele>
        <time>2018-08-16T14:21:03.000Z</time>
      </trkpt>
      <trkpt lat="44.74082" lon="5.44338">
        <ele>1067.18</ele>
        <time>2018-08-16T14:21:13.000Z</time>
      </trkpt>
      <trkpt lat="44.7409" lon="5.44324">
        <ele>1064.88</ele>
        <time>2018-08-16T14:21:23.000Z</time>
      </trkpt>
      <trkpt lat="44.74094" lon="5.44313">
        <ele>1063.1</ele>
        <time>2018-08-16T14:21:33.000Z</time>
      </trkpt>
      <trkpt lat="44.74096" lon="5.44299">
        <ele>1060.29</ele>
        <time>2018-08-16T14:21:44.000Z</time>
      </trkpt>
      <trkpt lat="44.74097" lon="5.4428">
        <ele>1056.48</ele>
        <time>2018-08-16T14:21:54.000Z</time>
      </trkpt>
      <trkpt lat="44.74097" lon="5.44267">
        <ele>1054.01</ele>
        <time>2018-08-16T14:22:06.000Z</time>
      </trkpt>
      <trkpt lat="44.74101" lon="5.44253">
        <ele>1052.29</ele>
        <time>2018-08-16T14:22:16.000Z</time>
      </trkpt>
      <trkpt lat="44.74102" lon="5.44237">
        <ele>1049.68</ele>
        <time>2018-08-16T14:22:26.000Z</time>
      </trkpt>
      <trkpt lat="44.74104" lon="5.44224">
        <ele>1048.53</ele>
        <time>2018-08-16T14:22:37.000Z</time>
      </trkpt>
      <trkpt lat="44.74112" lon="5.44216">
        <ele>1048.8</ele>
        <time>2018-08-16T14:22:47.000Z</time>
      </trkpt>
      <trkpt lat="44.74123" lon="5.44217">
        <ele>1049.31</ele>
        <time>2018-08-16T14:22:58.000Z</time>
      </trkpt>
      <trkpt lat="44.74134" lon="5.4422">
        <ele>1048.85</ele>
        <time>2018-08-16T14:23:15.000Z</time>
      </trkpt>
      <trkpt lat="44.74144" lon="5.44226">
        <ele>1047.59</ele>
        <time>2018-08-16T14:23:26.000Z</time>
      </trkpt>
      <trkpt lat="44.74147" lon="5.44239">
        <ele>1048.29</ele>
        <time>2018-08-16T14:23:36.000Z</time>
      </trkpt>
      <trkpt lat="44.74154" lon="5.44253">
        <ele>1048.28</ele>
        <time>2018-08-16T14:23:46.000Z</time>
      </trkpt>
      <trkpt lat="44.74163" lon="5.44267">
        <ele>1047.87</ele>
        <time>2018-08-16T14:23:56.000Z</time>
      </trkpt>
      <trkpt lat="44.74171" lon="5.44275">
        <ele>1045.67</ele>
        <time>2018-08-16T14:24:07.000Z</time>
      </trkpt>
      <trkpt lat="44.74181" lon="5.44291">
        <ele>1043.41</ele>
        <time>2018-08-16T14:24:17.000Z</time>
      </trkpt>
      <trkpt lat="44.74189" lon="5.44303">
        <ele>1040.98</ele>
        <time>2018-08-16T14:24:27.000Z</time>
      </trkpt>
      <trkpt lat="44.74202" lon="5.44311">
        <ele>1032.5</ele>
        <time>2018-08-16T14:24:37.000Z</time>
      </trkpt>
      <trkpt lat="44.74208" lon="5.44322">
        <ele>1030.24</ele>
        <time>2018-08-16T14:24:49.000Z</time>
      </trkpt>
      <trkpt lat="44.74216" lon="5.44333">
        <ele>1027.61</ele>
        <time>2018-08-16T14:24:59.000Z</time>
      </trkpt>
      <trkpt lat="44.74222" lon="5.44347">
        <ele>1026.27</ele>
        <time>2018-08-16T14:25:16.000Z</time>
      </trkpt>
      <trkpt lat="44.74225" lon="5.4436">
        <ele>1028.24</ele>
        <time>2018-08-16T14:25:26.000Z</time>
      </trkpt>
      <trkpt lat="44.74232" lon="5.44371">
        <ele>1026.37</ele>
        <time>2018-08-16T14:25:36.000Z</time>
      </trkpt>
      <trkpt lat="44.7424" lon="5.44378">
        <ele>1023.51</ele>
        <time>2018-08-16T14:25:55.000Z</time>
      </trkpt>
      <trkpt lat="44.74257" lon="5.44397">
        <ele>1022.45</ele>
        <time>2018-08-16T14:26:05.000Z</time>
      </trkpt>
      <trkpt lat="44.7427" lon="5.44403">
        <ele>1021.15</ele>
        <time>2018-08-16T14:26:15.000Z</time>
      </trkpt>
      <trkpt lat="44.74279" lon="5.44402">
        <ele>1019.27</ele>
        <time>2018-08-16T14:26:29.000Z</time>
      </trkpt>
      <trkpt lat="44.74289" lon="5.44407">
        <ele>1020.29</ele>
        <time>2018-08-16T14:26:39.000Z</time>
      </trkpt>
      <trkpt lat="44.743" lon="5.44401">
        <ele>1017.85</ele>
        <time>2018-08-16T14:26:49.000Z</time>
      </trkpt>
      <trkpt lat="44.74308" lon="5.44395">
        <ele>1015.42</ele>
        <time>2018-08-16T14:26:59.000Z</time>
      </trkpt>
      <trkpt lat="44.74313" lon="5.44377">
        <ele>1008.99</ele>
        <time>2018-08-16T14:27:09.000Z</time>
      </trkpt>
      <trkpt lat="44.7432" lon="5.44368">
        <ele>1005.49</ele>
        <time>2018-08-16T14:27:34.000Z</time>
      </trkpt>
      <trkpt lat="44.74333" lon="5.44367">
        <ele>1004.54</ele>
        <time>2018-08-16T14:27:44.000Z</time>
      </trkpt>
      <trkpt lat="44.74345" lon="5.44357">
        <ele>999.84</ele>
        <time>2018-08-16T14:27:54.000Z</time>
      </trkpt>
      <trkpt lat="44.7436" lon="5.44358">
        <ele>1000.55</ele>
        <time>2018-08-16T14:28:04.000Z</time>
      </trkpt>
      <trkpt lat="44.74371" lon="5.44354">
        <ele>999.08</ele>
        <time>2018-08-16T14:28:14.000Z</time>
      </trkpt>
      <trkpt lat="44.74381" lon="5.44355">
        <ele>1000.11</ele>
        <time>2018-08-16T14:28:24.000Z</time>
      </trkpt>
      <trkpt lat="44.74392" lon="5.44355">
        <ele>1000.55</ele>
        <time>2018-08-16T14:28:34.000Z</time>
      </trkpt>
      <trkpt lat="44.74404" lon="5.44349">
        <ele>996.19</ele>
        <time>2018-08-16T14:28:44.000Z</time>
      </trkpt>
      <trkpt lat="44.74418" lon="5.44347">
        <ele>994.41</ele>
        <time>2018-08-16T14:28:54.000Z</time>
      </trkpt>
      <trkpt lat="44.74427" lon="5.44335">
        <ele>986.48</ele>
        <time>2018-08-16T14:29:04.000Z</time>
      </trkpt>
      <trkpt lat="44.74435" lon="5.44324">
        <ele>980.49</ele>
        <time>2018-08-16T14:29:14.000Z</time>
      </trkpt>
      <trkpt lat="44.74441" lon="5.44308">
        <ele>973.12</ele>
        <time>2018-08-16T14:29:24.000Z</time>
      </trkpt>
      <trkpt lat="44.74454" lon="5.4431">
        <ele>974.41</ele>
        <time>2018-08-16T14:29:34.000Z</time>
      </trkpt>
      <trkpt lat="44.74462" lon="5.44316">
        <ele>976.89</ele>
        <time>2018-08-16T14:29:46.000Z</time>
      </trkpt>
      <trkpt lat="44.74473" lon="5.44322">
        <ele>978.32</ele>
        <time>2018-08-16T14:29:58.000Z</time>
      </trkpt>
      <trkpt lat="44.7448" lon="5.44338">
        <ele>982.46</ele>
        <time>2018-08-16T14:30:08.000Z</time>
      </trkpt>
      <trkpt lat="44.74486" lon="5.44349">
        <ele>984.19</ele>
        <time>2018-08-16T14:30:22.000Z</time>
      </trkpt>
      <trkpt lat="44.74495" lon="5.4436">
        <ele>982.45</ele>
        <time>2018-08-16T14:30:32.000Z</time>
      </trkpt>
      <trkpt lat="44.74502" lon="5.44369">
        <ele>980.68</ele>
        <time>2018-08-16T14:30:45.000Z</time>
      </trkpt>
      <trkpt lat="44.74518" lon="5.44388">
        <ele>972.44</ele>
        <time>2018-08-16T14:30:55.000Z</time>
      </trkpt>
      <trkpt lat="44.74521" lon="5.44405">
        <ele>972.79</ele>
        <time>2018-08-16T14:31:05.000Z</time>
      </trkpt>
      <trkpt lat="44.74525" lon="5.44419">
        <ele>972.52</ele>
        <time>2018-08-16T14:31:17.000Z</time>
      </trkpt>
      <trkpt lat="44.74532" lon="5.44435">
        <ele>970.89</ele>
        <time>2018-08-16T14:31:27.000Z</time>
      </trkpt>
      <trkpt lat="44.74535" lon="5.44446">
        <ele>971.37</ele>
        <time>2018-08-16T14:31:40.000Z</time>
      </trkpt>
      <trkpt lat="44.74547" lon="5.44443">
        <ele>963.76</ele>
        <time>2018-08-16T14:31:50.000Z</time>
      </trkpt>
      <trkpt lat="44.74541" lon="5.44433">
        <ele>964.44</ele>
        <time>2018-08-16T14:32:22.000Z</time>
      </trkpt>
      <trkpt lat="44.74544" lon="5.44411">
        <ele>955.47</ele>
        <time>2018-08-16T14:32:32.000Z</time>
      </trkpt>
      <trkpt lat="44.74541" lon="5.44397">
        <ele>954.68</ele>
        <time>2018-08-16T14:32:42.000Z</time>
      </trkpt>
      <trkpt lat="44.74539" lon="5.44377">
        <ele>952.08</ele>
        <time>2018-08-16T14:32:52.000Z</time>
      </trkpt>
      <trkpt lat="44.74535" lon="5.44365">
        <ele>953.21</ele>
        <time>2018-08-16T14:33:02.000Z</time>
      </trkpt>
      <trkpt lat="44.7454" lon="5.44354">
        <ele>946.24</ele>
        <time>2018-08-16T14:33:12.000Z</time>
      </trkpt>
      <trkpt lat="44.74545" lon="5.4434">
        <ele>939.24</ele>
        <time>2018-08-16T14:33:22.000Z</time>
      </trkpt>
      <trkpt lat="44.74539" lon="5.44325">
        <ele>941.48</ele>
        <time>2018-08-16T14:33:32.000Z</time>
      </trkpt>
      <trkpt lat="44.74533" lon="5.44315">
        <ele>945.22</ele>
        <time>2018-08-16T14:33:43.000Z</time>
      </trkpt>
      <trkpt lat="44.7453" lon="5.44302">
        <ele>946.04</ele>
        <time>2018-08-16T14:33:54.000Z</time>
      </trkpt>
      <trkpt lat="44.74528" lon="5.44289">
        <ele>944.65</ele>
        <time>2018-08-16T14:34:04.000Z</time>
      </trkpt>
      <trkpt lat="44.74529" lon="5.44276">
        <ele>940.89</ele>
        <time>2018-08-16T14:34:18.000Z</time>
      </trkpt>
      <trkpt lat="44.74531" lon="5.44289">
        <ele>942.33</ele>
        <time>2018-08-16T14:34:37.000Z</time>
      </trkpt>
      <trkpt lat="44.7454" lon="5.44301">
        <ele>937.13</ele>
        <time>2018-08-16T14:34:47.000Z</time>
      </trkpt>
      <trkpt lat="44.74551" lon="5.4431">
        <ele>927.86</ele>
        <time>2018-08-16T14:34:57.000Z</time>
      </trkpt>
      <trkpt lat="44.74555" lon="5.44324">
        <ele>926.08</ele>
        <time>2018-08-16T14:35:07.000Z</time>
      </trkpt>
      <trkpt lat="44.74555" lon="5.44337">
        <ele>928.64</ele>
        <time>2018-08-16T14:35:17.000Z</time>
      </trkpt>
      <trkpt lat="44.74565" lon="5.44348">
        <ele>922.33</ele>
        <time>2018-08-16T14:35:27.000Z</time>
      </trkpt>
      <trkpt lat="44.74572" lon="5.4436">
        <ele>919.01</ele>
        <time>2018-08-16T14:35:37.000Z</time>
      </trkpt>
      <trkpt lat="44.74576" lon="5.44373">
        <ele>920.2</ele>
        <time>2018-08-16T14:35:47.000Z</time>
      </trkpt>
      <trkpt lat="44.74582" lon="5.44385">
        <ele>920.48</ele>
        <time>2018-08-16T14:35:57.000Z</time>
      </trkpt>
      <trkpt lat="44.74578" lon="5.44372">
        <ele>918.53</ele>
        <time>2018-08-16T14:36:58.000Z</time>
      </trkpt>
      <trkpt lat="44.74574" lon="5.44353">
        <ele>916.09</ele>
        <time>2018-08-16T14:37:08.000Z</time>
      </trkpt>
      <trkpt lat="44.74574" lon="5.44336">
        <ele>911.55</ele>
        <time>2018-08-16T14:37:18.000Z</time>
      </trkpt>
      <trkpt lat="44.74576" lon="5.44322">
        <ele>907.73</ele>
        <time>2018-08-16T14:37:28.000Z</time>
      </trkpt>
      <trkpt lat="44.74574" lon="5.44308">
        <ele>907.36</ele>
        <time>2018-08-16T14:37:38.000Z</time>
      </trkpt>
      <trkpt lat="44.74573" lon="5.44294">
        <ele>907.09</ele>
        <time>2018-08-16T14:37:53.000Z</time>
      </trkpt>
      <trkpt lat="44.74568" lon="5.44277">
        <ele>909.46</ele>
        <time>2018-08-16T14:38:03.000Z</time>
      </trkpt>
      <trkpt lat="44.7456" lon="5.44267">
        <ele>914.07</ele>
        <time>2018-08-16T14:38:13.000Z</time>
      </trkpt>
      <trkpt lat="44.74557" lon="5.44241">
        <ele>907.88</ele>
        <time>2018-08-16T14:38:23.000Z</time>
      </trkpt>
      <trkpt lat="44.7455" lon="5.4423">
        <ele>907.08</ele>
        <time>2018-08-16T14:38:54.000Z</time>
      </trkpt>
      <trkpt lat="44.74541" lon="5.44217">
        <ele>904.74</ele>
        <time>2018-08-16T14:39:04.000Z</time>
      </trkpt>
      <trkpt lat="44.7455" lon="5.44215">
        <ele>897.58</ele>
        <time>2018-08-16T14:39:39.000Z</time>
      </trkpt>
      <trkpt lat="44.74558" lon="5.44226">
        <ele>898.39</ele>
        <time>2018-08-16T14:39:49.000Z</time>
      </trkpt>
      <trkpt lat="44.74568" lon="5.44236">
        <ele>896.76</ele>
        <time>2018-08-16T14:39:59.000Z</time>
      </trkpt>
      <trkpt lat="44.74579" lon="5.44235">
        <ele>888.54</ele>
        <time>2018-08-16T14:40:09.000Z</time>
      </trkpt>
      <trkpt lat="44.74588" lon="5.44241">
        <ele>885.17</ele>
        <time>2018-08-16T14:40:20.000Z</time>
      </trkpt>
      <trkpt lat="44.74589" lon="5.44258">
        <ele>890.69</ele>
        <time>2018-08-16T14:40:30.000Z</time>
      </trkpt>
      <trkpt lat="44.74591" lon="5.44272">
        <ele>892.24</ele>
        <time>2018-08-16T14:40:40.000Z</time>
      </trkpt>
      <trkpt lat="44.74602" lon="5.44279">
        <ele>885.63</ele>
        <time>2018-08-16T14:40:50.000Z</time>
      </trkpt>
      <trkpt lat="44.74602" lon="5.44294">
        <ele>887.48</ele>
        <time>2018-08-16T14:41:00.000Z</time>
      </trkpt>
      <trkpt lat="44.74603" lon="5.4428">
        <ele>884.35</ele>
        <time>2018-08-16T14:41:30.000Z</time>
      </trkpt>
      <trkpt lat="44.74606" lon="5.4426">
        <ele>877.99</ele>
        <time>2018-08-16T14:41:40.000Z</time>
      </trkpt>
      <trkpt lat="44.74606" lon="5.44237">
        <ele>870.34</ele>
        <time>2018-08-16T14:41:50.000Z</time>
      </trkpt>
      <trkpt lat="44.746" lon="5.44228">
        <ele>871.24</ele>
        <time>2018-08-16T14:42:00.000Z</time>
      </trkpt>
      <trkpt lat="44.74593" lon="5.44213">
        <ele>868.23</ele>
        <time>2018-08-16T14:42:10.000Z</time>
      </trkpt>
      <trkpt lat="44.74585" lon="5.44207">
        <ele>869.56</ele>
        <time>2018-08-16T14:42:31.000Z</time>
      </trkpt>
      <trkpt lat="44.74578" lon="5.44196">
        <ele>866.67</ele>
        <time>2018-08-16T14:42:44.000Z</time>
      </trkpt>
      <trkpt lat="44.74561" lon="5.44176">
        <ele>864.12</ele>
        <time>2018-08-16T14:42:54.000Z</time>
      </trkpt>
      <trkpt lat="44.74554" lon="5.44158">
        <ele>857.54</ele>
        <time>2018-08-16T14:43:04.000Z</time>
      </trkpt>
      <trkpt lat="44.74559" lon="5.44174">
        <ele>863.87</ele>
        <time>2018-08-16T14:43:26.000Z</time>
      </trkpt>
      <trkpt lat="44.74568" lon="5.44177">
        <ele>860.41</ele>
        <time>2018-08-16T14:43:36.000Z</time>
      </trkpt>
      <trkpt lat="44.74578" lon="5.44179">
        <ele>856.75</ele>
        <time>2018-08-16T14:43:47.000Z</time>
      </trkpt>
      <trkpt lat="44.74589" lon="5.44184">
        <ele>854.04</ele>
        <time>2018-08-16T14:43:57.000Z</time>
      </trkpt>
      <trkpt lat="44.746" lon="5.44191">
        <ele>852.2</ele>
        <time>2018-08-16T14:44:07.000Z</time>
      </trkpt>
      <trkpt lat="44.74604" lon="5.44204">
        <ele>856.89</ele>
        <time>2018-08-16T14:44:17.000Z</time>
      </trkpt>
      <trkpt lat="44.74617" lon="5.44207">
        <ele>850.29</ele>
        <time>2018-08-16T14:44:27.000Z</time>
      </trkpt>
      <trkpt lat="44.74623" lon="5.4422">
        <ele>851.21</ele>
        <time>2018-08-16T14:44:37.000Z</time>
      </trkpt>
      <trkpt lat="44.74627" lon="5.44232">
        <ele>852.19</ele>
        <time>2018-08-16T14:44:52.000Z</time>
      </trkpt>
      <trkpt lat="44.74631" lon="5.44246">
        <ele>853.6</ele>
        <time>2018-08-16T14:45:17.000Z</time>
      </trkpt>
      <trkpt lat="44.74643" lon="5.44269">
        <ele>853.69</ele>
        <time>2018-08-16T14:45:27.000Z</time>
      </trkpt>
      <trkpt lat="44.74649" lon="5.44279">
        <ele>854.4</ele>
        <time>2018-08-16T14:45:37.000Z</time>
      </trkpt>
      <trkpt lat="44.74658" lon="5.44279">
        <ele>849.59</ele>
        <time>2018-08-16T14:45:47.000Z</time>
      </trkpt>
      <trkpt lat="44.74667" lon="5.44278">
        <ele>845.05</ele>
        <time>2018-08-16T14:46:04.000Z</time>
      </trkpt>
      <trkpt lat="44.7468" lon="5.44278">
        <ele>841.16</ele>
        <time>2018-08-16T14:46:14.000Z</time>
      </trkpt>
      <trkpt lat="44.74686" lon="5.44268">
        <ele>834.89</ele>
        <time>2018-08-16T14:46:24.000Z</time>
      </trkpt>
      <trkpt lat="44.74693" lon="5.44259">
        <ele>829.28</ele>
        <time>2018-08-16T14:46:35.000Z</time>
      </trkpt>
      <trkpt lat="44.74702" lon="5.44262">
        <ele>829.32</ele>
        <time>2018-08-16T14:46:45.000Z</time>
      </trkpt>
      <trkpt lat="44.74709" lon="5.44271">
        <ele>833.03</ele>
        <time>2018-08-16T14:46:56.000Z</time>
      </trkpt>
      <trkpt lat="44.7472" lon="5.44281">
        <ele>837.2</ele>
        <time>2018-08-16T14:47:06.000Z</time>
      </trkpt>
      <trkpt lat="44.7473" lon="5.44272">
        <ele>832.73</ele>
        <time>2018-08-16T14:47:16.000Z</time>
      </trkpt>
      <trkpt lat="44.74739" lon="5.44268">
        <ele>831.18</ele>
        <time>2018-08-16T14:47:27.000Z</time>
      </trkpt>
      <trkpt lat="44.74749" lon="5.44264">
        <ele>829.54</ele>
        <time>2018-08-16T14:47:42.000Z</time>
      </trkpt>
      <trkpt lat="44.74747" lon="5.44251">
        <ele>824.16</ele>
        <time>2018-08-16T14:48:08.000Z</time>
      </trkpt>
      <trkpt lat="44.74737" lon="5.44253">
        <ele>825</ele>
        <time>2018-08-16T14:48:21.000Z</time>
      </trkpt>
      <trkpt lat="44.74727" lon="5.44245">
        <ele>821.43</ele>
        <time>2018-08-16T14:48:31.000Z</time>
      </trkpt>
      <trkpt lat="44.74721" lon="5.44229">
        <ele>815.98</ele>
        <time>2018-08-16T14:48:41.000Z</time>
      </trkpt>
      <trkpt lat="44.74712" lon="5.44222">
        <ele>814.4</ele>
        <time>2018-08-16T14:48:51.000Z</time>
      </trkpt>
      <trkpt lat="44.74703" lon="5.44219">
        <ele>815.11</ele>
        <time>2018-08-16T14:49:01.000Z</time>
      </trkpt>
      <trkpt lat="44.74695" lon="5.44227">
        <ele>818.77</ele>
        <time>2018-08-16T14:49:11.000Z</time>
      </trkpt>
      <trkpt lat="44.74689" lon="5.44218">
        <ele>818.14</ele>
        <time>2018-08-16T14:49:35.000Z</time>
      </trkpt>
      <trkpt lat="44.74686" lon="5.4419">
        <ele>814.79</ele>
        <time>2018-08-16T14:49:45.000Z</time>
      </trkpt>
      <trkpt lat="44.74679" lon="5.44177">
        <ele>815.16</ele>
        <time>2018-08-16T14:49:55.000Z</time>
      </trkpt>
      <trkpt lat="44.74676" lon="5.44163">
        <ele>812.87</ele>
        <time>2018-08-16T14:50:18.000Z</time>
      </trkpt>
      <trkpt lat="44.7467" lon="5.44143">
        <ele>807.61</ele>
        <time>2018-08-16T14:50:28.000Z</time>
      </trkpt>
      <trkpt lat="44.74661" lon="5.44134">
        <ele>806.42</ele>
        <time>2018-08-16T14:50:38.000Z</time>
      </trkpt>
      <trkpt lat="44.74652" lon="5.44118">
        <ele>802.03</ele>
        <time>2018-08-16T14:50:48.000Z</time>
      </trkpt>
      <trkpt lat="44.74644" lon="5.4411">
        <ele>800.38</ele>
        <time>2018-08-16T14:51:01.000Z</time>
      </trkpt>
      <trkpt lat="44.74636" lon="5.44101">
        <ele>798.55</ele>
        <time>2018-08-16T14:51:19.000Z</time>
      </trkpt>
      <trkpt lat="44.74627" lon="5.44095">
        <ele>798.34</ele>
        <time>2018-08-16T14:51:29.000Z</time>
      </trkpt>
      <trkpt lat="44.74619" lon="5.44089">
        <ele>798.02</ele>
        <time>2018-08-16T14:51:54.000Z</time>
      </trkpt>
      <trkpt lat="44.74607" lon="5.44073">
        <ele>794.37</ele>
        <time>2018-08-16T14:52:04.000Z</time>
      </trkpt>
      <trkpt lat="44.74598" lon="5.44056">
        <ele>789.99</ele>
        <time>2018-08-16T14:52:14.000Z</time>
      </trkpt>
      <trkpt lat="44.7459" lon="5.44048">
        <ele>788.42</ele>
        <time>2018-08-16T14:52:24.000Z</time>
      </trkpt>
      <trkpt lat="44.7458" lon="5.44033">
        <ele>784.62</ele>
        <time>2018-08-16T14:52:34.000Z</time>
      </trkpt>
      <trkpt lat="44.74571" lon="5.44025">
        <ele>783.17</ele>
        <time>2018-08-16T14:52:45.000Z</time>
      </trkpt>
      <trkpt lat="44.74565" lon="5.44016">
        <ele>780.24</ele>
        <time>2018-08-16T14:52:59.000Z</time>
      </trkpt>
      <trkpt lat="44.74556" lon="5.4401">
        <ele>778.79</ele>
        <time>2018-08-16T14:53:09.000Z</time>
      </trkpt>
      <trkpt lat="44.74544" lon="5.43999">
        <ele>774.72</ele>
        <time>2018-08-16T14:53:19.000Z</time>
      </trkpt>
      <trkpt lat="44.74535" lon="5.43997">
        <ele>774.85</ele>
        <time>2018-08-16T14:53:35.000Z</time>
      </trkpt>
      <trkpt lat="44.74521" lon="5.43999">
        <ele>777.19</ele>
        <time>2018-08-16T14:53:45.000Z</time>
      </trkpt>
      <trkpt lat="44.74514" lon="5.44011">
        <ele>784.45</ele>
        <time>2018-08-16T14:53:55.000Z</time>
      </trkpt>
      <trkpt lat="44.74501" lon="5.44006">
        <ele>783.34</ele>
        <time>2018-08-16T14:54:05.000Z</time>
      </trkpt>
      <trkpt lat="44.74492" lon="5.44">
        <ele>780.88</ele>
        <time>2018-08-16T14:54:17.000Z</time>
      </trkpt>
      <trkpt lat="44.74481" lon="5.43992">
        <ele>777.35</ele>
        <time>2018-08-16T14:54:27.000Z</time>
      </trkpt>
      <trkpt lat="44.74487" lon="5.43981">
        <ele>771.41</ele>
        <time>2018-08-16T14:54:43.000Z</time>
      </trkpt>
      <trkpt lat="44.74497" lon="5.43981">
        <ele>770.01</ele>
        <time>2018-08-16T14:54:53.000Z</time>
      </trkpt>
      <trkpt lat="44.74506" lon="5.43975">
        <ele>765.67</ele>
        <time>2018-08-16T14:55:03.000Z</time>
      </trkpt>
      <trkpt lat="44.74515" lon="5.43972">
        <ele>763.01</ele>
        <time>2018-08-16T14:55:14.000Z</time>
      </trkpt>
      <trkpt lat="44.74524" lon="5.43969">
        <ele>760.16</ele>
        <time>2018-08-16T14:55:29.000Z</time>
      </trkpt>
      <trkpt lat="44.74533" lon="5.43965">
        <ele>757.41</ele>
        <time>2018-08-16T14:55:41.000Z</time>
      </trkpt>
      <trkpt lat="44.74542" lon="5.43958">
        <ele>753.5</ele>
        <time>2018-08-16T14:55:51.000Z</time>
      </trkpt>
      <trkpt lat="44.74554" lon="5.43958">
        <ele>753.04</ele>
        <time>2018-08-16T14:56:01.000Z</time>
      </trkpt>
      <trkpt lat="44.74564" lon="5.43956">
        <ele>751.91</ele>
        <time>2018-08-16T14:56:11.000Z</time>
      </trkpt>
      <trkpt lat="44.74576" lon="5.43955">
        <ele>750.63</ele>
        <time>2018-08-16T14:56:21.000Z</time>
      </trkpt>
      <trkpt lat="44.74587" lon="5.43962">
        <ele>752.55</ele>
        <time>2018-08-16T14:56:31.000Z</time>
      </trkpt>
      <trkpt lat="44.74594" lon="5.43972">
        <ele>755.59</ele>
        <time>2018-08-16T14:56:42.000Z</time>
      </trkpt>
      <trkpt lat="44.74602" lon="5.43979">
        <ele>756.85</ele>
        <time>2018-08-16T14:56:52.000Z</time>
      </trkpt>
      <trkpt lat="44.74612" lon="5.43984">
        <ele>756.1</ele>
        <time>2018-08-16T14:57:02.000Z</time>
      </trkpt>
      <trkpt lat="44.74623" lon="5.43986">
        <ele>753.98</ele>
        <time>2018-08-16T14:57:13.000Z</time>
      </trkpt>
      <trkpt lat="44.74633" lon="5.43988">
        <ele>751.55</ele>
        <time>2018-08-16T14:57:23.000Z</time>
      </trkpt>
      <trkpt lat="44.74642" lon="5.43981">
        <ele>746.81</ele>
        <time>2018-08-16T14:57:33.000Z</time>
      </trkpt>
      <trkpt lat="44.7465" lon="5.43973">
        <ele>742.43</ele>
        <time>2018-08-16T14:57:47.000Z</time>
      </trkpt>
      <trkpt lat="44.74658" lon="5.4398">
        <ele>743.99</ele>
        <time>2018-08-16T14:57:58.000Z</time>
      </trkpt>
      <trkpt lat="44.74674" lon="5.43982">
        <ele>744.07</ele>
        <time>2018-08-16T14:58:08.000Z</time>
      </trkpt>
      <trkpt lat="44.74682" lon="5.43976">
        <ele>743.28</ele>
        <time>2018-08-16T14:58:20.000Z</time>
      </trkpt>
      <trkpt lat="44.7469" lon="5.43958">
        <ele>741.75</ele>
        <time>2018-08-16T14:58:30.000Z</time>
      </trkpt>
      <trkpt lat="44.74699" lon="5.43958">
        <ele>744.67</ele>
        <time>2018-08-16T14:58:49.000Z</time>
      </trkpt>
      <trkpt lat="44.74697" lon="5.43945">
        <ele>743.19</ele>
        <time>2018-08-16T14:59:07.000Z</time>
      </trkpt>
      <trkpt lat="44.74693" lon="5.43932">
        <ele>740.54</ele>
        <time>2018-08-16T14:59:19.000Z</time>
      </trkpt>
      <trkpt lat="44.74688" lon="5.43922">
        <ele>737.19</ele>
        <time>2018-08-16T14:59:29.000Z</time>
      </trkpt>
      <trkpt lat="44.74682" lon="5.43912">
        <ele>733.31</ele>
        <time>2018-08-16T14:59:43.000Z</time>
      </trkpt>
      <trkpt lat="44.74679" lon="5.43899">
        <ele>730.96</ele>
        <time>2018-08-16T14:59:56.000Z</time>
      </trkpt>
      <trkpt lat="44.74678" lon="5.43887">
        <ele>730.48</ele>
        <time>2018-08-16T15:00:06.000Z</time>
      </trkpt>
      <trkpt lat="44.74674" lon="5.43874">
        <ele>728.48</ele>
        <time>2018-08-16T15:00:19.000Z</time>
      </trkpt>
      <trkpt lat="44.7467" lon="5.43862">
        <ele>726.75</ele>
        <time>2018-08-16T15:00:29.000Z</time>
      </trkpt>
      <trkpt lat="44.74667" lon="5.43842">
        <ele>725.48</ele>
        <time>2018-08-16T15:02:37.000Z</time>
      </trkpt>
      <trkpt lat="44.74662" lon="5.43831">
        <ele>723.19</ele>
        <time>2018-08-16T15:02:47.000Z</time>
      </trkpt>
      <trkpt lat="44.74657" lon="5.4382">
        <ele>720.61</ele>
        <time>2018-08-16T15:03:01.000Z</time>
      </trkpt>
      <trkpt lat="44.74651" lon="5.43807">
        <ele>717.55</ele>
        <time>2018-08-16T15:03:11.000Z</time>
      </trkpt>
      <trkpt lat="44.74649" lon="5.43793">
        <ele>715.63</ele>
        <time>2018-08-16T15:03:21.000Z</time>
      </trkpt>
      <trkpt lat="44.7465" lon="5.4378">
        <ele>714.86</ele>
        <time>2018-08-16T15:03:32.000Z</time>
      </trkpt>
      <trkpt lat="44.74652" lon="5.43765">
        <ele>713.98</ele>
        <time>2018-08-16T15:03:42.000Z</time>
      </trkpt>
      <trkpt lat="44.74647" lon="5.43754">
        <ele>711.76</ele>
        <time>2018-08-16T15:03:57.000Z</time>
      </trkpt>
      <trkpt lat="44.74645" lon="5.43739">
        <ele>710.17</ele>
        <time>2018-08-16T15:04:10.000Z</time>
      </trkpt>
      <trkpt lat="44.74642" lon="5.43727">
        <ele>708.56</ele>
        <time>2018-08-16T15:04:25.000Z</time>
      </trkpt>
      <trkpt lat="44.74633" lon="5.43724">
        <ele>706.02</ele>
        <time>2018-08-16T15:04:51.000Z</time>
      </trkpt>
      <trkpt lat="44.74624" lon="5.43722">
        <ele>703.51</ele>
        <time>2018-08-16T15:05:22.000Z</time>
      </trkpt>
      <trkpt lat="44.74625" lon="5.43706">
        <ele>702.26</ele>
        <time>2018-08-16T15:06:18.000Z</time>
      </trkpt>
      <trkpt lat="44.74611" lon="5.43698">
        <ele>698.08</ele>
        <time>2018-08-16T15:06:28.000Z</time>
      </trkpt>
      <trkpt lat="44.74614" lon="5.43685">
        <ele>697.13</ele>
        <time>2018-08-16T15:06:39.000Z</time>
      </trkpt>
      <trkpt lat="44.74613" lon="5.43671">
        <ele>695.37</ele>
        <time>2018-08-16T15:06:49.000Z</time>
      </trkpt>
      <trkpt lat="44.74615" lon="5.43658">
        <ele>694.32</ele>
        <time>2018-08-16T15:07:00.000Z</time>
      </trkpt>
      <trkpt lat="44.74614" lon="5.43645">
        <ele>692.41</ele>
        <time>2018-08-16T15:07:12.000Z</time>
      </trkpt>
      <trkpt lat="44.7461" lon="5.43632">
        <ele>689.68</ele>
        <time>2018-08-16T15:07:23.000Z</time>
      </trkpt>
      <trkpt lat="44.74609" lon="5.43616">
        <ele>687.1</ele>
        <time>2018-08-16T15:07:33.000Z</time>
      </trkpt>
      <trkpt lat="44.74606" lon="5.43603">
        <ele>684.41</ele>
        <time>2018-08-16T15:07:44.000Z</time>
      </trkpt>
      <trkpt lat="44.74601" lon="5.43592">
        <ele>681.62</ele>
        <time>2018-08-16T15:08:03.000Z</time>
      </trkpt>
      <trkpt lat="44.74599" lon="5.43572">
        <ele>678.67</ele>
        <time>2018-08-16T15:08:13.000Z</time>
      </trkpt>
      <trkpt lat="44.74599" lon="5.43558">
        <ele>677.14</ele>
        <time>2018-08-16T15:08:23.000Z</time>
      </trkpt>
      <trkpt lat="44.74591" lon="5.43545">
        <ele>674.46</ele>
        <time>2018-08-16T15:08:33.000Z</time>
      </trkpt>
      <trkpt lat="44.74586" lon="5.43532">
        <ele>673.14</ele>
        <time>2018-08-16T15:08:44.000Z</time>
      </trkpt>
      <trkpt lat="44.74589" lon="5.43509">
        <ele>671.58</ele>
        <time>2018-08-16T15:08:54.000Z</time>
      </trkpt>
      <trkpt lat="44.7459" lon="5.43495">
        <ele>670.8</ele>
        <time>2018-08-16T15:09:15.000Z</time>
      </trkpt>
      <trkpt lat="44.74594" lon="5.43483">
        <ele>670.47</ele>
        <time>2018-08-16T15:09:37.000Z</time>
      </trkpt>
      <trkpt lat="44.74595" lon="5.4347">
        <ele>670.1</ele>
        <time>2018-08-16T15:09:57.000Z</time>
      </trkpt>
      <trkpt lat="44.7459" lon="5.43456">
        <ele>669.51</ele>
        <time>2018-08-16T15:10:13.000Z</time>
      </trkpt>
      <trkpt lat="44.74588" lon="5.43443">
        <ele>669.15</ele>
        <time>2018-08-16T15:10:46.000Z</time>
      </trkpt>
      <trkpt lat="44.74584" lon="5.4343">
        <ele>668.77</ele>
        <time>2018-08-16T15:10:58.000Z</time>
      </trkpt>
      <trkpt lat="44.7458" lon="5.43413">
        <ele>667.83</ele>
        <time>2018-08-16T15:11:08.000Z</time>
      </trkpt>
      <trkpt lat="44.74572" lon="5.43407">
        <ele>667.53</ele>
        <time>2018-08-16T15:11:24.000Z</time>
      </trkpt>
      <trkpt lat="44.74571" lon="5.43394">
        <ele>666.22</ele>
        <time>2018-08-16T15:11:50.000Z</time>
      </trkpt>
      <trkpt lat="44.74579" lon="5.43387">
        <ele>665.35</ele>
        <time>2018-08-16T15:12:15.000Z</time>
      </trkpt>
      <trkpt lat="44.74587" lon="5.43378">
        <ele>664.16</ele>
        <time>2018-08-16T15:12:32.000Z</time>
      </trkpt>
      <trkpt lat="44.74597" lon="5.43369">
        <ele>663.09</ele>
        <time>2018-08-16T15:12:42.000Z</time>
      </trkpt>
      <trkpt lat="44.74594" lon="5.43355">
        <ele>661.44</ele>
        <time>2018-08-16T15:12:52.000Z</time>
      </trkpt>
      <trkpt lat="44.74589" lon="5.43341">
        <ele>659.86</ele>
        <time>2018-08-16T15:13:02.000Z</time>
      </trkpt>
      <trkpt lat="44.74609" lon="5.43306">
        <ele>657.45</ele>
        <time>2018-08-16T15:13:13.000Z</time>
      </trkpt>
      <trkpt lat="44.74595" lon="5.43306">
        <ele>656.14</ele>
        <time>2018-08-16T15:13:23.000Z</time>
      </trkpt>
      <trkpt lat="44.74601" lon="5.43296">
        <ele>655.57</ele>
        <time>2018-08-16T15:13:39.000Z</time>
      </trkpt>
      <trkpt lat="44.74597" lon="5.43284">
        <ele>653.9</ele>
        <time>2018-08-16T15:13:50.000Z</time>
      </trkpt>
      <trkpt lat="44.74589" lon="5.43275">
        <ele>652.42</ele>
        <time>2018-08-16T15:14:02.000Z</time>
      </trkpt>
      <trkpt lat="44.74581" lon="5.43268">
        <ele>651.45</ele>
        <time>2018-08-16T15:14:16.000Z</time>
      </trkpt>
      <trkpt lat="44.74577" lon="5.43255">
        <ele>650.14</ele>
        <time>2018-08-16T15:14:26.000Z</time>
      </trkpt>
      <trkpt lat="44.74569" lon="5.43246">
        <ele>649.37</ele>
        <time>2018-08-16T15:14:53.000Z</time>
      </trkpt>
      <trkpt lat="44.74558" lon="5.43241">
        <ele>649.06</ele>
        <time>2018-08-16T15:15:03.000Z</time>
      </trkpt>
      <trkpt lat="44.74543" lon="5.43242">
        <ele>649.7</ele>
        <time>2018-08-16T15:15:13.000Z</time>
      </trkpt>
      <trkpt lat="44.74548" lon="5.43258">
        <ele>650.86</ele>
        <time>2018-08-16T15:15:23.000Z</time>
      </trkpt>
      <trkpt lat="44.7454" lon="5.43265">
        <ele>652.18</ele>
        <time>2018-08-16T15:15:34.000Z</time>
      </trkpt>
      <trkpt lat="44.74533" lon="5.43274">
        <ele>654</ele>
        <time>2018-08-16T15:15:46.000Z</time>
      </trkpt>
      <trkpt lat="44.74527" lon="5.43284">
        <ele>656.05</ele>
        <time>2018-08-16T15:16:01.000Z</time>
      </trkpt>
      <trkpt lat="44.74522" lon="5.43283">
        <ele>656.83</ele>
        <time>2018-08-16T15:20:01.000Z</time>
      </trkpt>
    </trkseg>
  </trk>
</gpx>